<?xml version="1.0" encoding="UTF-8"?>
<gpx version="1.1" creator="https://www.youtrack.es" xsi:schemaLocation="http://www.topografix.com/GPX/1/1 http://www.topografix.com/GPX/1/1/gpx.xsd http://www.garmin.com/xmlschemas/GpxExtensions/v3 http://www.garmin.com/xmlschemas/GpxExtensionsv3.xsd http://www.garmin.com/xmlschemas/TrackPointExtension/v1 http://www.garmin.com/xmlschemas/TrackPointExtensionv1.xsd" xmlns:gpxtpx="http://www.garmin.com/xmlschemas/TrackPointExtension/v1" xmlns:gpxx="http://www.garmin.com/xmlschemas/GpxExtensions/v3" xmlns:xsi="http://www.w3.org/2001/XMLSchema-instance">
  <metadata>
    <link href="https://www.youtrack.es">
      <text>YouTrack.es</text>
    </link>
    <time>2026-05-08T10:42:59Z</time>
  </metadata>
  <trk>
    <src>https://www.youtrack.es</src>
    <link href="https://www.youtrack.es/ruta/39670-el-gaitero-chipeque">
      <text>YouTrack.es</text>
    </link>
    <trkseg>
      <trkpt lat="28.394762" lon="-16.431965">
        <ele>1754.1</ele>
        <time>2021-07-10T09:49:55Z</time>
      </trkpt>
      <trkpt lat="28.394761" lon="-16.431997">
        <ele>1753.1</ele>
        <time>2021-07-10T09:49:57Z</time>
      </trkpt>
      <trkpt lat="28.394745" lon="-16.432009">
        <ele>1752.0</ele>
        <time>2021-07-10T09:49:59Z</time>
      </trkpt>
      <trkpt lat="28.394725" lon="-16.432053">
        <ele>1749.0</ele>
        <time>2021-07-10T09:50:02Z</time>
      </trkpt>
      <trkpt lat="28.394719" lon="-16.432271">
        <ele>1742.0</ele>
        <time>2021-07-10T09:50:41Z</time>
      </trkpt>
      <trkpt lat="28.394684" lon="-16.432316">
        <ele>1741.0</ele>
        <time>2021-07-10T09:51:04Z</time>
      </trkpt>
      <trkpt lat="28.394703" lon="-16.432457">
        <ele>1743.0</ele>
        <time>2021-07-10T09:51:30Z</time>
      </trkpt>
      <trkpt lat="28.394727" lon="-16.432544">
        <ele>1744.0</ele>
        <time>2021-07-10T09:51:34Z</time>
      </trkpt>
      <trkpt lat="28.394718" lon="-16.432607">
        <ele>1743.0</ele>
        <time>2021-07-10T09:51:41Z</time>
      </trkpt>
      <trkpt lat="28.394667" lon="-16.432652">
        <ele>1737.0</ele>
        <time>2021-07-10T09:52:06Z</time>
      </trkpt>
      <trkpt lat="28.394656" lon="-16.432688">
        <ele>1740.0</ele>
        <time>2021-07-10T09:52:12Z</time>
      </trkpt>
      <trkpt lat="28.394662" lon="-16.432728">
        <ele>1740.0</ele>
        <time>2021-07-10T09:52:16Z</time>
      </trkpt>
      <trkpt lat="28.394753" lon="-16.432947">
        <ele>1744.0</ele>
        <time>2021-07-10T09:52:28Z</time>
      </trkpt>
      <trkpt lat="28.394763" lon="-16.433016">
        <ele>1744.0</ele>
        <time>2021-07-10T09:52:32Z</time>
      </trkpt>
      <trkpt lat="28.394797" lon="-16.43308">
        <ele>1743.0</ele>
        <time>2021-07-10T09:52:38Z</time>
      </trkpt>
      <trkpt lat="28.394917" lon="-16.433204">
        <ele>1744.0</ele>
        <time>2021-07-10T09:52:48Z</time>
      </trkpt>
      <trkpt lat="28.394936" lon="-16.433387">
        <ele>1745.0</ele>
        <time>2021-07-10T09:53:21Z</time>
      </trkpt>
      <trkpt lat="28.394963" lon="-16.433471">
        <ele>1745.3</ele>
        <time>2021-07-10T09:54:52Z</time>
      </trkpt>
      <trkpt lat="28.394991" lon="-16.433483">
        <ele>1744.0</ele>
        <time>2021-07-10T09:54:53Z</time>
      </trkpt>
      <trkpt lat="28.39499" lon="-16.433501">
        <ele>1742.0</ele>
        <time>2021-07-10T09:55:02Z</time>
      </trkpt>
      <trkpt lat="28.394934" lon="-16.433529">
        <ele>1740.0</ele>
        <time>2021-07-10T09:55:49Z</time>
      </trkpt>
      <trkpt lat="28.394896" lon="-16.433599">
        <ele>1743.0</ele>
        <time>2021-07-10T09:56:01Z</time>
      </trkpt>
      <trkpt lat="28.394841" lon="-16.433644">
        <ele>1741.0</ele>
        <time>2021-07-10T09:56:08Z</time>
      </trkpt>
      <trkpt lat="28.394805" lon="-16.433653">
        <ele>1740.0</ele>
        <time>2021-07-10T09:56:13Z</time>
      </trkpt>
      <trkpt lat="28.39476" lon="-16.433624">
        <ele>1743.0</ele>
        <time>2021-07-10T09:56:34Z</time>
      </trkpt>
      <trkpt lat="28.394599" lon="-16.433664">
        <ele>1732.0</ele>
        <time>2021-07-10T09:57:02Z</time>
      </trkpt>
      <trkpt lat="28.394591" lon="-16.433633">
        <ele>1740.0</ele>
        <time>2021-07-10T09:57:31Z</time>
      </trkpt>
      <trkpt lat="28.394616" lon="-16.433635">
        <ele>1740.0</ele>
        <time>2021-07-10T09:58:15Z</time>
      </trkpt>
      <trkpt lat="28.394599" lon="-16.433691">
        <ele>1740.0</ele>
        <time>2021-07-10T09:58:49Z</time>
      </trkpt>
      <trkpt lat="28.39452" lon="-16.433833">
        <ele>1738.0</ele>
        <time>2021-07-10T09:59:01Z</time>
      </trkpt>
      <trkpt lat="28.394522" lon="-16.433867">
        <ele>1738.8</ele>
        <time>2021-07-10T09:59:04Z</time>
      </trkpt>
      <trkpt lat="28.394491" lon="-16.43394">
        <ele>1735.0</ele>
        <time>2021-07-10T09:59:11Z</time>
      </trkpt>
      <trkpt lat="28.394477" lon="-16.434021">
        <ele>1735.0</ele>
        <time>2021-07-10T09:59:19Z</time>
      </trkpt>
      <trkpt lat="28.394447" lon="-16.434055">
        <ele>1730.0</ele>
        <time>2021-07-10T09:59:58Z</time>
      </trkpt>
      <trkpt lat="28.394438" lon="-16.434095">
        <ele>1734.0</ele>
        <time>2021-07-10T10:00:19Z</time>
      </trkpt>
      <trkpt lat="28.394411" lon="-16.434119">
        <ele>1735.0</ele>
        <time>2021-07-10T10:00:23Z</time>
      </trkpt>
      <trkpt lat="28.39436" lon="-16.434213">
        <ele>1728.0</ele>
        <time>2021-07-10T10:00:35Z</time>
      </trkpt>
      <trkpt lat="28.394299" lon="-16.434201">
        <ele>1729.0</ele>
        <time>2021-07-10T10:00:43Z</time>
      </trkpt>
      <trkpt lat="28.39424" lon="-16.434274">
        <ele>1725.0</ele>
        <time>2021-07-10T10:00:59Z</time>
      </trkpt>
      <trkpt lat="28.394182" lon="-16.434464">
        <ele>1715.0</ele>
        <time>2021-07-10T10:01:20Z</time>
      </trkpt>
      <trkpt lat="28.394108" lon="-16.434574">
        <ele>1718.0</ele>
        <time>2021-07-10T10:01:32Z</time>
      </trkpt>
      <trkpt lat="28.394059" lon="-16.43458">
        <ele>1718.9</ele>
        <time>2021-07-10T10:01:36Z</time>
      </trkpt>
      <trkpt lat="28.39405" lon="-16.434683">
        <ele>1714.0</ele>
        <time>2021-07-10T10:01:55Z</time>
      </trkpt>
      <trkpt lat="28.393993" lon="-16.434668">
        <ele>1714.0</ele>
        <time>2021-07-10T10:02:27Z</time>
      </trkpt>
      <trkpt lat="28.393997" lon="-16.434737">
        <ele>1716.0</ele>
        <time>2021-07-10T10:03:19Z</time>
      </trkpt>
      <trkpt lat="28.393973" lon="-16.434734">
        <ele>1716.0</ele>
        <time>2021-07-10T10:03:31Z</time>
      </trkpt>
      <trkpt lat="28.393953" lon="-16.434678">
        <ele>1716.0</ele>
        <time>2021-07-10T10:03:44Z</time>
      </trkpt>
      <trkpt lat="28.39394" lon="-16.434738">
        <ele>1718.0</ele>
        <time>2021-07-10T10:04:02Z</time>
      </trkpt>
      <trkpt lat="28.393908" lon="-16.434793">
        <ele>1715.0</ele>
        <time>2021-07-10T10:04:28Z</time>
      </trkpt>
      <trkpt lat="28.393923" lon="-16.434838">
        <ele>1715.0</ele>
        <time>2021-07-10T10:04:40Z</time>
      </trkpt>
      <trkpt lat="28.39396" lon="-16.434874">
        <ele>1716.0</ele>
        <time>2021-07-10T10:04:44Z</time>
      </trkpt>
      <trkpt lat="28.394025" lon="-16.4349">
        <ele>1717.0</ele>
        <time>2021-07-10T10:05:01Z</time>
      </trkpt>
      <trkpt lat="28.39409" lon="-16.434895">
        <ele>1700.0</ele>
        <time>2021-07-10T10:05:17Z</time>
      </trkpt>
      <trkpt lat="28.394153" lon="-16.434877">
        <ele>1716.0</ele>
        <time>2021-07-10T10:05:37Z</time>
      </trkpt>
      <trkpt lat="28.394171" lon="-16.43484">
        <ele>1716.0</ele>
        <time>2021-07-10T10:05:42Z</time>
      </trkpt>
      <trkpt lat="28.39425" lon="-16.43484">
        <ele>1715.0</ele>
        <time>2021-07-10T10:05:50Z</time>
      </trkpt>
      <trkpt lat="28.394432" lon="-16.434806">
        <ele>1716.0</ele>
        <time>2021-07-10T10:06:06Z</time>
      </trkpt>
      <trkpt lat="28.394531" lon="-16.434772">
        <ele>1716.0</ele>
        <time>2021-07-10T10:06:15Z</time>
      </trkpt>
      <trkpt lat="28.39459" lon="-16.434732">
        <ele>1716.0</ele>
        <time>2021-07-10T10:06:21Z</time>
      </trkpt>
      <trkpt lat="28.394648" lon="-16.43476">
        <ele>1716.0</ele>
        <time>2021-07-10T10:06:31Z</time>
      </trkpt>
      <trkpt lat="28.394674" lon="-16.434732">
        <ele>1717.0</ele>
        <time>2021-07-10T10:06:34Z</time>
      </trkpt>
      <trkpt lat="28.394801" lon="-16.434695">
        <ele>1718.0</ele>
        <time>2021-07-10T10:06:43Z</time>
      </trkpt>
      <trkpt lat="28.39494" lon="-16.434686">
        <ele>1719.0</ele>
        <time>2021-07-10T10:06:52Z</time>
      </trkpt>
      <trkpt lat="28.394976" lon="-16.434695">
        <ele>1716.0</ele>
        <time>2021-07-10T10:06:56Z</time>
      </trkpt>
      <trkpt lat="28.395073" lon="-16.434668">
        <ele>1716.0</ele>
        <time>2021-07-10T10:07:05Z</time>
      </trkpt>
      <trkpt lat="28.395183" lon="-16.434659">
        <ele>1712.0</ele>
        <time>2021-07-10T10:07:16Z</time>
      </trkpt>
      <trkpt lat="28.395339" lon="-16.434712">
        <ele>1707.0</ele>
        <time>2021-07-10T10:07:31Z</time>
      </trkpt>
      <trkpt lat="28.395388" lon="-16.434645">
        <ele>1708.0</ele>
        <time>2021-07-10T10:07:50Z</time>
      </trkpt>
      <trkpt lat="28.395444" lon="-16.434603">
        <ele>1704.0</ele>
        <time>2021-07-10T10:08:23Z</time>
      </trkpt>
      <trkpt lat="28.395434" lon="-16.434632">
        <ele>1703.0</ele>
        <time>2021-07-10T10:09:08Z</time>
      </trkpt>
      <trkpt lat="28.395402" lon="-16.434656">
        <ele>1706.0</ele>
        <time>2021-07-10T10:09:51Z</time>
      </trkpt>
      <trkpt lat="28.395428" lon="-16.434675">
        <ele>1705.0</ele>
        <time>2021-07-10T10:10:01Z</time>
      </trkpt>
      <trkpt lat="28.395547" lon="-16.434685">
        <ele>1701.0</ele>
        <time>2021-07-10T10:10:41Z</time>
      </trkpt>
      <trkpt lat="28.395587" lon="-16.434677">
        <ele>1700.8</ele>
        <time>2021-07-10T10:10:44Z</time>
      </trkpt>
      <trkpt lat="28.395686" lon="-16.434694">
        <ele>1696.0</ele>
        <time>2021-07-10T10:10:57Z</time>
      </trkpt>
      <trkpt lat="28.395755" lon="-16.43478">
        <ele>1692.0</ele>
        <time>2021-07-10T10:11:10Z</time>
      </trkpt>
      <trkpt lat="28.395826" lon="-16.434808">
        <ele>1689.0</ele>
        <time>2021-07-10T10:11:18Z</time>
      </trkpt>
      <trkpt lat="28.395851" lon="-16.434837">
        <ele>1685.0</ele>
        <time>2021-07-10T10:11:23Z</time>
      </trkpt>
      <trkpt lat="28.395893" lon="-16.434821">
        <ele>1686.0</ele>
        <time>2021-07-10T10:12:18Z</time>
      </trkpt>
      <trkpt lat="28.395891" lon="-16.434857">
        <ele>1682.0</ele>
        <time>2021-07-10T10:13:10Z</time>
      </trkpt>
      <trkpt lat="28.395936" lon="-16.434938">
        <ele>1683.0</ele>
        <time>2021-07-10T10:13:43Z</time>
      </trkpt>
      <trkpt lat="28.395985" lon="-16.434974">
        <ele>1680.0</ele>
        <time>2021-07-10T10:13:53Z</time>
      </trkpt>
      <trkpt lat="28.396001" lon="-16.435008">
        <ele>1682.0</ele>
        <time>2021-07-10T10:13:56Z</time>
      </trkpt>
      <trkpt lat="28.39603" lon="-16.435037">
        <ele>1680.0</ele>
        <time>2021-07-10T10:14:01Z</time>
      </trkpt>
      <trkpt lat="28.396103" lon="-16.435069">
        <ele>1680.0</ele>
        <time>2021-07-10T10:14:24Z</time>
      </trkpt>
      <trkpt lat="28.396105" lon="-16.435045">
        <ele>1677.0</ele>
        <time>2021-07-10T10:14:46Z</time>
      </trkpt>
      <trkpt lat="28.396133" lon="-16.435052">
        <ele>1680.0</ele>
        <time>2021-07-10T10:15:14Z</time>
      </trkpt>
      <trkpt lat="28.396181" lon="-16.435119">
        <ele>1676.0</ele>
        <time>2021-07-10T10:15:22Z</time>
      </trkpt>
      <trkpt lat="28.396189" lon="-16.435154">
        <ele>1677.0</ele>
        <time>2021-07-10T10:15:26Z</time>
      </trkpt>
      <trkpt lat="28.39623" lon="-16.435206">
        <ele>1676.0</ele>
        <time>2021-07-10T10:15:32Z</time>
      </trkpt>
      <trkpt lat="28.39626" lon="-16.435205">
        <ele>1673.0</ele>
        <time>2021-07-10T10:15:36Z</time>
      </trkpt>
      <trkpt lat="28.396286" lon="-16.435232">
        <ele>1672.0</ele>
        <time>2021-07-10T10:15:40Z</time>
      </trkpt>
      <trkpt lat="28.39632" lon="-16.435299">
        <ele>1674.0</ele>
        <time>2021-07-10T10:15:49Z</time>
      </trkpt>
      <trkpt lat="28.396349" lon="-16.435311">
        <ele>1674.0</ele>
        <time>2021-07-10T10:15:54Z</time>
      </trkpt>
      <trkpt lat="28.396392" lon="-16.435373">
        <ele>1674.0</ele>
        <time>2021-07-10T10:15:59Z</time>
      </trkpt>
      <trkpt lat="28.39646" lon="-16.435395">
        <ele>1672.0</ele>
        <time>2021-07-10T10:16:04Z</time>
      </trkpt>
      <trkpt lat="28.396491" lon="-16.435426">
        <ele>1669.0</ele>
        <time>2021-07-10T10:16:09Z</time>
      </trkpt>
      <trkpt lat="28.396496" lon="-16.435458">
        <ele>1668.0</ele>
        <time>2021-07-10T10:16:13Z</time>
      </trkpt>
      <trkpt lat="28.396514" lon="-16.435485">
        <ele>1668.0</ele>
        <time>2021-07-10T10:16:17Z</time>
      </trkpt>
      <trkpt lat="28.396565" lon="-16.435527">
        <ele>1668.0</ele>
        <time>2021-07-10T10:16:23Z</time>
      </trkpt>
      <trkpt lat="28.396675" lon="-16.435682">
        <ele>1665.0</ele>
        <time>2021-07-10T10:16:42Z</time>
      </trkpt>
      <trkpt lat="28.396722" lon="-16.435801">
        <ele>1665.0</ele>
        <time>2021-07-10T10:16:55Z</time>
      </trkpt>
      <trkpt lat="28.396752" lon="-16.435829">
        <ele>1662.0</ele>
        <time>2021-07-10T10:17:02Z</time>
      </trkpt>
      <trkpt lat="28.396666" lon="-16.435796">
        <ele>1663.0</ele>
        <time>2021-07-10T10:17:42Z</time>
      </trkpt>
      <trkpt lat="28.396636" lon="-16.435858">
        <ele>1660.0</ele>
        <time>2021-07-10T10:18:11Z</time>
      </trkpt>
      <trkpt lat="28.396594" lon="-16.435874">
        <ele>1664.0</ele>
        <time>2021-07-10T10:18:17Z</time>
      </trkpt>
      <trkpt lat="28.396524" lon="-16.435933">
        <ele>1664.0</ele>
        <time>2021-07-10T10:18:34Z</time>
      </trkpt>
      <trkpt lat="28.396515" lon="-16.435972">
        <ele>1664.0</ele>
        <time>2021-07-10T10:18:41Z</time>
      </trkpt>
      <trkpt lat="28.396564" lon="-16.436111">
        <ele>1650.0</ele>
        <time>2021-07-10T10:18:57Z</time>
      </trkpt>
      <trkpt lat="28.396434" lon="-16.436071">
        <ele>1662.0</ele>
        <time>2021-07-10T10:19:15Z</time>
      </trkpt>
      <trkpt lat="28.396185" lon="-16.435932">
        <ele>1664.0</ele>
        <time>2021-07-10T10:19:45Z</time>
      </trkpt>
      <trkpt lat="28.396118" lon="-16.435931">
        <ele>1660.0</ele>
        <time>2021-07-10T10:19:55Z</time>
      </trkpt>
      <trkpt lat="28.396052" lon="-16.435977">
        <ele>1665.0</ele>
        <time>2021-07-10T10:20:08Z</time>
      </trkpt>
      <trkpt lat="28.395963" lon="-16.435993">
        <ele>1662.0</ele>
        <time>2021-07-10T10:20:19Z</time>
      </trkpt>
      <trkpt lat="28.395899" lon="-16.435973">
        <ele>1659.0</ele>
        <time>2021-07-10T10:20:27Z</time>
      </trkpt>
      <trkpt lat="28.395863" lon="-16.435994">
        <ele>1660.0</ele>
        <time>2021-07-10T10:20:32Z</time>
      </trkpt>
      <trkpt lat="28.395838" lon="-16.436029">
        <ele>1659.0</ele>
        <time>2021-07-10T10:20:38Z</time>
      </trkpt>
      <trkpt lat="28.395807" lon="-16.436043">
        <ele>1659.0</ele>
        <time>2021-07-10T10:20:43Z</time>
      </trkpt>
      <trkpt lat="28.395511" lon="-16.436042">
        <ele>1655.0</ele>
        <time>2021-07-10T10:21:11Z</time>
      </trkpt>
      <trkpt lat="28.39536" lon="-16.43614">
        <ele>1656.0</ele>
        <time>2021-07-10T10:21:41Z</time>
      </trkpt>
      <trkpt lat="28.395278" lon="-16.436237">
        <ele>1656.0</ele>
        <time>2021-07-10T10:21:49Z</time>
      </trkpt>
      <trkpt lat="28.395284" lon="-16.436293">
        <ele>1656.0</ele>
        <time>2021-07-10T10:21:55Z</time>
      </trkpt>
      <trkpt lat="28.395265" lon="-16.436364">
        <ele>1654.0</ele>
        <time>2021-07-10T10:22:03Z</time>
      </trkpt>
      <trkpt lat="28.39531" lon="-16.43643">
        <ele>1656.0</ele>
        <time>2021-07-10T10:22:13Z</time>
      </trkpt>
      <trkpt lat="28.395341" lon="-16.436442">
        <ele>1648.0</ele>
        <time>2021-07-10T10:22:18Z</time>
      </trkpt>
      <trkpt lat="28.395398" lon="-16.436428">
        <ele>1652.0</ele>
        <time>2021-07-10T10:22:27Z</time>
      </trkpt>
      <trkpt lat="28.395566" lon="-16.436437">
        <ele>1648.0</ele>
        <time>2021-07-10T10:22:46Z</time>
      </trkpt>
      <trkpt lat="28.395622" lon="-16.436464">
        <ele>1646.0</ele>
        <time>2021-07-10T10:22:51Z</time>
      </trkpt>
      <trkpt lat="28.395711" lon="-16.436554">
        <ele>1644.0</ele>
        <time>2021-07-10T10:23:04Z</time>
      </trkpt>
      <trkpt lat="28.395743" lon="-16.436557">
        <ele>1644.0</ele>
        <time>2021-07-10T10:23:08Z</time>
      </trkpt>
      <trkpt lat="28.39578" lon="-16.436581">
        <ele>1642.0</ele>
        <time>2021-07-10T10:23:11Z</time>
      </trkpt>
      <trkpt lat="28.395798" lon="-16.436612">
        <ele>1642.0</ele>
        <time>2021-07-10T10:23:13Z</time>
      </trkpt>
      <trkpt lat="28.395851" lon="-16.436639">
        <ele>1638.0</ele>
        <time>2021-07-10T10:23:21Z</time>
      </trkpt>
      <trkpt lat="28.3959" lon="-16.436695">
        <ele>1641.0</ele>
        <time>2021-07-10T10:23:34Z</time>
      </trkpt>
      <trkpt lat="28.395955" lon="-16.436773">
        <ele>1638.0</ele>
        <time>2021-07-10T10:23:44Z</time>
      </trkpt>
      <trkpt lat="28.395946" lon="-16.436848">
        <ele>1644.0</ele>
        <time>2021-07-10T10:23:52Z</time>
      </trkpt>
      <trkpt lat="28.395949" lon="-16.436921">
        <ele>1644.0</ele>
        <time>2021-07-10T10:24:00Z</time>
      </trkpt>
      <trkpt lat="28.39596" lon="-16.436955">
        <ele>1644.0</ele>
        <time>2021-07-10T10:24:03Z</time>
      </trkpt>
      <trkpt lat="28.396051" lon="-16.437102">
        <ele>1635.0</ele>
        <time>2021-07-10T10:24:22Z</time>
      </trkpt>
      <trkpt lat="28.396083" lon="-16.437107">
        <ele>1636.4</ele>
        <time>2021-07-10T10:24:27Z</time>
      </trkpt>
      <trkpt lat="28.396089" lon="-16.437184">
        <ele>1632.0</ele>
        <time>2021-07-10T10:24:36Z</time>
      </trkpt>
      <trkpt lat="28.396109" lon="-16.437218">
        <ele>1630.0</ele>
        <time>2021-07-10T10:24:41Z</time>
      </trkpt>
      <trkpt lat="28.396134" lon="-16.437237">
        <ele>1624.0</ele>
        <time>2021-07-10T10:24:48Z</time>
      </trkpt>
      <trkpt lat="28.396221" lon="-16.437266">
        <ele>1629.0</ele>
        <time>2021-07-10T10:25:05Z</time>
      </trkpt>
      <trkpt lat="28.396264" lon="-16.437323">
        <ele>1630.0</ele>
        <time>2021-07-10T10:25:19Z</time>
      </trkpt>
      <trkpt lat="28.396309" lon="-16.437343">
        <ele>1628.0</ele>
        <time>2021-07-10T10:25:39Z</time>
      </trkpt>
      <trkpt lat="28.396324" lon="-16.437371">
        <ele>1616.0</ele>
        <time>2021-07-10T10:25:49Z</time>
      </trkpt>
      <trkpt lat="28.396386" lon="-16.437411">
        <ele>1624.0</ele>
        <time>2021-07-10T10:26:05Z</time>
      </trkpt>
      <trkpt lat="28.39657" lon="-16.437642">
        <ele>1618.0</ele>
        <time>2021-07-10T10:26:52Z</time>
      </trkpt>
      <trkpt lat="28.396712" lon="-16.437793">
        <ele>1608.0</ele>
        <time>2021-07-10T10:27:25Z</time>
      </trkpt>
      <trkpt lat="28.396753" lon="-16.437905">
        <ele>1608.0</ele>
        <time>2021-07-10T10:27:42Z</time>
      </trkpt>
      <trkpt lat="28.396755" lon="-16.438059">
        <ele>1606.0</ele>
        <time>2021-07-10T10:27:58Z</time>
      </trkpt>
      <trkpt lat="28.396791" lon="-16.438175">
        <ele>1608.0</ele>
        <time>2021-07-10T10:28:22Z</time>
      </trkpt>
      <trkpt lat="28.396795" lon="-16.438216">
        <ele>1607.0</ele>
        <time>2021-07-10T10:28:25Z</time>
      </trkpt>
      <trkpt lat="28.396848" lon="-16.438288">
        <ele>1608.0</ele>
        <time>2021-07-10T10:28:33Z</time>
      </trkpt>
      <trkpt lat="28.39691" lon="-16.4384">
        <ele>1605.0</ele>
        <time>2021-07-10T10:28:49Z</time>
      </trkpt>
      <trkpt lat="28.396923" lon="-16.438444">
        <ele>1605.0</ele>
        <time>2021-07-10T10:28:53Z</time>
      </trkpt>
      <trkpt lat="28.396968" lon="-16.438489">
        <ele>1601.0</ele>
        <time>2021-07-10T10:28:58Z</time>
      </trkpt>
      <trkpt lat="28.397043" lon="-16.438673">
        <ele>1598.0</ele>
        <time>2021-07-10T10:29:23Z</time>
      </trkpt>
      <trkpt lat="28.397031" lon="-16.438788">
        <ele>1599.0</ele>
        <time>2021-07-10T10:29:34Z</time>
      </trkpt>
      <trkpt lat="28.397045" lon="-16.438818">
        <ele>1600.0</ele>
        <time>2021-07-10T10:29:36Z</time>
      </trkpt>
      <trkpt lat="28.39702" lon="-16.438919">
        <ele>1600.0</ele>
        <time>2021-07-10T10:29:44Z</time>
      </trkpt>
      <trkpt lat="28.396998" lon="-16.438953">
        <ele>1600.0</ele>
        <time>2021-07-10T10:29:47Z</time>
      </trkpt>
      <trkpt lat="28.396983" lon="-16.439021">
        <ele>1598.0</ele>
        <time>2021-07-10T10:29:52Z</time>
      </trkpt>
      <trkpt lat="28.396866" lon="-16.439197">
        <ele>1599.0</ele>
        <time>2021-07-10T10:30:13Z</time>
      </trkpt>
      <trkpt lat="28.396771" lon="-16.439256">
        <ele>1602.0</ele>
        <time>2021-07-10T10:30:23Z</time>
      </trkpt>
      <trkpt lat="28.396705" lon="-16.439329">
        <ele>1604.0</ele>
        <time>2021-07-10T10:30:31Z</time>
      </trkpt>
      <trkpt lat="28.396611" lon="-16.439395">
        <ele>1605.0</ele>
        <time>2021-07-10T10:30:43Z</time>
      </trkpt>
      <trkpt lat="28.3965" lon="-16.43942">
        <ele>1608.0</ele>
        <time>2021-07-10T10:30:55Z</time>
      </trkpt>
      <trkpt lat="28.396445" lon="-16.439412">
        <ele>1611.0</ele>
        <time>2021-07-10T10:31:08Z</time>
      </trkpt>
      <trkpt lat="28.396419" lon="-16.439383">
        <ele>1611.0</ele>
        <time>2021-07-10T10:31:54Z</time>
      </trkpt>
      <trkpt lat="28.396389" lon="-16.439405">
        <ele>1612.0</ele>
        <time>2021-07-10T10:32:06Z</time>
      </trkpt>
      <trkpt lat="28.396414" lon="-16.439423">
        <ele>1610.0</ele>
        <time>2021-07-10T10:32:16Z</time>
      </trkpt>
      <trkpt lat="28.39644" lon="-16.439506">
        <ele>1608.0</ele>
        <time>2021-07-10T10:32:28Z</time>
      </trkpt>
      <trkpt lat="28.396497" lon="-16.439566">
        <ele>1602.0</ele>
        <time>2021-07-10T10:32:40Z</time>
      </trkpt>
      <trkpt lat="28.396479" lon="-16.439561">
        <ele>1604.0</ele>
        <time>2021-07-10T10:32:47Z</time>
      </trkpt>
      <trkpt lat="28.396575" lon="-16.439622">
        <ele>1600.0</ele>
        <time>2021-07-10T10:33:18Z</time>
      </trkpt>
      <trkpt lat="28.396629" lon="-16.439697">
        <ele>1596.0</ele>
        <time>2021-07-10T10:33:33Z</time>
      </trkpt>
      <trkpt lat="28.396656" lon="-16.439737">
        <ele>1594.0</ele>
        <time>2021-07-10T10:33:39Z</time>
      </trkpt>
      <trkpt lat="28.396675" lon="-16.439808">
        <ele>1593.0</ele>
        <time>2021-07-10T10:33:47Z</time>
      </trkpt>
      <trkpt lat="28.396694" lon="-16.439834">
        <ele>1590.0</ele>
        <time>2021-07-10T10:33:51Z</time>
      </trkpt>
      <trkpt lat="28.396727" lon="-16.439852">
        <ele>1584.0</ele>
        <time>2021-07-10T10:34:02Z</time>
      </trkpt>
      <trkpt lat="28.396754" lon="-16.439824">
        <ele>1590.0</ele>
        <time>2021-07-10T10:34:21Z</time>
      </trkpt>
      <trkpt lat="28.396857" lon="-16.439882">
        <ele>1592.0</ele>
        <time>2021-07-10T10:34:41Z</time>
      </trkpt>
      <trkpt lat="28.39697" lon="-16.439967">
        <ele>1585.0</ele>
        <time>2021-07-10T10:34:55Z</time>
      </trkpt>
      <trkpt lat="28.397051" lon="-16.440005">
        <ele>1586.0</ele>
        <time>2021-07-10T10:35:13Z</time>
      </trkpt>
      <trkpt lat="28.397157" lon="-16.440106">
        <ele>1584.0</ele>
        <time>2021-07-10T10:35:29Z</time>
      </trkpt>
      <trkpt lat="28.397143" lon="-16.440081">
        <ele>1584.0</ele>
        <time>2021-07-10T10:35:35Z</time>
      </trkpt>
      <trkpt lat="28.397058" lon="-16.440124">
        <ele>1582.0</ele>
        <time>2021-07-10T10:35:51Z</time>
      </trkpt>
      <trkpt lat="28.397014" lon="-16.440107">
        <ele>1584.0</ele>
        <time>2021-07-10T10:35:56Z</time>
      </trkpt>
      <trkpt lat="28.396909" lon="-16.440143">
        <ele>1582.0</ele>
        <time>2021-07-10T10:36:11Z</time>
      </trkpt>
      <trkpt lat="28.396849" lon="-16.440152">
        <ele>1588.0</ele>
        <time>2021-07-10T10:36:19Z</time>
      </trkpt>
      <trkpt lat="28.396774" lon="-16.440198">
        <ele>1587.0</ele>
        <time>2021-07-10T10:36:40Z</time>
      </trkpt>
      <trkpt lat="28.396697" lon="-16.440288">
        <ele>1584.0</ele>
        <time>2021-07-10T10:36:49Z</time>
      </trkpt>
      <trkpt lat="28.396634" lon="-16.440318">
        <ele>1584.0</ele>
        <time>2021-07-10T10:36:56Z</time>
      </trkpt>
      <trkpt lat="28.396579" lon="-16.440368">
        <ele>1584.0</ele>
        <time>2021-07-10T10:37:03Z</time>
      </trkpt>
      <trkpt lat="28.396488" lon="-16.440427">
        <ele>1584.0</ele>
        <time>2021-07-10T10:37:10Z</time>
      </trkpt>
      <trkpt lat="28.396431" lon="-16.44044">
        <ele>1584.0</ele>
        <time>2021-07-10T10:37:29Z</time>
      </trkpt>
      <trkpt lat="28.396345" lon="-16.440503">
        <ele>1580.0</ele>
        <time>2021-07-10T10:37:35Z</time>
      </trkpt>
      <trkpt lat="28.396299" lon="-16.440495">
        <ele>1581.0</ele>
        <time>2021-07-10T10:37:42Z</time>
      </trkpt>
      <trkpt lat="28.39628" lon="-16.440533">
        <ele>1581.0</ele>
        <time>2021-07-10T10:37:47Z</time>
      </trkpt>
      <trkpt lat="28.396271" lon="-16.440596">
        <ele>1580.0</ele>
        <time>2021-07-10T10:37:51Z</time>
      </trkpt>
      <trkpt lat="28.396289" lon="-16.440748">
        <ele>1577.0</ele>
        <time>2021-07-10T10:38:00Z</time>
      </trkpt>
      <trkpt lat="28.396341" lon="-16.440804">
        <ele>1572.0</ele>
        <time>2021-07-10T10:38:07Z</time>
      </trkpt>
      <trkpt lat="28.39638" lon="-16.440797">
        <ele>1567.0</ele>
        <time>2021-07-10T10:38:12Z</time>
      </trkpt>
      <trkpt lat="28.396404" lon="-16.440768">
        <ele>1568.0</ele>
        <time>2021-07-10T10:38:19Z</time>
      </trkpt>
      <trkpt lat="28.396445" lon="-16.440802">
        <ele>1566.0</ele>
        <time>2021-07-10T10:38:29Z</time>
      </trkpt>
      <trkpt lat="28.396456" lon="-16.44083">
        <ele>1565.0</ele>
        <time>2021-07-10T10:38:34Z</time>
      </trkpt>
      <trkpt lat="28.396485" lon="-16.440838">
        <ele>1564.0</ele>
        <time>2021-07-10T10:38:38Z</time>
      </trkpt>
      <trkpt lat="28.396583" lon="-16.440824">
        <ele>1563.7</ele>
        <time>2021-07-10T10:38:49Z</time>
      </trkpt>
      <trkpt lat="28.396611" lon="-16.440835">
        <ele>1562.0</ele>
        <time>2021-07-10T10:38:51Z</time>
      </trkpt>
      <trkpt lat="28.396667" lon="-16.440802">
        <ele>1561.0</ele>
        <time>2021-07-10T10:39:01Z</time>
      </trkpt>
      <trkpt lat="28.396743" lon="-16.440809">
        <ele>1554.0</ele>
        <time>2021-07-10T10:39:19Z</time>
      </trkpt>
      <trkpt lat="28.396711" lon="-16.440821">
        <ele>1558.0</ele>
        <time>2021-07-10T10:39:30Z</time>
      </trkpt>
      <trkpt lat="28.39668" lon="-16.44085">
        <ele>1560.0</ele>
        <time>2021-07-10T10:39:34Z</time>
      </trkpt>
      <trkpt lat="28.396608" lon="-16.440865">
        <ele>1560.0</ele>
        <time>2021-07-10T10:39:48Z</time>
      </trkpt>
      <trkpt lat="28.396568" lon="-16.440909">
        <ele>1563.0</ele>
        <time>2021-07-10T10:40:02Z</time>
      </trkpt>
      <trkpt lat="28.396574" lon="-16.440949">
        <ele>1565.3</ele>
        <time>2021-07-10T10:40:04Z</time>
      </trkpt>
      <trkpt lat="28.396612" lon="-16.441011">
        <ele>1566.0</ele>
        <time>2021-07-10T10:40:07Z</time>
      </trkpt>
      <trkpt lat="28.396618" lon="-16.441047">
        <ele>1566.0</ele>
        <time>2021-07-10T10:40:10Z</time>
      </trkpt>
      <trkpt lat="28.396681" lon="-16.441072">
        <ele>1564.0</ele>
        <time>2021-07-10T10:40:20Z</time>
      </trkpt>
      <trkpt lat="28.396734" lon="-16.441067">
        <ele>1569.0</ele>
        <time>2021-07-10T10:40:28Z</time>
      </trkpt>
      <trkpt lat="28.396829" lon="-16.441079">
        <ele>1572.0</ele>
        <time>2021-07-10T10:40:38Z</time>
      </trkpt>
      <trkpt lat="28.396932" lon="-16.44106">
        <ele>1575.0</ele>
        <time>2021-07-10T10:40:50Z</time>
      </trkpt>
      <trkpt lat="28.396979" lon="-16.441105">
        <ele>1572.0</ele>
        <time>2021-07-10T10:41:01Z</time>
      </trkpt>
      <trkpt lat="28.396996" lon="-16.44114">
        <ele>1573.0</ele>
        <time>2021-07-10T10:41:06Z</time>
      </trkpt>
      <trkpt lat="28.397117" lon="-16.441299">
        <ele>1570.0</ele>
        <time>2021-07-10T10:41:28Z</time>
      </trkpt>
      <trkpt lat="28.397151" lon="-16.441411">
        <ele>1570.0</ele>
        <time>2021-07-10T10:41:41Z</time>
      </trkpt>
      <trkpt lat="28.397171" lon="-16.441439">
        <ele>1560.0</ele>
        <time>2021-07-10T10:41:48Z</time>
      </trkpt>
      <trkpt lat="28.39716" lon="-16.441491">
        <ele>1566.0</ele>
        <time>2021-07-10T10:41:59Z</time>
      </trkpt>
      <trkpt lat="28.397109" lon="-16.441575">
        <ele>1572.0</ele>
        <time>2021-07-10T10:42:06Z</time>
      </trkpt>
      <trkpt lat="28.397111" lon="-16.441606">
        <ele>1572.0</ele>
        <time>2021-07-10T10:42:08Z</time>
      </trkpt>
      <trkpt lat="28.397066" lon="-16.441677">
        <ele>1572.0</ele>
        <time>2021-07-10T10:42:16Z</time>
      </trkpt>
      <trkpt lat="28.397045" lon="-16.441784">
        <ele>1572.0</ele>
        <time>2021-07-10T10:42:26Z</time>
      </trkpt>
      <trkpt lat="28.397053" lon="-16.441845">
        <ele>1572.0</ele>
        <time>2021-07-10T10:42:30Z</time>
      </trkpt>
      <trkpt lat="28.397009" lon="-16.441952">
        <ele>1572.0</ele>
        <time>2021-07-10T10:42:41Z</time>
      </trkpt>
      <trkpt lat="28.396944" lon="-16.442044">
        <ele>1572.0</ele>
        <time>2021-07-10T10:42:51Z</time>
      </trkpt>
      <trkpt lat="28.396943" lon="-16.442103">
        <ele>1572.0</ele>
        <time>2021-07-10T10:42:58Z</time>
      </trkpt>
      <trkpt lat="28.39696" lon="-16.442134">
        <ele>1571.6</ele>
        <time>2021-07-10T10:43:03Z</time>
      </trkpt>
      <trkpt lat="28.396931" lon="-16.442193">
        <ele>1569.0</ele>
        <time>2021-07-10T10:43:09Z</time>
      </trkpt>
      <trkpt lat="28.396925" lon="-16.442225">
        <ele>1570.0</ele>
        <time>2021-07-10T10:43:12Z</time>
      </trkpt>
      <trkpt lat="28.396934" lon="-16.442257">
        <ele>1568.0</ele>
        <time>2021-07-10T10:43:14Z</time>
      </trkpt>
      <trkpt lat="28.396922" lon="-16.442285">
        <ele>1567.0</ele>
        <time>2021-07-10T10:43:17Z</time>
      </trkpt>
      <trkpt lat="28.396889" lon="-16.442321">
        <ele>1566.0</ele>
        <time>2021-07-10T10:43:22Z</time>
      </trkpt>
      <trkpt lat="28.396881" lon="-16.442395">
        <ele>1566.0</ele>
        <time>2021-07-10T10:43:29Z</time>
      </trkpt>
      <trkpt lat="28.396842" lon="-16.442477">
        <ele>1561.0</ele>
        <time>2021-07-10T10:43:40Z</time>
      </trkpt>
      <trkpt lat="28.396834" lon="-16.442546">
        <ele>1566.9</ele>
        <time>2021-07-10T10:43:48Z</time>
      </trkpt>
      <trkpt lat="28.396841" lon="-16.44257">
        <ele>1566.0</ele>
        <time>2021-07-10T10:43:49Z</time>
      </trkpt>
      <trkpt lat="28.396819" lon="-16.442601">
        <ele>1566.4</ele>
        <time>2021-07-10T10:43:53Z</time>
      </trkpt>
      <trkpt lat="28.396811" lon="-16.44266">
        <ele>1566.0</ele>
        <time>2021-07-10T10:43:58Z</time>
      </trkpt>
      <trkpt lat="28.396788" lon="-16.442683">
        <ele>1566.0</ele>
        <time>2021-07-10T10:44:01Z</time>
      </trkpt>
      <trkpt lat="28.396778" lon="-16.442731">
        <ele>1564.0</ele>
        <time>2021-07-10T10:44:09Z</time>
      </trkpt>
      <trkpt lat="28.396666" lon="-16.442881">
        <ele>1568.0</ele>
        <time>2021-07-10T10:44:33Z</time>
      </trkpt>
      <trkpt lat="28.396655" lon="-16.442916">
        <ele>1569.0</ele>
        <time>2021-07-10T10:44:36Z</time>
      </trkpt>
      <trkpt lat="28.396664" lon="-16.442946">
        <ele>1568.0</ele>
        <time>2021-07-10T10:44:38Z</time>
      </trkpt>
      <trkpt lat="28.396683" lon="-16.443261">
        <ele>1560.0</ele>
        <time>2021-07-10T10:45:19Z</time>
      </trkpt>
      <trkpt lat="28.396658" lon="-16.443286">
        <ele>1560.0</ele>
        <time>2021-07-10T10:45:23Z</time>
      </trkpt>
      <trkpt lat="28.396641" lon="-16.443335">
        <ele>1560.0</ele>
        <time>2021-07-10T10:45:28Z</time>
      </trkpt>
      <trkpt lat="28.396537" lon="-16.443461">
        <ele>1560.0</ele>
        <time>2021-07-10T10:45:53Z</time>
      </trkpt>
      <trkpt lat="28.396524" lon="-16.443494">
        <ele>1560.0</ele>
        <time>2021-07-10T10:46:00Z</time>
      </trkpt>
      <trkpt lat="28.396538" lon="-16.443571">
        <ele>1560.0</ele>
        <time>2021-07-10T10:46:11Z</time>
      </trkpt>
      <trkpt lat="28.39652" lon="-16.443587">
        <ele>1560.0</ele>
        <time>2021-07-10T10:46:18Z</time>
      </trkpt>
      <trkpt lat="28.396487" lon="-16.443714">
        <ele>1555.0</ele>
        <time>2021-07-10T10:46:31Z</time>
      </trkpt>
      <trkpt lat="28.396462" lon="-16.443737">
        <ele>1558.0</ele>
        <time>2021-07-10T10:46:36Z</time>
      </trkpt>
      <trkpt lat="28.396433" lon="-16.44379">
        <ele>1560.0</ele>
        <time>2021-07-10T10:46:46Z</time>
      </trkpt>
      <trkpt lat="28.396432" lon="-16.443869">
        <ele>1558.0</ele>
        <time>2021-07-10T10:47:08Z</time>
      </trkpt>
      <trkpt lat="28.396389" lon="-16.443949">
        <ele>1553.0</ele>
        <time>2021-07-10T10:47:42Z</time>
      </trkpt>
      <trkpt lat="28.396236" lon="-16.444123">
        <ele>1557.0</ele>
        <time>2021-07-10T10:48:05Z</time>
      </trkpt>
      <trkpt lat="28.396234" lon="-16.444193">
        <ele>1556.0</ele>
        <time>2021-07-10T10:48:10Z</time>
      </trkpt>
      <trkpt lat="28.396133" lon="-16.44433">
        <ele>1560.0</ele>
        <time>2021-07-10T10:48:21Z</time>
      </trkpt>
      <trkpt lat="28.396106" lon="-16.444386">
        <ele>1560.0</ele>
        <time>2021-07-10T10:48:27Z</time>
      </trkpt>
      <trkpt lat="28.396117" lon="-16.44443">
        <ele>1561.0</ele>
        <time>2021-07-10T10:48:30Z</time>
      </trkpt>
      <trkpt lat="28.396065" lon="-16.444536">
        <ele>1560.0</ele>
        <time>2021-07-10T10:48:38Z</time>
      </trkpt>
      <trkpt lat="28.396041" lon="-16.444746">
        <ele>1561.0</ele>
        <time>2021-07-10T10:49:00Z</time>
      </trkpt>
      <trkpt lat="28.396025" lon="-16.444767">
        <ele>1560.0</ele>
        <time>2021-07-10T10:49:04Z</time>
      </trkpt>
      <trkpt lat="28.395996" lon="-16.444893">
        <ele>1556.0</ele>
        <time>2021-07-10T10:49:20Z</time>
      </trkpt>
      <trkpt lat="28.396008" lon="-16.444944">
        <ele>1555.0</ele>
        <time>2021-07-10T10:49:30Z</time>
      </trkpt>
      <trkpt lat="28.395974" lon="-16.445024">
        <ele>1553.0</ele>
        <time>2021-07-10T10:49:43Z</time>
      </trkpt>
      <trkpt lat="28.395947" lon="-16.445056">
        <ele>1551.0</ele>
        <time>2021-07-10T10:49:52Z</time>
      </trkpt>
      <trkpt lat="28.395868" lon="-16.445024">
        <ele>1554.0</ele>
        <time>2021-07-10T10:50:07Z</time>
      </trkpt>
      <trkpt lat="28.395791" lon="-16.44503">
        <ele>1557.0</ele>
        <time>2021-07-10T10:50:16Z</time>
      </trkpt>
      <trkpt lat="28.395725" lon="-16.444987">
        <ele>1559.0</ele>
        <time>2021-07-10T10:50:23Z</time>
      </trkpt>
      <trkpt lat="28.395673" lon="-16.444939">
        <ele>1560.0</ele>
        <time>2021-07-10T10:50:33Z</time>
      </trkpt>
      <trkpt lat="28.395606" lon="-16.44492">
        <ele>1560.0</ele>
        <time>2021-07-10T10:50:42Z</time>
      </trkpt>
      <trkpt lat="28.395551" lon="-16.444865">
        <ele>1564.4</ele>
        <time>2021-07-10T10:50:48Z</time>
      </trkpt>
      <trkpt lat="28.395455" lon="-16.444923">
        <ele>1560.0</ele>
        <time>2021-07-10T10:51:07Z</time>
      </trkpt>
      <trkpt lat="28.395441" lon="-16.444962">
        <ele>1560.0</ele>
        <time>2021-07-10T10:51:12Z</time>
      </trkpt>
      <trkpt lat="28.395446" lon="-16.445002">
        <ele>1554.0</ele>
        <time>2021-07-10T10:51:16Z</time>
      </trkpt>
      <trkpt lat="28.395406" lon="-16.445079">
        <ele>1538.0</ele>
        <time>2021-07-10T10:51:20Z</time>
      </trkpt>
      <trkpt lat="28.3954" lon="-16.445119">
        <ele>1535.0</ele>
        <time>2021-07-10T10:51:22Z</time>
      </trkpt>
      <trkpt lat="28.395336" lon="-16.445212">
        <ele>1548.0</ele>
        <time>2021-07-10T10:51:28Z</time>
      </trkpt>
      <trkpt lat="28.395303" lon="-16.445243">
        <ele>1550.0</ele>
        <time>2021-07-10T10:51:33Z</time>
      </trkpt>
      <trkpt lat="28.395286" lon="-16.445287">
        <ele>1550.5</ele>
        <time>2021-07-10T10:51:39Z</time>
      </trkpt>
      <trkpt lat="28.395241" lon="-16.445548">
        <ele>1540.0</ele>
        <time>2021-07-10T10:52:00Z</time>
      </trkpt>
      <trkpt lat="28.395219" lon="-16.445583">
        <ele>1544.0</ele>
        <time>2021-07-10T10:52:05Z</time>
      </trkpt>
      <trkpt lat="28.395214" lon="-16.445615">
        <ele>1544.0</ele>
        <time>2021-07-10T10:52:09Z</time>
      </trkpt>
      <trkpt lat="28.395146" lon="-16.445721">
        <ele>1545.0</ele>
        <time>2021-07-10T10:52:17Z</time>
      </trkpt>
      <trkpt lat="28.395143" lon="-16.445783">
        <ele>1543.0</ele>
        <time>2021-07-10T10:52:25Z</time>
      </trkpt>
      <trkpt lat="28.395096" lon="-16.445848">
        <ele>1542.0</ele>
        <time>2021-07-10T10:52:38Z</time>
      </trkpt>
      <trkpt lat="28.395066" lon="-16.445834">
        <ele>1536.0</ele>
        <time>2021-07-10T10:52:47Z</time>
      </trkpt>
      <trkpt lat="28.394985" lon="-16.445911">
        <ele>1544.0</ele>
        <time>2021-07-10T10:52:59Z</time>
      </trkpt>
      <trkpt lat="28.394884" lon="-16.445951">
        <ele>1544.0</ele>
        <time>2021-07-10T10:53:23Z</time>
      </trkpt>
      <trkpt lat="28.394817" lon="-16.445997">
        <ele>1546.0</ele>
        <time>2021-07-10T10:53:35Z</time>
      </trkpt>
      <trkpt lat="28.394762" lon="-16.446004">
        <ele>1547.0</ele>
        <time>2021-07-10T10:53:42Z</time>
      </trkpt>
      <trkpt lat="28.394604" lon="-16.446084">
        <ele>1546.0</ele>
        <time>2021-07-10T10:54:02Z</time>
      </trkpt>
      <trkpt lat="28.394585" lon="-16.446075">
        <ele>1548.0</ele>
        <time>2021-07-10T10:54:05Z</time>
      </trkpt>
      <trkpt lat="28.394552" lon="-16.446017">
        <ele>1540.0</ele>
        <time>2021-07-10T10:54:47Z</time>
      </trkpt>
      <trkpt lat="28.394557" lon="-16.445957">
        <ele>1525.0</ele>
        <time>2021-07-10T10:55:11Z</time>
      </trkpt>
      <trkpt lat="28.394583" lon="-16.446015">
        <ele>1508.0</ele>
        <time>2021-07-10T10:55:21Z</time>
      </trkpt>
      <trkpt lat="28.394557" lon="-16.446055">
        <ele>1505.0</ele>
        <time>2021-07-10T10:55:30Z</time>
      </trkpt>
      <trkpt lat="28.394562" lon="-16.446131">
        <ele>1545.0</ele>
        <time>2021-07-10T10:55:37Z</time>
      </trkpt>
      <trkpt lat="28.394576" lon="-16.446176">
        <ele>1519.0</ele>
        <time>2021-07-10T10:55:43Z</time>
      </trkpt>
      <trkpt lat="28.394565" lon="-16.446213">
        <ele>1542.0</ele>
        <time>2021-07-10T10:56:09Z</time>
      </trkpt>
      <trkpt lat="28.394586" lon="-16.446213">
        <ele>1533.0</ele>
        <time>2021-07-10T10:56:30Z</time>
      </trkpt>
      <trkpt lat="28.39456" lon="-16.446212">
        <ele>1540.0</ele>
        <time>2021-07-10T10:56:40Z</time>
      </trkpt>
      <trkpt lat="28.39457" lon="-16.446308">
        <ele>1538.0</ele>
        <time>2021-07-10T10:56:48Z</time>
      </trkpt>
      <trkpt lat="28.394531" lon="-16.446402">
        <ele>1536.0</ele>
        <time>2021-07-10T10:57:18Z</time>
      </trkpt>
      <trkpt lat="28.394551" lon="-16.446507">
        <ele>1535.0</ele>
        <time>2021-07-10T10:57:40Z</time>
      </trkpt>
      <trkpt lat="28.394619" lon="-16.446719">
        <ele>1536.0</ele>
        <time>2021-07-10T10:57:52Z</time>
      </trkpt>
      <trkpt lat="28.394606" lon="-16.446837">
        <ele>1537.0</ele>
        <time>2021-07-10T10:58:02Z</time>
      </trkpt>
      <trkpt lat="28.394618" lon="-16.446871">
        <ele>1536.0</ele>
        <time>2021-07-10T10:58:05Z</time>
      </trkpt>
      <trkpt lat="28.394605" lon="-16.446914">
        <ele>1539.0</ele>
        <time>2021-07-10T10:58:10Z</time>
      </trkpt>
      <trkpt lat="28.394623" lon="-16.446951">
        <ele>1540.0</ele>
        <time>2021-07-10T10:58:14Z</time>
      </trkpt>
      <trkpt lat="28.394617" lon="-16.447111">
        <ele>1539.0</ele>
        <time>2021-07-10T10:58:33Z</time>
      </trkpt>
      <trkpt lat="28.394647" lon="-16.447179">
        <ele>1537.0</ele>
        <time>2021-07-10T10:58:38Z</time>
      </trkpt>
      <trkpt lat="28.394661" lon="-16.447244">
        <ele>1536.0</ele>
        <time>2021-07-10T10:58:44Z</time>
      </trkpt>
      <trkpt lat="28.394694" lon="-16.447301">
        <ele>1536.0</ele>
        <time>2021-07-10T10:58:51Z</time>
      </trkpt>
      <trkpt lat="28.394701" lon="-16.447337">
        <ele>1536.0</ele>
        <time>2021-07-10T10:58:54Z</time>
      </trkpt>
      <trkpt lat="28.394693" lon="-16.447379">
        <ele>1539.0</ele>
        <time>2021-07-10T10:58:59Z</time>
      </trkpt>
      <trkpt lat="28.394715" lon="-16.447506">
        <ele>1542.0</ele>
        <time>2021-07-10T10:59:12Z</time>
      </trkpt>
      <trkpt lat="28.394711" lon="-16.447555">
        <ele>1542.0</ele>
        <time>2021-07-10T10:59:16Z</time>
      </trkpt>
      <trkpt lat="28.394721" lon="-16.44763">
        <ele>1542.0</ele>
        <time>2021-07-10T10:59:21Z</time>
      </trkpt>
      <trkpt lat="28.394778" lon="-16.447671">
        <ele>1538.0</ele>
        <time>2021-07-10T10:59:27Z</time>
      </trkpt>
      <trkpt lat="28.394805" lon="-16.447706">
        <ele>1535.0</ele>
        <time>2021-07-10T10:59:31Z</time>
      </trkpt>
      <trkpt lat="28.394793" lon="-16.447822">
        <ele>1533.0</ele>
        <time>2021-07-10T10:59:53Z</time>
      </trkpt>
      <trkpt lat="28.394765" lon="-16.447863">
        <ele>1536.0</ele>
        <time>2021-07-10T11:00:01Z</time>
      </trkpt>
      <trkpt lat="28.394694" lon="-16.447876">
        <ele>1536.0</ele>
        <time>2021-07-10T11:00:14Z</time>
      </trkpt>
      <trkpt lat="28.394633" lon="-16.447912">
        <ele>1539.0</ele>
        <time>2021-07-10T11:00:22Z</time>
      </trkpt>
      <trkpt lat="28.39457" lon="-16.447927">
        <ele>1542.0</ele>
        <time>2021-07-10T11:00:29Z</time>
      </trkpt>
      <trkpt lat="28.394507" lon="-16.447979">
        <ele>1542.0</ele>
        <time>2021-07-10T11:00:35Z</time>
      </trkpt>
      <trkpt lat="28.394338" lon="-16.448073">
        <ele>1544.6</ele>
        <time>2021-07-10T11:00:56Z</time>
      </trkpt>
      <trkpt lat="28.394275" lon="-16.448164">
        <ele>1539.0</ele>
        <time>2021-07-10T11:01:03Z</time>
      </trkpt>
      <trkpt lat="28.394188" lon="-16.448255">
        <ele>1533.0</ele>
        <time>2021-07-10T11:01:12Z</time>
      </trkpt>
      <trkpt lat="28.394157" lon="-16.448363">
        <ele>1532.0</ele>
        <time>2021-07-10T11:01:28Z</time>
      </trkpt>
      <trkpt lat="28.394159" lon="-16.448397">
        <ele>1530.0</ele>
        <time>2021-07-10T11:01:41Z</time>
      </trkpt>
      <trkpt lat="28.394194" lon="-16.448407">
        <ele>1519.0</ele>
        <time>2021-07-10T11:02:06Z</time>
      </trkpt>
      <trkpt lat="28.394217" lon="-16.448384">
        <ele>1527.0</ele>
        <time>2021-07-10T11:02:34Z</time>
      </trkpt>
      <trkpt lat="28.394262" lon="-16.44846">
        <ele>1520.0</ele>
        <time>2021-07-10T11:02:58Z</time>
      </trkpt>
      <trkpt lat="28.394224" lon="-16.44847">
        <ele>1524.0</ele>
        <time>2021-07-10T11:03:21Z</time>
      </trkpt>
      <trkpt lat="28.394205" lon="-16.448491">
        <ele>1524.0</ele>
        <time>2021-07-10T11:03:25Z</time>
      </trkpt>
      <trkpt lat="28.39412" lon="-16.448495">
        <ele>1528.0</ele>
        <time>2021-07-10T11:03:34Z</time>
      </trkpt>
      <trkpt lat="28.394082" lon="-16.448484">
        <ele>1528.0</ele>
        <time>2021-07-10T11:03:38Z</time>
      </trkpt>
      <trkpt lat="28.394048" lon="-16.448487">
        <ele>1527.0</ele>
        <time>2021-07-10T11:03:42Z</time>
      </trkpt>
      <trkpt lat="28.393981" lon="-16.448514">
        <ele>1528.0</ele>
        <time>2021-07-10T11:03:48Z</time>
      </trkpt>
      <trkpt lat="28.393904" lon="-16.448611">
        <ele>1525.0</ele>
        <time>2021-07-10T11:04:01Z</time>
      </trkpt>
      <trkpt lat="28.393921" lon="-16.448654">
        <ele>1522.0</ele>
        <time>2021-07-10T11:04:11Z</time>
      </trkpt>
      <trkpt lat="28.393946" lon="-16.44868">
        <ele>1523.0</ele>
        <time>2021-07-10T11:04:16Z</time>
      </trkpt>
      <trkpt lat="28.394039" lon="-16.448676">
        <ele>1519.0</ele>
        <time>2021-07-10T11:04:29Z</time>
      </trkpt>
      <trkpt lat="28.394003" lon="-16.448628">
        <ele>1524.0</ele>
        <time>2021-07-10T11:04:50Z</time>
      </trkpt>
      <trkpt lat="28.393971" lon="-16.448622">
        <ele>1524.0</ele>
        <time>2021-07-10T11:05:01Z</time>
      </trkpt>
      <trkpt lat="28.394008" lon="-16.448675">
        <ele>1521.0</ele>
        <time>2021-07-10T11:05:09Z</time>
      </trkpt>
      <trkpt lat="28.393999" lon="-16.448687">
        <ele>1521.0</ele>
        <time>2021-07-10T11:05:14Z</time>
      </trkpt>
      <trkpt lat="28.39406" lon="-16.448762">
        <ele>1520.0</ele>
        <time>2021-07-10T11:05:27Z</time>
      </trkpt>
      <trkpt lat="28.394066" lon="-16.448797">
        <ele>1519.0</ele>
        <time>2021-07-10T11:05:29Z</time>
      </trkpt>
      <trkpt lat="28.394104" lon="-16.44885">
        <ele>1516.0</ele>
        <time>2021-07-10T11:05:35Z</time>
      </trkpt>
      <trkpt lat="28.394122" lon="-16.448935">
        <ele>1515.0</ele>
        <time>2021-07-10T11:05:46Z</time>
      </trkpt>
      <trkpt lat="28.394082" lon="-16.448991">
        <ele>1516.0</ele>
        <time>2021-07-10T11:05:51Z</time>
      </trkpt>
      <trkpt lat="28.394065" lon="-16.449041">
        <ele>1516.0</ele>
        <time>2021-07-10T11:05:56Z</time>
      </trkpt>
      <trkpt lat="28.394077" lon="-16.449082">
        <ele>1518.0</ele>
        <time>2021-07-10T11:06:00Z</time>
      </trkpt>
      <trkpt lat="28.394068" lon="-16.449147">
        <ele>1518.0</ele>
        <time>2021-07-10T11:06:08Z</time>
      </trkpt>
      <trkpt lat="28.394083" lon="-16.449184">
        <ele>1516.0</ele>
        <time>2021-07-10T11:06:10Z</time>
      </trkpt>
      <trkpt lat="28.394125" lon="-16.449241">
        <ele>1521.0</ele>
        <time>2021-07-10T11:06:15Z</time>
      </trkpt>
      <trkpt lat="28.394132" lon="-16.449277">
        <ele>1521.0</ele>
        <time>2021-07-10T11:06:18Z</time>
      </trkpt>
      <trkpt lat="28.394169" lon="-16.449341">
        <ele>1525.0</ele>
        <time>2021-07-10T11:06:25Z</time>
      </trkpt>
      <trkpt lat="28.394216" lon="-16.449391">
        <ele>1527.0</ele>
        <time>2021-07-10T11:06:31Z</time>
      </trkpt>
      <trkpt lat="28.394235" lon="-16.449451">
        <ele>1530.0</ele>
        <time>2021-07-10T11:06:37Z</time>
      </trkpt>
      <trkpt lat="28.394354" lon="-16.449593">
        <ele>1530.0</ele>
        <time>2021-07-10T11:07:06Z</time>
      </trkpt>
      <trkpt lat="28.39441" lon="-16.449624">
        <ele>1530.0</ele>
        <time>2021-07-10T11:07:12Z</time>
      </trkpt>
      <trkpt lat="28.394448" lon="-16.449592">
        <ele>1526.0</ele>
        <time>2021-07-10T11:07:17Z</time>
      </trkpt>
      <trkpt lat="28.39454" lon="-16.449667">
        <ele>1527.3</ele>
        <time>2021-07-10T11:07:36Z</time>
      </trkpt>
      <trkpt lat="28.394634" lon="-16.449756">
        <ele>1520.0</ele>
        <time>2021-07-10T11:07:50Z</time>
      </trkpt>
      <trkpt lat="28.394627" lon="-16.44979">
        <ele>1520.0</ele>
        <time>2021-07-10T11:07:56Z</time>
      </trkpt>
      <trkpt lat="28.394602" lon="-16.449813">
        <ele>1520.0</ele>
        <time>2021-07-10T11:08:00Z</time>
      </trkpt>
      <trkpt lat="28.39454" lon="-16.449817">
        <ele>1506.0</ele>
        <time>2021-07-10T11:08:10Z</time>
      </trkpt>
      <trkpt lat="28.394461" lon="-16.449863">
        <ele>1532.0</ele>
        <time>2021-07-10T11:08:21Z</time>
      </trkpt>
      <trkpt lat="28.394453" lon="-16.449892">
        <ele>1532.0</ele>
        <time>2021-07-10T11:08:29Z</time>
      </trkpt>
      <trkpt lat="28.394296" lon="-16.450035">
        <ele>1536.0</ele>
        <time>2021-07-10T11:08:51Z</time>
      </trkpt>
      <trkpt lat="28.394212" lon="-16.450091">
        <ele>1536.0</ele>
        <time>2021-07-10T11:09:02Z</time>
      </trkpt>
      <trkpt lat="28.394174" lon="-16.450164">
        <ele>1536.0</ele>
        <time>2021-07-10T11:09:09Z</time>
      </trkpt>
      <trkpt lat="28.394147" lon="-16.450183">
        <ele>1536.0</ele>
        <time>2021-07-10T11:09:14Z</time>
      </trkpt>
      <trkpt lat="28.394083" lon="-16.45026">
        <ele>1536.0</ele>
        <time>2021-07-10T11:09:26Z</time>
      </trkpt>
      <trkpt lat="28.393966" lon="-16.450327">
        <ele>1536.0</ele>
        <time>2021-07-10T11:09:41Z</time>
      </trkpt>
      <trkpt lat="28.393933" lon="-16.450322">
        <ele>1536.0</ele>
        <time>2021-07-10T11:09:44Z</time>
      </trkpt>
      <trkpt lat="28.393811" lon="-16.450388">
        <ele>1538.0</ele>
        <time>2021-07-10T11:09:56Z</time>
      </trkpt>
      <trkpt lat="28.393749" lon="-16.450432">
        <ele>1536.0</ele>
        <time>2021-07-10T11:10:01Z</time>
      </trkpt>
      <trkpt lat="28.393667" lon="-16.450531">
        <ele>1530.0</ele>
        <time>2021-07-10T11:10:21Z</time>
      </trkpt>
      <trkpt lat="28.393634" lon="-16.450536">
        <ele>1532.0</ele>
        <time>2021-07-10T11:10:27Z</time>
      </trkpt>
      <trkpt lat="28.39361" lon="-16.450567">
        <ele>1533.0</ele>
        <time>2021-07-10T11:10:31Z</time>
      </trkpt>
      <trkpt lat="28.393552" lon="-16.450581">
        <ele>1530.0</ele>
        <time>2021-07-10T11:10:41Z</time>
      </trkpt>
      <trkpt lat="28.393407" lon="-16.450573">
        <ele>1533.3</ele>
        <time>2021-07-10T11:10:56Z</time>
      </trkpt>
      <trkpt lat="28.393333" lon="-16.450538">
        <ele>1520.0</ele>
        <time>2021-07-10T11:11:07Z</time>
      </trkpt>
      <trkpt lat="28.393302" lon="-16.450539">
        <ele>1529.0</ele>
        <time>2021-07-10T11:11:10Z</time>
      </trkpt>
      <trkpt lat="28.393286" lon="-16.450574">
        <ele>1532.0</ele>
        <time>2021-07-10T11:11:14Z</time>
      </trkpt>
      <trkpt lat="28.393311" lon="-16.450646">
        <ele>1530.0</ele>
        <time>2021-07-10T11:11:23Z</time>
      </trkpt>
      <trkpt lat="28.393317" lon="-16.450748">
        <ele>1527.0</ele>
        <time>2021-07-10T11:11:30Z</time>
      </trkpt>
      <trkpt lat="28.393278" lon="-16.450837">
        <ele>1527.0</ele>
        <time>2021-07-10T11:11:36Z</time>
      </trkpt>
      <trkpt lat="28.393295" lon="-16.450865">
        <ele>1526.0</ele>
        <time>2021-07-10T11:11:37Z</time>
      </trkpt>
      <trkpt lat="28.393277" lon="-16.450996">
        <ele>1525.0</ele>
        <time>2021-07-10T11:11:45Z</time>
      </trkpt>
      <trkpt lat="28.393308" lon="-16.451105">
        <ele>1526.0</ele>
        <time>2021-07-10T11:11:55Z</time>
      </trkpt>
      <trkpt lat="28.39341" lon="-16.45132">
        <ele>1519.9</ele>
        <time>2021-07-10T11:12:26Z</time>
      </trkpt>
      <trkpt lat="28.393415" lon="-16.451374">
        <ele>1518.0</ele>
        <time>2021-07-10T11:12:31Z</time>
      </trkpt>
      <trkpt lat="28.393444" lon="-16.451393">
        <ele>1518.0</ele>
        <time>2021-07-10T11:12:34Z</time>
      </trkpt>
      <trkpt lat="28.393448" lon="-16.4515">
        <ele>1520.0</ele>
        <time>2021-07-10T11:12:42Z</time>
      </trkpt>
      <trkpt lat="28.393484" lon="-16.451602">
        <ele>1521.0</ele>
        <time>2021-07-10T11:12:50Z</time>
      </trkpt>
      <trkpt lat="28.393478" lon="-16.451672">
        <ele>1523.0</ele>
        <time>2021-07-10T11:12:54Z</time>
      </trkpt>
      <trkpt lat="28.393485" lon="-16.451702">
        <ele>1524.0</ele>
        <time>2021-07-10T11:12:56Z</time>
      </trkpt>
      <trkpt lat="28.393528" lon="-16.451749">
        <ele>1521.0</ele>
        <time>2021-07-10T11:13:03Z</time>
      </trkpt>
      <trkpt lat="28.393683" lon="-16.452191">
        <ele>1518.0</ele>
        <time>2021-07-10T11:13:43Z</time>
      </trkpt>
      <trkpt lat="28.393719" lon="-16.452246">
        <ele>1517.0</ele>
        <time>2021-07-10T11:13:49Z</time>
      </trkpt>
      <trkpt lat="28.393725" lon="-16.452282">
        <ele>1515.0</ele>
        <time>2021-07-10T11:13:52Z</time>
      </trkpt>
      <trkpt lat="28.393805" lon="-16.452415">
        <ele>1510.0</ele>
        <time>2021-07-10T11:14:02Z</time>
      </trkpt>
      <trkpt lat="28.393881" lon="-16.452486">
        <ele>1508.0</ele>
        <time>2021-07-10T11:14:10Z</time>
      </trkpt>
      <trkpt lat="28.393957" lon="-16.452524">
        <ele>1504.0</ele>
        <time>2021-07-10T11:14:14Z</time>
      </trkpt>
      <trkpt lat="28.393979" lon="-16.452555">
        <ele>1503.0</ele>
        <time>2021-07-10T11:14:18Z</time>
      </trkpt>
      <trkpt lat="28.393985" lon="-16.452594">
        <ele>1502.0</ele>
        <time>2021-07-10T11:14:23Z</time>
      </trkpt>
      <trkpt lat="28.393908" lon="-16.452655">
        <ele>1506.0</ele>
        <time>2021-07-10T11:14:53Z</time>
      </trkpt>
      <trkpt lat="28.393828" lon="-16.452605">
        <ele>1506.0</ele>
        <time>2021-07-10T11:15:04Z</time>
      </trkpt>
      <trkpt lat="28.393634" lon="-16.452586">
        <ele>1512.0</ele>
        <time>2021-07-10T11:15:20Z</time>
      </trkpt>
      <trkpt lat="28.393531" lon="-16.452598">
        <ele>1512.0</ele>
        <time>2021-07-10T11:15:29Z</time>
      </trkpt>
      <trkpt lat="28.393501" lon="-16.452611">
        <ele>1508.0</ele>
        <time>2021-07-10T11:15:32Z</time>
      </trkpt>
      <trkpt lat="28.393407" lon="-16.452594">
        <ele>1509.0</ele>
        <time>2021-07-10T11:15:43Z</time>
      </trkpt>
      <trkpt lat="28.393341" lon="-16.452562">
        <ele>1511.0</ele>
        <time>2021-07-10T11:15:52Z</time>
      </trkpt>
      <trkpt lat="28.393307" lon="-16.452533">
        <ele>1512.0</ele>
        <time>2021-07-10T11:15:55Z</time>
      </trkpt>
      <trkpt lat="28.393175" lon="-16.452493">
        <ele>1508.0</ele>
        <time>2021-07-10T11:16:10Z</time>
      </trkpt>
      <trkpt lat="28.393101" lon="-16.452422">
        <ele>1510.0</ele>
        <time>2021-07-10T11:16:22Z</time>
      </trkpt>
      <trkpt lat="28.39291" lon="-16.45228">
        <ele>1506.0</ele>
        <time>2021-07-10T11:16:52Z</time>
      </trkpt>
      <trkpt lat="28.392851" lon="-16.452194">
        <ele>1510.0</ele>
        <time>2021-07-10T11:16:58Z</time>
      </trkpt>
      <trkpt lat="28.392807" lon="-16.452159">
        <ele>1507.0</ele>
        <time>2021-07-10T11:17:07Z</time>
      </trkpt>
      <trkpt lat="28.39278" lon="-16.452089">
        <ele>1514.0</ele>
        <time>2021-07-10T11:17:15Z</time>
      </trkpt>
      <trkpt lat="28.392753" lon="-16.452048">
        <ele>1515.0</ele>
        <time>2021-07-10T11:17:18Z</time>
      </trkpt>
      <trkpt lat="28.392705" lon="-16.452022">
        <ele>1518.0</ele>
        <time>2021-07-10T11:17:21Z</time>
      </trkpt>
      <trkpt lat="28.392611" lon="-16.452017">
        <ele>1513.0</ele>
        <time>2021-07-10T11:17:30Z</time>
      </trkpt>
      <trkpt lat="28.392578" lon="-16.451987">
        <ele>1515.0</ele>
        <time>2021-07-10T11:17:34Z</time>
      </trkpt>
      <trkpt lat="28.392538" lon="-16.451989">
        <ele>1514.0</ele>
        <time>2021-07-10T11:17:37Z</time>
      </trkpt>
      <trkpt lat="28.392465" lon="-16.451968">
        <ele>1512.0</ele>
        <time>2021-07-10T11:17:43Z</time>
      </trkpt>
      <trkpt lat="28.3924" lon="-16.45198">
        <ele>1509.0</ele>
        <time>2021-07-10T11:17:49Z</time>
      </trkpt>
      <trkpt lat="28.392316" lon="-16.451965">
        <ele>1507.0</ele>
        <time>2021-07-10T11:17:56Z</time>
      </trkpt>
      <trkpt lat="28.392129" lon="-16.451902">
        <ele>1508.0</ele>
        <time>2021-07-10T11:18:32Z</time>
      </trkpt>
      <trkpt lat="28.392059" lon="-16.451964">
        <ele>1506.0</ele>
        <time>2021-07-10T11:18:41Z</time>
      </trkpt>
      <trkpt lat="28.392049" lon="-16.45209">
        <ele>1479.0</ele>
        <time>2021-07-10T11:18:49Z</time>
      </trkpt>
      <trkpt lat="28.392037" lon="-16.452119">
        <ele>1476.0</ele>
        <time>2021-07-10T11:18:54Z</time>
      </trkpt>
      <trkpt lat="28.392039" lon="-16.452225">
        <ele>1498.0</ele>
        <time>2021-07-10T11:19:09Z</time>
      </trkpt>
      <trkpt lat="28.392021" lon="-16.452286">
        <ele>1490.0</ele>
        <time>2021-07-10T11:19:15Z</time>
      </trkpt>
      <trkpt lat="28.392037" lon="-16.452337">
        <ele>1491.0</ele>
        <time>2021-07-10T11:19:26Z</time>
      </trkpt>
      <trkpt lat="28.392022" lon="-16.452364">
        <ele>1491.0</ele>
        <time>2021-07-10T11:19:30Z</time>
      </trkpt>
      <trkpt lat="28.391993" lon="-16.452383">
        <ele>1492.0</ele>
        <time>2021-07-10T11:19:32Z</time>
      </trkpt>
      <trkpt lat="28.391927" lon="-16.452519">
        <ele>1481.0</ele>
        <time>2021-07-10T11:19:40Z</time>
      </trkpt>
      <trkpt lat="28.391864" lon="-16.452602">
        <ele>1486.0</ele>
        <time>2021-07-10T11:19:52Z</time>
      </trkpt>
      <trkpt lat="28.391775" lon="-16.452766">
        <ele>1482.0</ele>
        <time>2021-07-10T11:20:07Z</time>
      </trkpt>
      <trkpt lat="28.391721" lon="-16.452842">
        <ele>1480.0</ele>
        <time>2021-07-10T11:20:17Z</time>
      </trkpt>
      <trkpt lat="28.391668" lon="-16.452888">
        <ele>1482.0</ele>
        <time>2021-07-10T11:20:24Z</time>
      </trkpt>
      <trkpt lat="28.391593" lon="-16.453002">
        <ele>1479.0</ele>
        <time>2021-07-10T11:20:37Z</time>
      </trkpt>
      <trkpt lat="28.391586" lon="-16.453034">
        <ele>1478.0</ele>
        <time>2021-07-10T11:20:40Z</time>
      </trkpt>
      <trkpt lat="28.391533" lon="-16.453097">
        <ele>1478.8</ele>
        <time>2021-07-10T11:20:47Z</time>
      </trkpt>
      <trkpt lat="28.391485" lon="-16.453126">
        <ele>1479.0</ele>
        <time>2021-07-10T11:20:51Z</time>
      </trkpt>
      <trkpt lat="28.391426" lon="-16.453114">
        <ele>1480.0</ele>
        <time>2021-07-10T11:21:03Z</time>
      </trkpt>
      <trkpt lat="28.391325" lon="-16.453111">
        <ele>1488.0</ele>
        <time>2021-07-10T11:21:17Z</time>
      </trkpt>
      <trkpt lat="28.391244" lon="-16.453042">
        <ele>1476.0</ele>
        <time>2021-07-10T11:21:31Z</time>
      </trkpt>
      <trkpt lat="28.391173" lon="-16.453029">
        <ele>1496.0</ele>
        <time>2021-07-10T11:21:38Z</time>
      </trkpt>
      <trkpt lat="28.39107" lon="-16.453046">
        <ele>1498.0</ele>
        <time>2021-07-10T11:21:48Z</time>
      </trkpt>
      <trkpt lat="28.391" lon="-16.45311">
        <ele>1494.0</ele>
        <time>2021-07-10T11:21:54Z</time>
      </trkpt>
      <trkpt lat="28.390832" lon="-16.453225">
        <ele>1489.2</ele>
        <time>2021-07-10T11:22:10Z</time>
      </trkpt>
      <trkpt lat="28.390796" lon="-16.453232">
        <ele>1480.0</ele>
        <time>2021-07-10T11:22:17Z</time>
      </trkpt>
      <trkpt lat="28.390756" lon="-16.453198">
        <ele>1487.0</ele>
        <time>2021-07-10T11:22:30Z</time>
      </trkpt>
      <trkpt lat="28.390638" lon="-16.453152">
        <ele>1488.0</ele>
        <time>2021-07-10T11:22:57Z</time>
      </trkpt>
      <trkpt lat="28.39054" lon="-16.453096">
        <ele>1488.0</ele>
        <time>2021-07-10T11:23:11Z</time>
      </trkpt>
      <trkpt lat="28.390502" lon="-16.45309">
        <ele>1489.0</ele>
        <time>2021-07-10T11:23:15Z</time>
      </trkpt>
      <trkpt lat="28.390428" lon="-16.453036">
        <ele>1492.0</ele>
        <time>2021-07-10T11:23:28Z</time>
      </trkpt>
      <trkpt lat="28.390476" lon="-16.453103">
        <ele>1490.0</ele>
        <time>2021-07-10T11:23:41Z</time>
      </trkpt>
      <trkpt lat="28.390451" lon="-16.453181">
        <ele>1490.0</ele>
        <time>2021-07-10T11:23:47Z</time>
      </trkpt>
      <trkpt lat="28.390381" lon="-16.45328">
        <ele>1488.0</ele>
        <time>2021-07-10T11:24:02Z</time>
      </trkpt>
      <trkpt lat="28.39037" lon="-16.453399">
        <ele>1491.0</ele>
        <time>2021-07-10T11:24:14Z</time>
      </trkpt>
      <trkpt lat="28.390388" lon="-16.453427">
        <ele>1491.0</ele>
        <time>2021-07-10T11:24:17Z</time>
      </trkpt>
      <trkpt lat="28.390408" lon="-16.453536">
        <ele>1488.0</ele>
        <time>2021-07-10T11:24:26Z</time>
      </trkpt>
      <trkpt lat="28.390442" lon="-16.453598">
        <ele>1488.0</ele>
        <time>2021-07-10T11:24:32Z</time>
      </trkpt>
      <trkpt lat="28.390452" lon="-16.453656">
        <ele>1486.7</ele>
        <time>2021-07-10T11:24:37Z</time>
      </trkpt>
      <trkpt lat="28.390453" lon="-16.45377">
        <ele>1480.0</ele>
        <time>2021-07-10T11:24:51Z</time>
      </trkpt>
      <trkpt lat="28.390428" lon="-16.453882">
        <ele>1481.0</ele>
        <time>2021-07-10T11:25:04Z</time>
      </trkpt>
      <trkpt lat="28.390408" lon="-16.453921">
        <ele>1483.0</ele>
        <time>2021-07-10T11:25:10Z</time>
      </trkpt>
      <trkpt lat="28.39031" lon="-16.453996">
        <ele>1491.0</ele>
        <time>2021-07-10T11:25:27Z</time>
      </trkpt>
      <trkpt lat="28.39021" lon="-16.454055">
        <ele>1496.0</ele>
        <time>2021-07-10T11:25:42Z</time>
      </trkpt>
      <trkpt lat="28.39017" lon="-16.454147">
        <ele>1496.0</ele>
        <time>2021-07-10T11:25:54Z</time>
      </trkpt>
      <trkpt lat="28.390025" lon="-16.454262">
        <ele>1498.0</ele>
        <time>2021-07-10T11:26:11Z</time>
      </trkpt>
      <trkpt lat="28.389966" lon="-16.454291">
        <ele>1500.0</ele>
        <time>2021-07-10T11:26:16Z</time>
      </trkpt>
      <trkpt lat="28.389846" lon="-16.454396">
        <ele>1502.0</ele>
        <time>2021-07-10T11:26:41Z</time>
      </trkpt>
      <trkpt lat="28.389812" lon="-16.454494">
        <ele>1494.0</ele>
        <time>2021-07-10T11:26:53Z</time>
      </trkpt>
      <trkpt lat="28.389786" lon="-16.454519">
        <ele>1496.0</ele>
        <time>2021-07-10T11:26:58Z</time>
      </trkpt>
      <trkpt lat="28.389753" lon="-16.454576">
        <ele>1496.0</ele>
        <time>2021-07-10T11:27:06Z</time>
      </trkpt>
      <trkpt lat="28.389719" lon="-16.454591">
        <ele>1494.0</ele>
        <time>2021-07-10T11:27:13Z</time>
      </trkpt>
      <trkpt lat="28.389713" lon="-16.454625">
        <ele>1496.0</ele>
        <time>2021-07-10T11:27:18Z</time>
      </trkpt>
      <trkpt lat="28.389733" lon="-16.45473">
        <ele>1486.0</ele>
        <time>2021-07-10T11:27:26Z</time>
      </trkpt>
      <trkpt lat="28.389767" lon="-16.4548">
        <ele>1488.0</ele>
        <time>2021-07-10T11:27:33Z</time>
      </trkpt>
      <trkpt lat="28.389795" lon="-16.454816">
        <ele>1483.0</ele>
        <time>2021-07-10T11:27:37Z</time>
      </trkpt>
      <trkpt lat="28.389784" lon="-16.454925">
        <ele>1486.0</ele>
        <time>2021-07-10T11:27:58Z</time>
      </trkpt>
      <trkpt lat="28.389794" lon="-16.455018">
        <ele>1488.0</ele>
        <time>2021-07-10T11:28:12Z</time>
      </trkpt>
      <trkpt lat="28.389891" lon="-16.455082">
        <ele>1488.0</ele>
        <time>2021-07-10T11:28:17Z</time>
      </trkpt>
      <trkpt lat="28.390015" lon="-16.455124">
        <ele>1488.0</ele>
        <time>2021-07-10T11:28:26Z</time>
      </trkpt>
      <trkpt lat="28.39" lon="-16.455085">
        <ele>1481.0</ele>
        <time>2021-07-10T11:28:36Z</time>
      </trkpt>
      <trkpt lat="28.389968" lon="-16.45507">
        <ele>1483.0</ele>
        <time>2021-07-10T11:28:54Z</time>
      </trkpt>
      <trkpt lat="28.390049" lon="-16.455032">
        <ele>1476.0</ele>
        <time>2021-07-10T11:29:21Z</time>
      </trkpt>
      <trkpt lat="28.390116" lon="-16.455068">
        <ele>1484.0</ele>
        <time>2021-07-10T11:29:36Z</time>
      </trkpt>
      <trkpt lat="28.390162" lon="-16.455195">
        <ele>1488.0</ele>
        <time>2021-07-10T11:29:47Z</time>
      </trkpt>
      <trkpt lat="28.390161" lon="-16.455232">
        <ele>1490.0</ele>
        <time>2021-07-10T11:29:50Z</time>
      </trkpt>
      <trkpt lat="28.390186" lon="-16.455345">
        <ele>1494.0</ele>
        <time>2021-07-10T11:29:57Z</time>
      </trkpt>
      <trkpt lat="28.390261" lon="-16.455357">
        <ele>1490.0</ele>
        <time>2021-07-10T11:30:06Z</time>
      </trkpt>
      <trkpt lat="28.390317" lon="-16.455398">
        <ele>1492.0</ele>
        <time>2021-07-10T11:30:16Z</time>
      </trkpt>
      <trkpt lat="28.390359" lon="-16.455406">
        <ele>1491.0</ele>
        <time>2021-07-10T11:30:20Z</time>
      </trkpt>
      <trkpt lat="28.390415" lon="-16.455374">
        <ele>1485.0</ele>
        <time>2021-07-10T11:30:26Z</time>
      </trkpt>
      <trkpt lat="28.390542" lon="-16.455439">
        <ele>1488.0</ele>
        <time>2021-07-10T11:30:50Z</time>
      </trkpt>
      <trkpt lat="28.390603" lon="-16.455435">
        <ele>1488.0</ele>
        <time>2021-07-10T11:30:59Z</time>
      </trkpt>
      <trkpt lat="28.390643" lon="-16.455463">
        <ele>1488.0</ele>
        <time>2021-07-10T11:31:01Z</time>
      </trkpt>
      <trkpt lat="28.390684" lon="-16.455475">
        <ele>1488.0</ele>
        <time>2021-07-10T11:31:04Z</time>
      </trkpt>
      <trkpt lat="28.390757" lon="-16.455461">
        <ele>1485.0</ele>
        <time>2021-07-10T11:31:09Z</time>
      </trkpt>
      <trkpt lat="28.390852" lon="-16.455489">
        <ele>1485.1</ele>
        <time>2021-07-10T11:31:20Z</time>
      </trkpt>
      <trkpt lat="28.390868" lon="-16.45553">
        <ele>1484.0</ele>
        <time>2021-07-10T11:31:23Z</time>
      </trkpt>
      <trkpt lat="28.390928" lon="-16.455575">
        <ele>1485.0</ele>
        <time>2021-07-10T11:31:30Z</time>
      </trkpt>
      <trkpt lat="28.390959" lon="-16.455652">
        <ele>1490.0</ele>
        <time>2021-07-10T11:31:41Z</time>
      </trkpt>
      <trkpt lat="28.391033" lon="-16.455666">
        <ele>1488.0</ele>
        <time>2021-07-10T11:31:50Z</time>
      </trkpt>
      <trkpt lat="28.391151" lon="-16.455635">
        <ele>1484.0</ele>
        <time>2021-07-10T11:31:57Z</time>
      </trkpt>
      <trkpt lat="28.391211" lon="-16.45563">
        <ele>1482.0</ele>
        <time>2021-07-10T11:32:02Z</time>
      </trkpt>
      <trkpt lat="28.39125" lon="-16.455613">
        <ele>1479.0</ele>
        <time>2021-07-10T11:32:05Z</time>
      </trkpt>
      <trkpt lat="28.391278" lon="-16.45564">
        <ele>1479.0</ele>
        <time>2021-07-10T11:32:13Z</time>
      </trkpt>
      <trkpt lat="28.391337" lon="-16.455751">
        <ele>1484.0</ele>
        <time>2021-07-10T11:32:35Z</time>
      </trkpt>
      <trkpt lat="28.391385" lon="-16.455788">
        <ele>1485.0</ele>
        <time>2021-07-10T11:32:44Z</time>
      </trkpt>
      <trkpt lat="28.391417" lon="-16.455864">
        <ele>1488.0</ele>
        <time>2021-07-10T11:32:56Z</time>
      </trkpt>
      <trkpt lat="28.391457" lon="-16.455838">
        <ele>1479.0</ele>
        <time>2021-07-10T11:33:12Z</time>
      </trkpt>
      <trkpt lat="28.391457" lon="-16.455801">
        <ele>1474.0</ele>
        <time>2021-07-10T11:33:20Z</time>
      </trkpt>
      <trkpt lat="28.39138" lon="-16.455782">
        <ele>1483.0</ele>
        <time>2021-07-10T11:33:32Z</time>
      </trkpt>
      <trkpt lat="28.391351" lon="-16.455753">
        <ele>1484.0</ele>
        <time>2021-07-10T11:33:37Z</time>
      </trkpt>
      <trkpt lat="28.391317" lon="-16.455768">
        <ele>1474.0</ele>
        <time>2021-07-10T11:33:45Z</time>
      </trkpt>
      <trkpt lat="28.391354" lon="-16.455956">
        <ele>1493.0</ele>
        <time>2021-07-10T11:34:09Z</time>
      </trkpt>
      <trkpt lat="28.391374" lon="-16.456">
        <ele>1495.0</ele>
        <time>2021-07-10T11:34:14Z</time>
      </trkpt>
      <trkpt lat="28.391424" lon="-16.456044">
        <ele>1494.0</ele>
        <time>2021-07-10T11:34:24Z</time>
      </trkpt>
      <trkpt lat="28.391411" lon="-16.456174">
        <ele>1480.0</ele>
        <time>2021-07-10T11:35:05Z</time>
      </trkpt>
      <trkpt lat="28.391428" lon="-16.456226">
        <ele>1493.0</ele>
        <time>2021-07-10T11:35:10Z</time>
      </trkpt>
      <trkpt lat="28.391434" lon="-16.456315">
        <ele>1496.0</ele>
        <time>2021-07-10T11:35:17Z</time>
      </trkpt>
      <trkpt lat="28.39145" lon="-16.456362">
        <ele>1510.0</ele>
        <time>2021-07-10T11:35:26Z</time>
      </trkpt>
      <trkpt lat="28.391491" lon="-16.456389">
        <ele>1510.4</ele>
        <time>2021-07-10T11:35:31Z</time>
      </trkpt>
      <trkpt lat="28.391539" lon="-16.456459">
        <ele>1506.0</ele>
        <time>2021-07-10T11:35:45Z</time>
      </trkpt>
      <trkpt lat="28.391569" lon="-16.456468">
        <ele>1491.0</ele>
        <time>2021-07-10T11:36:03Z</time>
      </trkpt>
      <trkpt lat="28.391526" lon="-16.45641">
        <ele>1501.0</ele>
        <time>2021-07-10T11:36:31Z</time>
      </trkpt>
      <trkpt lat="28.391382" lon="-16.456343">
        <ele>1504.0</ele>
        <time>2021-07-10T11:37:08Z</time>
      </trkpt>
      <trkpt lat="28.391363" lon="-16.456267">
        <ele>1509.0</ele>
        <time>2021-07-10T11:37:17Z</time>
      </trkpt>
      <trkpt lat="28.391223" lon="-16.456209">
        <ele>1499.0</ele>
        <time>2021-07-10T11:37:41Z</time>
      </trkpt>
      <trkpt lat="28.39124" lon="-16.45624">
        <ele>1500.0</ele>
        <time>2021-07-10T11:37:47Z</time>
      </trkpt>
      <trkpt lat="28.391215" lon="-16.456305">
        <ele>1501.0</ele>
        <time>2021-07-10T11:38:05Z</time>
      </trkpt>
      <trkpt lat="28.391243" lon="-16.456207">
        <ele>1508.0</ele>
        <time>2021-07-10T11:38:27Z</time>
      </trkpt>
      <trkpt lat="28.391213" lon="-16.456142">
        <ele>1503.0</ele>
        <time>2021-07-10T11:39:07Z</time>
      </trkpt>
      <trkpt lat="28.391222" lon="-16.456062">
        <ele>1504.0</ele>
        <time>2021-07-10T11:39:39Z</time>
      </trkpt>
      <trkpt lat="28.391178" lon="-16.456051">
        <ele>1506.0</ele>
        <time>2021-07-10T11:39:45Z</time>
      </trkpt>
      <trkpt lat="28.391148" lon="-16.45608">
        <ele>1509.0</ele>
        <time>2021-07-10T11:39:54Z</time>
      </trkpt>
      <trkpt lat="28.391199" lon="-16.456079">
        <ele>1501.0</ele>
        <time>2021-07-10T11:40:26Z</time>
      </trkpt>
      <trkpt lat="28.391199" lon="-16.456138">
        <ele>1504.0</ele>
        <time>2021-07-10T11:41:19Z</time>
      </trkpt>
      <trkpt lat="28.391254" lon="-16.456181">
        <ele>1511.0</ele>
        <time>2021-07-10T11:42:30Z</time>
      </trkpt>
      <trkpt lat="28.391107" lon="-16.456171">
        <ele>1492.0</ele>
        <time>2021-07-10T11:43:22Z</time>
      </trkpt>
      <trkpt lat="28.391138" lon="-16.456153">
        <ele>1507.0</ele>
        <time>2021-07-10T11:43:56Z</time>
      </trkpt>
      <trkpt lat="28.391154" lon="-16.456261">
        <ele>1510.0</ele>
        <time>2021-07-10T11:44:37Z</time>
      </trkpt>
      <trkpt lat="28.391157" lon="-16.456226">
        <ele>1499.0</ele>
        <time>2021-07-10T11:45:03Z</time>
      </trkpt>
      <trkpt lat="28.391188" lon="-16.456178">
        <ele>1511.0</ele>
        <time>2021-07-10T11:45:31Z</time>
      </trkpt>
      <trkpt lat="28.391151" lon="-16.456174">
        <ele>1504.0</ele>
        <time>2021-07-10T11:45:38Z</time>
      </trkpt>
      <trkpt lat="28.391095" lon="-16.456123">
        <ele>1517.0</ele>
        <time>2021-07-10T11:45:42Z</time>
      </trkpt>
      <trkpt lat="28.391024" lon="-16.456106">
        <ele>1518.0</ele>
        <time>2021-07-10T11:45:47Z</time>
      </trkpt>
      <trkpt lat="28.390939" lon="-16.456068">
        <ele>1518.0</ele>
        <time>2021-07-10T11:45:52Z</time>
      </trkpt>
      <trkpt lat="28.390893" lon="-16.456015">
        <ele>1512.0</ele>
        <time>2021-07-10T11:46:04Z</time>
      </trkpt>
      <trkpt lat="28.390855" lon="-16.455993">
        <ele>1512.0</ele>
        <time>2021-07-10T11:46:13Z</time>
      </trkpt>
      <trkpt lat="28.390839" lon="-16.456002">
        <ele>1516.0</ele>
        <time>2021-07-10T11:46:22Z</time>
      </trkpt>
      <trkpt lat="28.390776" lon="-16.455985">
        <ele>1516.0</ele>
        <time>2021-07-10T11:46:31Z</time>
      </trkpt>
      <trkpt lat="28.390747" lon="-16.455999">
        <ele>1518.0</ele>
        <time>2021-07-10T11:46:34Z</time>
      </trkpt>
      <trkpt lat="28.390505" lon="-16.455969">
        <ele>1518.0</ele>
        <time>2021-07-10T11:47:12Z</time>
      </trkpt>
      <trkpt lat="28.390435" lon="-16.456">
        <ele>1523.0</ele>
        <time>2021-07-10T11:47:24Z</time>
      </trkpt>
      <trkpt lat="28.39041" lon="-16.456022">
        <ele>1524.0</ele>
        <time>2021-07-10T11:47:28Z</time>
      </trkpt>
      <trkpt lat="28.390375" lon="-16.456077">
        <ele>1532.0</ele>
        <time>2021-07-10T11:47:40Z</time>
      </trkpt>
      <trkpt lat="28.390281" lon="-16.456108">
        <ele>1531.0</ele>
        <time>2021-07-10T11:48:00Z</time>
      </trkpt>
      <trkpt lat="28.390212" lon="-16.456121">
        <ele>1535.0</ele>
        <time>2021-07-10T11:48:12Z</time>
      </trkpt>
      <trkpt lat="28.390083" lon="-16.456087">
        <ele>1535.0</ele>
        <time>2021-07-10T11:48:38Z</time>
      </trkpt>
      <trkpt lat="28.390063" lon="-16.456111">
        <ele>1533.0</ele>
        <time>2021-07-10T11:48:43Z</time>
      </trkpt>
      <trkpt lat="28.390011" lon="-16.456127">
        <ele>1540.0</ele>
        <time>2021-07-10T11:48:47Z</time>
      </trkpt>
      <trkpt lat="28.389983" lon="-16.456107">
        <ele>1537.0</ele>
        <time>2021-07-10T11:48:55Z</time>
      </trkpt>
      <trkpt lat="28.38998" lon="-16.45605">
        <ele>1536.0</ele>
        <time>2021-07-10T11:49:08Z</time>
      </trkpt>
      <trkpt lat="28.389912" lon="-16.456034">
        <ele>1540.0</ele>
        <time>2021-07-10T11:49:19Z</time>
      </trkpt>
      <trkpt lat="28.38987" lon="-16.456011">
        <ele>1540.0</ele>
        <time>2021-07-10T11:49:22Z</time>
      </trkpt>
      <trkpt lat="28.389826" lon="-16.456009">
        <ele>1540.0</ele>
        <time>2021-07-10T11:49:26Z</time>
      </trkpt>
      <trkpt lat="28.3898" lon="-16.45603">
        <ele>1541.0</ele>
        <time>2021-07-10T11:49:30Z</time>
      </trkpt>
      <trkpt lat="28.38979" lon="-16.456075">
        <ele>1543.0</ele>
        <time>2021-07-10T11:49:33Z</time>
      </trkpt>
      <trkpt lat="28.389809" lon="-16.456195">
        <ele>1551.0</ele>
        <time>2021-07-10T11:49:44Z</time>
      </trkpt>
      <trkpt lat="28.389857" lon="-16.456305">
        <ele>1555.0</ele>
        <time>2021-07-10T11:50:00Z</time>
      </trkpt>
      <trkpt lat="28.389871" lon="-16.456277">
        <ele>1548.0</ele>
        <time>2021-07-10T11:50:07Z</time>
      </trkpt>
      <trkpt lat="28.389951" lon="-16.456412">
        <ele>1560.0</ele>
        <time>2021-07-10T11:50:31Z</time>
      </trkpt>
      <trkpt lat="28.389972" lon="-16.45654">
        <ele>1560.0</ele>
        <time>2021-07-10T11:50:51Z</time>
      </trkpt>
      <trkpt lat="28.390005" lon="-16.456607">
        <ele>1566.0</ele>
        <time>2021-07-10T11:50:59Z</time>
      </trkpt>
      <trkpt lat="28.390031" lon="-16.456705">
        <ele>1568.0</ele>
        <time>2021-07-10T11:51:13Z</time>
      </trkpt>
      <trkpt lat="28.390132" lon="-16.456909">
        <ele>1565.0</ele>
        <time>2021-07-10T11:51:41Z</time>
      </trkpt>
      <trkpt lat="28.390125" lon="-16.456957">
        <ele>1567.0</ele>
        <time>2021-07-10T11:52:06Z</time>
      </trkpt>
      <trkpt lat="28.390135" lon="-16.457031">
        <ele>1567.8</ele>
        <time>2021-07-10T11:52:36Z</time>
      </trkpt>
      <trkpt lat="28.390176" lon="-16.456967">
        <ele>1568.7</ele>
        <time>2021-07-10T12:17:47Z</time>
      </trkpt>
      <trkpt lat="28.390102" lon="-16.457085">
        <ele>1567.5</ele>
        <time>2021-07-10T12:22:05Z</time>
      </trkpt>
      <trkpt lat="28.390083" lon="-16.457051">
        <ele>1568.1</ele>
        <time>2021-07-10T12:22:23Z</time>
      </trkpt>
      <trkpt lat="28.390065" lon="-16.457171">
        <ele>1564.0</ele>
        <time>2021-07-10T12:22:38Z</time>
      </trkpt>
      <trkpt lat="28.390022" lon="-16.45727">
        <ele>1568.0</ele>
        <time>2021-07-10T12:22:48Z</time>
      </trkpt>
      <trkpt lat="28.39001" lon="-16.457337">
        <ele>1568.0</ele>
        <time>2021-07-10T12:22:54Z</time>
      </trkpt>
      <trkpt lat="28.389983" lon="-16.457377">
        <ele>1569.3</ele>
        <time>2021-07-10T12:22:59Z</time>
      </trkpt>
      <trkpt lat="28.389977" lon="-16.457432">
        <ele>1566.0</ele>
        <time>2021-07-10T12:23:04Z</time>
      </trkpt>
      <trkpt lat="28.389928" lon="-16.457529">
        <ele>1568.0</ele>
        <time>2021-07-10T12:23:13Z</time>
      </trkpt>
      <trkpt lat="28.389911" lon="-16.457602">
        <ele>1566.0</ele>
        <time>2021-07-10T12:23:18Z</time>
      </trkpt>
      <trkpt lat="28.389938" lon="-16.457715">
        <ele>1564.0</ele>
        <time>2021-07-10T12:23:29Z</time>
      </trkpt>
      <trkpt lat="28.389938" lon="-16.457772">
        <ele>1560.0</ele>
        <time>2021-07-10T12:23:45Z</time>
      </trkpt>
      <trkpt lat="28.389956" lon="-16.457805">
        <ele>1561.4</ele>
        <time>2021-07-10T12:24:25Z</time>
      </trkpt>
      <trkpt lat="28.389935" lon="-16.457831">
        <ele>1560.0</ele>
        <time>2021-07-10T12:24:35Z</time>
      </trkpt>
      <trkpt lat="28.389945" lon="-16.457867">
        <ele>1560.0</ele>
        <time>2021-07-10T12:24:54Z</time>
      </trkpt>
      <trkpt lat="28.389954" lon="-16.457827">
        <ele>1560.0</ele>
        <time>2021-07-10T12:25:13Z</time>
      </trkpt>
      <trkpt lat="28.38995" lon="-16.457867">
        <ele>1560.0</ele>
        <time>2021-07-10T12:25:36Z</time>
      </trkpt>
      <trkpt lat="28.389948" lon="-16.457792">
        <ele>1561.0</ele>
        <time>2021-07-10T12:25:48Z</time>
      </trkpt>
      <trkpt lat="28.389918" lon="-16.45787">
        <ele>1560.0</ele>
        <time>2021-07-10T12:26:06Z</time>
      </trkpt>
      <trkpt lat="28.389935" lon="-16.457911">
        <ele>1560.0</ele>
        <time>2021-07-10T12:26:17Z</time>
      </trkpt>
      <trkpt lat="28.38993" lon="-16.457957">
        <ele>1560.0</ele>
        <time>2021-07-10T12:26:20Z</time>
      </trkpt>
      <trkpt lat="28.389957" lon="-16.45811">
        <ele>1555.0</ele>
        <time>2021-07-10T12:26:32Z</time>
      </trkpt>
      <trkpt lat="28.389904" lon="-16.458362">
        <ele>1556.0</ele>
        <time>2021-07-10T12:27:05Z</time>
      </trkpt>
      <trkpt lat="28.389936" lon="-16.458445">
        <ele>1554.0</ele>
        <time>2021-07-10T12:27:18Z</time>
      </trkpt>
      <trkpt lat="28.389916" lon="-16.458371">
        <ele>1553.0</ele>
        <time>2021-07-10T12:27:36Z</time>
      </trkpt>
      <trkpt lat="28.389869" lon="-16.458431">
        <ele>1555.0</ele>
        <time>2021-07-10T12:27:49Z</time>
      </trkpt>
      <trkpt lat="28.389851" lon="-16.458544">
        <ele>1560.0</ele>
        <time>2021-07-10T12:28:00Z</time>
      </trkpt>
      <trkpt lat="28.38982" lon="-16.458633">
        <ele>1563.0</ele>
        <time>2021-07-10T12:28:08Z</time>
      </trkpt>
      <trkpt lat="28.389844" lon="-16.458832">
        <ele>1567.0</ele>
        <time>2021-07-10T12:28:25Z</time>
      </trkpt>
      <trkpt lat="28.389907" lon="-16.459002">
        <ele>1566.0</ele>
        <time>2021-07-10T12:28:42Z</time>
      </trkpt>
      <trkpt lat="28.389923" lon="-16.459108">
        <ele>1566.0</ele>
        <time>2021-07-10T12:28:52Z</time>
      </trkpt>
      <trkpt lat="28.390001" lon="-16.459228">
        <ele>1564.0</ele>
        <time>2021-07-10T12:29:06Z</time>
      </trkpt>
      <trkpt lat="28.390026" lon="-16.459368">
        <ele>1560.0</ele>
        <time>2021-07-10T12:29:19Z</time>
      </trkpt>
      <trkpt lat="28.39001" lon="-16.459476">
        <ele>1551.0</ele>
        <time>2021-07-10T12:29:42Z</time>
      </trkpt>
      <trkpt lat="28.389841" lon="-16.459372">
        <ele>1561.0</ele>
        <time>2021-07-10T12:30:11Z</time>
      </trkpt>
      <trkpt lat="28.389813" lon="-16.459347">
        <ele>1560.0</ele>
        <time>2021-07-10T12:30:16Z</time>
      </trkpt>
      <trkpt lat="28.389755" lon="-16.459265">
        <ele>1564.0</ele>
        <time>2021-07-10T12:30:28Z</time>
      </trkpt>
      <trkpt lat="28.38962" lon="-16.459183">
        <ele>1567.0</ele>
        <time>2021-07-10T12:30:50Z</time>
      </trkpt>
      <trkpt lat="28.38959" lon="-16.459154">
        <ele>1568.4</ele>
        <time>2021-07-10T12:30:52Z</time>
      </trkpt>
      <trkpt lat="28.389555" lon="-16.459081">
        <ele>1572.0</ele>
        <time>2021-07-10T12:30:59Z</time>
      </trkpt>
      <trkpt lat="28.389477" lon="-16.459006">
        <ele>1577.0</ele>
        <time>2021-07-10T12:31:10Z</time>
      </trkpt>
      <trkpt lat="28.38928" lon="-16.458944">
        <ele>1578.0</ele>
        <time>2021-07-10T12:31:26Z</time>
      </trkpt>
      <trkpt lat="28.389231" lon="-16.458939">
        <ele>1577.2</ele>
        <time>2021-07-10T12:31:29Z</time>
      </trkpt>
      <trkpt lat="28.389196" lon="-16.45891">
        <ele>1575.0</ele>
        <time>2021-07-10T12:31:34Z</time>
      </trkpt>
      <trkpt lat="28.389122" lon="-16.458888">
        <ele>1575.0</ele>
        <time>2021-07-10T12:31:40Z</time>
      </trkpt>
      <trkpt lat="28.388956" lon="-16.458918">
        <ele>1576.0</ele>
        <time>2021-07-10T12:31:52Z</time>
      </trkpt>
      <trkpt lat="28.388917" lon="-16.458917">
        <ele>1576.0</ele>
        <time>2021-07-10T12:31:54Z</time>
      </trkpt>
      <trkpt lat="28.388754" lon="-16.458878">
        <ele>1577.0</ele>
        <time>2021-07-10T12:32:15Z</time>
      </trkpt>
      <trkpt lat="28.388719" lon="-16.458942">
        <ele>1575.0</ele>
        <time>2021-07-10T12:32:34Z</time>
      </trkpt>
      <trkpt lat="28.388575" lon="-16.458992">
        <ele>1575.0</ele>
        <time>2021-07-10T12:32:52Z</time>
      </trkpt>
      <trkpt lat="28.388438" lon="-16.459077">
        <ele>1578.0</ele>
        <time>2021-07-10T12:33:05Z</time>
      </trkpt>
      <trkpt lat="28.388368" lon="-16.459087">
        <ele>1580.0</ele>
        <time>2021-07-10T12:33:12Z</time>
      </trkpt>
      <trkpt lat="28.388287" lon="-16.459145">
        <ele>1579.0</ele>
        <time>2021-07-10T12:33:22Z</time>
      </trkpt>
      <trkpt lat="28.388222" lon="-16.45916">
        <ele>1580.0</ele>
        <time>2021-07-10T12:33:29Z</time>
      </trkpt>
      <trkpt lat="28.38819" lon="-16.459178">
        <ele>1581.0</ele>
        <time>2021-07-10T12:33:32Z</time>
      </trkpt>
      <trkpt lat="28.388052" lon="-16.459313">
        <ele>1576.0</ele>
        <time>2021-07-10T12:33:51Z</time>
      </trkpt>
      <trkpt lat="28.388028" lon="-16.459373">
        <ele>1574.0</ele>
        <time>2021-07-10T12:33:55Z</time>
      </trkpt>
      <trkpt lat="28.387967" lon="-16.459426">
        <ele>1572.0</ele>
        <time>2021-07-10T12:34:04Z</time>
      </trkpt>
      <trkpt lat="28.387838" lon="-16.459459">
        <ele>1572.0</ele>
        <time>2021-07-10T12:34:20Z</time>
      </trkpt>
      <trkpt lat="28.38775" lon="-16.459523">
        <ele>1572.0</ele>
        <time>2021-07-10T12:34:35Z</time>
      </trkpt>
      <trkpt lat="28.387663" lon="-16.459527">
        <ele>1572.0</ele>
        <time>2021-07-10T12:34:41Z</time>
      </trkpt>
      <trkpt lat="28.387602" lon="-16.459542">
        <ele>1571.0</ele>
        <time>2021-07-10T12:34:45Z</time>
      </trkpt>
      <trkpt lat="28.387385" lon="-16.459532">
        <ele>1572.0</ele>
        <time>2021-07-10T12:35:08Z</time>
      </trkpt>
      <trkpt lat="28.387382" lon="-16.459578">
        <ele>1570.0</ele>
        <time>2021-07-10T12:35:12Z</time>
      </trkpt>
      <trkpt lat="28.387355" lon="-16.459608">
        <ele>1563.0</ele>
        <time>2021-07-10T12:35:19Z</time>
      </trkpt>
      <trkpt lat="28.387266" lon="-16.459574">
        <ele>1568.0</ele>
        <time>2021-07-10T12:35:35Z</time>
      </trkpt>
      <trkpt lat="28.387279" lon="-16.459627">
        <ele>1563.0</ele>
        <time>2021-07-10T12:35:57Z</time>
      </trkpt>
      <trkpt lat="28.387208" lon="-16.459613">
        <ele>1565.0</ele>
        <time>2021-07-10T12:36:16Z</time>
      </trkpt>
      <trkpt lat="28.387182" lon="-16.459581">
        <ele>1562.0</ele>
        <time>2021-07-10T12:36:26Z</time>
      </trkpt>
      <trkpt lat="28.387124" lon="-16.459696">
        <ele>1567.0</ele>
        <time>2021-07-10T12:36:41Z</time>
      </trkpt>
      <trkpt lat="28.387137" lon="-16.459724">
        <ele>1564.0</ele>
        <time>2021-07-10T12:36:45Z</time>
      </trkpt>
      <trkpt lat="28.38714" lon="-16.459831">
        <ele>1567.0</ele>
        <time>2021-07-10T12:36:56Z</time>
      </trkpt>
      <trkpt lat="28.387158" lon="-16.459903">
        <ele>1568.0</ele>
        <time>2021-07-10T12:37:04Z</time>
      </trkpt>
      <trkpt lat="28.387155" lon="-16.459947">
        <ele>1570.0</ele>
        <time>2021-07-10T12:37:07Z</time>
      </trkpt>
      <trkpt lat="28.387125" lon="-16.460061">
        <ele>1575.0</ele>
        <time>2021-07-10T12:37:18Z</time>
      </trkpt>
      <trkpt lat="28.387126" lon="-16.460106">
        <ele>1572.0</ele>
        <time>2021-07-10T12:37:25Z</time>
      </trkpt>
      <trkpt lat="28.387174" lon="-16.460203">
        <ele>1572.0</ele>
        <time>2021-07-10T12:37:38Z</time>
      </trkpt>
      <trkpt lat="28.387162" lon="-16.460329">
        <ele>1572.0</ele>
        <time>2021-07-10T12:37:46Z</time>
      </trkpt>
      <trkpt lat="28.387165" lon="-16.460434">
        <ele>1575.0</ele>
        <time>2021-07-10T12:37:56Z</time>
      </trkpt>
      <trkpt lat="28.387148" lon="-16.46051">
        <ele>1576.0</ele>
        <time>2021-07-10T12:38:03Z</time>
      </trkpt>
      <trkpt lat="28.387128" lon="-16.460517">
        <ele>1578.0</ele>
        <time>2021-07-10T12:38:06Z</time>
      </trkpt>
      <trkpt lat="28.387132" lon="-16.460693">
        <ele>1578.0</ele>
        <time>2021-07-10T12:38:19Z</time>
      </trkpt>
      <trkpt lat="28.387086" lon="-16.460828">
        <ele>1580.0</ele>
        <time>2021-07-10T12:38:43Z</time>
      </trkpt>
      <trkpt lat="28.387155" lon="-16.460823">
        <ele>1579.0</ele>
        <time>2021-07-10T12:38:50Z</time>
      </trkpt>
      <trkpt lat="28.387315" lon="-16.460912">
        <ele>1578.0</ele>
        <time>2021-07-10T12:39:07Z</time>
      </trkpt>
      <trkpt lat="28.387339" lon="-16.460938">
        <ele>1578.0</ele>
        <time>2021-07-10T12:39:10Z</time>
      </trkpt>
      <trkpt lat="28.387372" lon="-16.461019">
        <ele>1581.0</ele>
        <time>2021-07-10T12:39:15Z</time>
      </trkpt>
      <trkpt lat="28.387504" lon="-16.461108">
        <ele>1584.0</ele>
        <time>2021-07-10T12:39:37Z</time>
      </trkpt>
      <trkpt lat="28.387537" lon="-16.461106">
        <ele>1585.0</ele>
        <time>2021-07-10T12:39:40Z</time>
      </trkpt>
      <trkpt lat="28.387583" lon="-16.461081">
        <ele>1581.0</ele>
        <time>2021-07-10T12:39:43Z</time>
      </trkpt>
      <trkpt lat="28.387595" lon="-16.46105">
        <ele>1576.0</ele>
        <time>2021-07-10T12:39:48Z</time>
      </trkpt>
      <trkpt lat="28.38763" lon="-16.461091">
        <ele>1569.0</ele>
        <time>2021-07-10T12:40:33Z</time>
      </trkpt>
      <trkpt lat="28.38763" lon="-16.461209">
        <ele>1584.0</ele>
        <time>2021-07-10T12:41:14Z</time>
      </trkpt>
      <trkpt lat="28.387686" lon="-16.461343">
        <ele>1587.0</ele>
        <time>2021-07-10T12:41:25Z</time>
      </trkpt>
      <trkpt lat="28.387755" lon="-16.461434">
        <ele>1587.0</ele>
        <time>2021-07-10T12:41:34Z</time>
      </trkpt>
      <trkpt lat="28.387774" lon="-16.461479">
        <ele>1587.0</ele>
        <time>2021-07-10T12:41:37Z</time>
      </trkpt>
      <trkpt lat="28.38782" lon="-16.461544">
        <ele>1583.0</ele>
        <time>2021-07-10T12:41:44Z</time>
      </trkpt>
      <trkpt lat="28.387837" lon="-16.461608">
        <ele>1580.0</ele>
        <time>2021-07-10T12:41:52Z</time>
      </trkpt>
      <trkpt lat="28.387837" lon="-16.461642">
        <ele>1582.0</ele>
        <time>2021-07-10T12:41:55Z</time>
      </trkpt>
      <trkpt lat="28.38781" lon="-16.461737">
        <ele>1580.0</ele>
        <time>2021-07-10T12:42:06Z</time>
      </trkpt>
      <trkpt lat="28.387814" lon="-16.461838">
        <ele>1584.0</ele>
        <time>2021-07-10T12:42:15Z</time>
      </trkpt>
      <trkpt lat="28.387793" lon="-16.461918">
        <ele>1585.0</ele>
        <time>2021-07-10T12:42:26Z</time>
      </trkpt>
      <trkpt lat="28.387541" lon="-16.462113">
        <ele>1588.0</ele>
        <time>2021-07-10T12:43:01Z</time>
      </trkpt>
      <trkpt lat="28.387521" lon="-16.462157">
        <ele>1588.0</ele>
        <time>2021-07-10T12:43:06Z</time>
      </trkpt>
      <trkpt lat="28.387482" lon="-16.462184">
        <ele>1588.5</ele>
        <time>2021-07-10T12:43:10Z</time>
      </trkpt>
      <trkpt lat="28.387473" lon="-16.462309">
        <ele>1584.0</ele>
        <time>2021-07-10T12:43:16Z</time>
      </trkpt>
      <trkpt lat="28.38745" lon="-16.462361">
        <ele>1584.0</ele>
        <time>2021-07-10T12:43:20Z</time>
      </trkpt>
      <trkpt lat="28.387425" lon="-16.462483">
        <ele>1583.3</ele>
        <time>2021-07-10T12:43:29Z</time>
      </trkpt>
      <trkpt lat="28.387395" lon="-16.462491">
        <ele>1583.0</ele>
        <time>2021-07-10T12:43:33Z</time>
      </trkpt>
      <trkpt lat="28.387373" lon="-16.462595">
        <ele>1584.0</ele>
        <time>2021-07-10T12:43:41Z</time>
      </trkpt>
      <trkpt lat="28.387344" lon="-16.462659">
        <ele>1584.0</ele>
        <time>2021-07-10T12:43:47Z</time>
      </trkpt>
      <trkpt lat="28.387339" lon="-16.462864">
        <ele>1581.0</ele>
        <time>2021-07-10T12:44:04Z</time>
      </trkpt>
      <trkpt lat="28.38732" lon="-16.462945">
        <ele>1580.0</ele>
        <time>2021-07-10T12:44:14Z</time>
      </trkpt>
      <trkpt lat="28.387321" lon="-16.462879">
        <ele>1575.0</ele>
        <time>2021-07-10T12:44:26Z</time>
      </trkpt>
      <trkpt lat="28.387305" lon="-16.462835">
        <ele>1580.0</ele>
        <time>2021-07-10T12:44:32Z</time>
      </trkpt>
      <trkpt lat="28.387209" lon="-16.462759">
        <ele>1582.0</ele>
        <time>2021-07-10T12:44:49Z</time>
      </trkpt>
      <trkpt lat="28.387129" lon="-16.462673">
        <ele>1589.0</ele>
        <time>2021-07-10T12:45:02Z</time>
      </trkpt>
      <trkpt lat="28.387117" lon="-16.462642">
        <ele>1590.0</ele>
        <time>2021-07-10T12:45:08Z</time>
      </trkpt>
      <trkpt lat="28.387038" lon="-16.462524">
        <ele>1592.0</ele>
        <time>2021-07-10T12:45:27Z</time>
      </trkpt>
      <trkpt lat="28.386909" lon="-16.462448">
        <ele>1592.0</ele>
        <time>2021-07-10T12:45:40Z</time>
      </trkpt>
      <trkpt lat="28.386889" lon="-16.462407">
        <ele>1590.0</ele>
        <time>2021-07-10T12:45:46Z</time>
      </trkpt>
      <trkpt lat="28.386793" lon="-16.462312">
        <ele>1592.0</ele>
        <time>2021-07-10T12:46:00Z</time>
      </trkpt>
      <trkpt lat="28.38662" lon="-16.462257">
        <ele>1590.0</ele>
        <time>2021-07-10T12:46:22Z</time>
      </trkpt>
      <trkpt lat="28.386491" lon="-16.462186">
        <ele>1596.0</ele>
        <time>2021-07-10T12:46:44Z</time>
      </trkpt>
      <trkpt lat="28.386442" lon="-16.462195">
        <ele>1597.5</ele>
        <time>2021-07-10T12:46:48Z</time>
      </trkpt>
      <trkpt lat="28.386404" lon="-16.462253">
        <ele>1595.0</ele>
        <time>2021-07-10T12:46:54Z</time>
      </trkpt>
      <trkpt lat="28.38635" lon="-16.462295">
        <ele>1596.0</ele>
        <time>2021-07-10T12:47:02Z</time>
      </trkpt>
      <trkpt lat="28.386305" lon="-16.462407">
        <ele>1598.0</ele>
        <time>2021-07-10T12:47:13Z</time>
      </trkpt>
      <trkpt lat="28.386316" lon="-16.462462">
        <ele>1589.0</ele>
        <time>2021-07-10T12:47:24Z</time>
      </trkpt>
      <trkpt lat="28.386308" lon="-16.462483">
        <ele>1599.0</ele>
        <time>2021-07-10T12:47:34Z</time>
      </trkpt>
      <trkpt lat="28.386314" lon="-16.462532">
        <ele>1600.0</ele>
        <time>2021-07-10T12:47:39Z</time>
      </trkpt>
      <trkpt lat="28.386307" lon="-16.462564">
        <ele>1600.0</ele>
        <time>2021-07-10T12:47:43Z</time>
      </trkpt>
      <trkpt lat="28.386336" lon="-16.462702">
        <ele>1600.0</ele>
        <time>2021-07-10T12:48:02Z</time>
      </trkpt>
      <trkpt lat="28.386329" lon="-16.462766">
        <ele>1605.0</ele>
        <time>2021-07-10T12:48:10Z</time>
      </trkpt>
      <trkpt lat="28.386347" lon="-16.462896">
        <ele>1604.0</ele>
        <time>2021-07-10T12:48:23Z</time>
      </trkpt>
      <trkpt lat="28.386309" lon="-16.46288">
        <ele>1602.0</ele>
        <time>2021-07-10T12:48:30Z</time>
      </trkpt>
      <trkpt lat="28.386053" lon="-16.463023">
        <ele>1605.0</ele>
        <time>2021-07-10T12:49:16Z</time>
      </trkpt>
      <trkpt lat="28.386054" lon="-16.46297">
        <ele>1604.0</ele>
        <time>2021-07-10T12:49:31Z</time>
      </trkpt>
      <trkpt lat="28.385953" lon="-16.462842">
        <ele>1610.0</ele>
        <time>2021-07-10T12:50:03Z</time>
      </trkpt>
      <trkpt lat="28.38586" lon="-16.462769">
        <ele>1610.0</ele>
        <time>2021-07-10T12:50:17Z</time>
      </trkpt>
      <trkpt lat="28.385734" lon="-16.462739">
        <ele>1614.0</ele>
        <time>2021-07-10T12:50:27Z</time>
      </trkpt>
      <trkpt lat="28.385657" lon="-16.462668">
        <ele>1616.0</ele>
        <time>2021-07-10T12:50:36Z</time>
      </trkpt>
      <trkpt lat="28.385638" lon="-16.462637">
        <ele>1616.0</ele>
        <time>2021-07-10T12:50:42Z</time>
      </trkpt>
      <trkpt lat="28.385591" lon="-16.462625">
        <ele>1617.0</ele>
        <time>2021-07-10T12:50:47Z</time>
      </trkpt>
      <trkpt lat="28.385561" lon="-16.462581">
        <ele>1617.0</ele>
        <time>2021-07-10T12:50:55Z</time>
      </trkpt>
      <trkpt lat="28.385505" lon="-16.462558">
        <ele>1618.0</ele>
        <time>2021-07-10T12:51:06Z</time>
      </trkpt>
      <trkpt lat="28.385457" lon="-16.462515">
        <ele>1620.0</ele>
        <time>2021-07-10T12:51:13Z</time>
      </trkpt>
      <trkpt lat="28.385359" lon="-16.462498">
        <ele>1617.0</ele>
        <time>2021-07-10T12:51:25Z</time>
      </trkpt>
      <trkpt lat="28.385291" lon="-16.462472">
        <ele>1622.0</ele>
        <time>2021-07-10T12:51:34Z</time>
      </trkpt>
      <trkpt lat="28.38515" lon="-16.462386">
        <ele>1620.0</ele>
        <time>2021-07-10T12:51:50Z</time>
      </trkpt>
      <trkpt lat="28.385095" lon="-16.462331">
        <ele>1624.0</ele>
        <time>2021-07-10T12:52:03Z</time>
      </trkpt>
      <trkpt lat="28.384986" lon="-16.462284">
        <ele>1625.0</ele>
        <time>2021-07-10T12:52:16Z</time>
      </trkpt>
      <trkpt lat="28.38488" lon="-16.462211">
        <ele>1622.0</ele>
        <time>2021-07-10T12:52:30Z</time>
      </trkpt>
      <trkpt lat="28.384867" lon="-16.462185">
        <ele>1623.0</ele>
        <time>2021-07-10T12:52:34Z</time>
      </trkpt>
      <trkpt lat="28.384702" lon="-16.461991">
        <ele>1625.0</ele>
        <time>2021-07-10T12:53:01Z</time>
      </trkpt>
      <trkpt lat="28.384651" lon="-16.461859">
        <ele>1632.0</ele>
        <time>2021-07-10T12:53:20Z</time>
      </trkpt>
      <trkpt lat="28.384518" lon="-16.461723">
        <ele>1632.0</ele>
        <time>2021-07-10T12:53:41Z</time>
      </trkpt>
      <trkpt lat="28.384491" lon="-16.461661">
        <ele>1634.0</ele>
        <time>2021-07-10T12:53:46Z</time>
      </trkpt>
      <trkpt lat="28.384385" lon="-16.461484">
        <ele>1640.0</ele>
        <time>2021-07-10T12:54:12Z</time>
      </trkpt>
      <trkpt lat="28.384314" lon="-16.461491">
        <ele>1640.0</ele>
        <time>2021-07-10T12:54:25Z</time>
      </trkpt>
      <trkpt lat="28.384256" lon="-16.461581">
        <ele>1632.0</ele>
        <time>2021-07-10T12:54:34Z</time>
      </trkpt>
      <trkpt lat="28.384226" lon="-16.461609">
        <ele>1633.0</ele>
        <time>2021-07-10T12:54:37Z</time>
      </trkpt>
      <trkpt lat="28.384191" lon="-16.461729">
        <ele>1631.5</ele>
        <time>2021-07-10T12:54:45Z</time>
      </trkpt>
      <trkpt lat="28.384177" lon="-16.46184">
        <ele>1634.0</ele>
        <time>2021-07-10T12:54:54Z</time>
      </trkpt>
      <trkpt lat="28.384157" lon="-16.461863">
        <ele>1636.0</ele>
        <time>2021-07-10T12:54:57Z</time>
      </trkpt>
      <trkpt lat="28.384144" lon="-16.461847">
        <ele>1636.0</ele>
        <time>2021-07-10T12:55:03Z</time>
      </trkpt>
      <trkpt lat="28.38414" lon="-16.461763">
        <ele>1631.0</ele>
        <time>2021-07-10T12:55:16Z</time>
      </trkpt>
      <trkpt lat="28.384088" lon="-16.461773">
        <ele>1636.0</ele>
        <time>2021-07-10T12:55:21Z</time>
      </trkpt>
      <trkpt lat="28.384056" lon="-16.461834">
        <ele>1640.0</ele>
        <time>2021-07-10T12:55:32Z</time>
      </trkpt>
      <trkpt lat="28.383999" lon="-16.461875">
        <ele>1644.0</ele>
        <time>2021-07-10T12:55:48Z</time>
      </trkpt>
      <trkpt lat="28.383936" lon="-16.461972">
        <ele>1632.0</ele>
        <time>2021-07-10T12:56:12Z</time>
      </trkpt>
      <trkpt lat="28.383962" lon="-16.46197">
        <ele>1642.0</ele>
        <time>2021-07-10T12:56:37Z</time>
      </trkpt>
      <trkpt lat="28.383952" lon="-16.461912">
        <ele>1644.0</ele>
        <time>2021-07-10T12:56:49Z</time>
      </trkpt>
      <trkpt lat="28.383974" lon="-16.461853">
        <ele>1644.0</ele>
        <time>2021-07-10T12:57:00Z</time>
      </trkpt>
      <trkpt lat="28.383975" lon="-16.461823">
        <ele>1644.0</ele>
        <time>2021-07-10T12:57:03Z</time>
      </trkpt>
      <trkpt lat="28.383941" lon="-16.461805">
        <ele>1635.0</ele>
        <time>2021-07-10T12:57:13Z</time>
      </trkpt>
      <trkpt lat="28.383803" lon="-16.46181">
        <ele>1653.0</ele>
        <time>2021-07-10T12:57:32Z</time>
      </trkpt>
      <trkpt lat="28.383714" lon="-16.461836">
        <ele>1644.0</ele>
        <time>2021-07-10T12:57:48Z</time>
      </trkpt>
      <trkpt lat="28.383706" lon="-16.461776">
        <ele>1652.0</ele>
        <time>2021-07-10T12:58:01Z</time>
      </trkpt>
      <trkpt lat="28.383681" lon="-16.461753">
        <ele>1655.0</ele>
        <time>2021-07-10T12:58:07Z</time>
      </trkpt>
      <trkpt lat="28.383577" lon="-16.461748">
        <ele>1654.0</ele>
        <time>2021-07-10T12:58:20Z</time>
      </trkpt>
      <trkpt lat="28.38357" lon="-16.461718">
        <ele>1653.0</ele>
        <time>2021-07-10T12:58:42Z</time>
      </trkpt>
      <trkpt lat="28.383536" lon="-16.461666">
        <ele>1650.0</ele>
        <time>2021-07-10T12:58:48Z</time>
      </trkpt>
      <trkpt lat="28.383527" lon="-16.461572">
        <ele>1655.0</ele>
        <time>2021-07-10T12:59:02Z</time>
      </trkpt>
      <trkpt lat="28.383468" lon="-16.461479">
        <ele>1658.3</ele>
        <time>2021-07-10T12:59:14Z</time>
      </trkpt>
      <trkpt lat="28.383461" lon="-16.461403">
        <ele>1660.0</ele>
        <time>2021-07-10T12:59:26Z</time>
      </trkpt>
      <trkpt lat="28.383473" lon="-16.46133">
        <ele>1660.0</ele>
        <time>2021-07-10T12:59:36Z</time>
      </trkpt>
      <trkpt lat="28.383459" lon="-16.461265">
        <ele>1664.0</ele>
        <time>2021-07-10T12:59:43Z</time>
      </trkpt>
      <trkpt lat="28.383394" lon="-16.461237">
        <ele>1664.0</ele>
        <time>2021-07-10T12:59:51Z</time>
      </trkpt>
      <trkpt lat="28.383353" lon="-16.461238">
        <ele>1662.0</ele>
        <time>2021-07-10T12:59:55Z</time>
      </trkpt>
      <trkpt lat="28.383358" lon="-16.461209">
        <ele>1655.0</ele>
        <time>2021-07-10T13:00:16Z</time>
      </trkpt>
      <trkpt lat="28.383332" lon="-16.461166">
        <ele>1662.0</ele>
        <time>2021-07-10T13:00:36Z</time>
      </trkpt>
      <trkpt lat="28.383304" lon="-16.461059">
        <ele>1666.0</ele>
        <time>2021-07-10T13:00:47Z</time>
      </trkpt>
      <trkpt lat="28.383279" lon="-16.461037">
        <ele>1665.0</ele>
        <time>2021-07-10T13:00:51Z</time>
      </trkpt>
      <trkpt lat="28.383131" lon="-16.460994">
        <ele>1671.0</ele>
        <time>2021-07-10T13:01:04Z</time>
      </trkpt>
      <trkpt lat="28.383053" lon="-16.460945">
        <ele>1674.0</ele>
        <time>2021-07-10T13:01:13Z</time>
      </trkpt>
      <trkpt lat="28.38302" lon="-16.460949">
        <ele>1674.0</ele>
        <time>2021-07-10T13:01:15Z</time>
      </trkpt>
      <trkpt lat="28.382882" lon="-16.461026">
        <ele>1674.0</ele>
        <time>2021-07-10T13:01:24Z</time>
      </trkpt>
      <trkpt lat="28.38283" lon="-16.461071">
        <ele>1674.0</ele>
        <time>2021-07-10T13:01:31Z</time>
      </trkpt>
      <trkpt lat="28.382631" lon="-16.461161">
        <ele>1666.0</ele>
        <time>2021-07-10T13:02:00Z</time>
      </trkpt>
      <trkpt lat="28.38261" lon="-16.461103">
        <ele>1665.0</ele>
        <time>2021-07-10T13:02:27Z</time>
      </trkpt>
      <trkpt lat="28.382514" lon="-16.461024">
        <ele>1667.0</ele>
        <time>2021-07-10T13:02:44Z</time>
      </trkpt>
      <trkpt lat="28.38247" lon="-16.461013">
        <ele>1669.1</ele>
        <time>2021-07-10T13:02:50Z</time>
      </trkpt>
      <trkpt lat="28.38243" lon="-16.460942">
        <ele>1669.0</ele>
        <time>2021-07-10T13:02:56Z</time>
      </trkpt>
      <trkpt lat="28.382359" lon="-16.46092">
        <ele>1672.0</ele>
        <time>2021-07-10T13:03:05Z</time>
      </trkpt>
      <trkpt lat="28.382257" lon="-16.460936">
        <ele>1671.0</ele>
        <time>2021-07-10T13:03:12Z</time>
      </trkpt>
      <trkpt lat="28.382087" lon="-16.461022">
        <ele>1670.0</ele>
        <time>2021-07-10T13:03:24Z</time>
      </trkpt>
      <trkpt lat="28.382002" lon="-16.461143">
        <ele>1660.0</ele>
        <time>2021-07-10T13:03:39Z</time>
      </trkpt>
      <trkpt lat="28.38192" lon="-16.461069">
        <ele>1668.0</ele>
        <time>2021-07-10T13:03:56Z</time>
      </trkpt>
      <trkpt lat="28.381769" lon="-16.461034">
        <ele>1668.0</ele>
        <time>2021-07-10T13:04:07Z</time>
      </trkpt>
      <trkpt lat="28.38164" lon="-16.460984">
        <ele>1668.0</ele>
        <time>2021-07-10T13:04:19Z</time>
      </trkpt>
      <trkpt lat="28.381579" lon="-16.460949">
        <ele>1668.0</ele>
        <time>2021-07-10T13:04:31Z</time>
      </trkpt>
      <trkpt lat="28.381495" lon="-16.460943">
        <ele>1666.0</ele>
        <time>2021-07-10T13:04:46Z</time>
      </trkpt>
      <trkpt lat="28.381468" lon="-16.460932">
        <ele>1664.0</ele>
        <time>2021-07-10T13:04:50Z</time>
      </trkpt>
      <trkpt lat="28.381331" lon="-16.460953">
        <ele>1662.0</ele>
        <time>2021-07-10T13:04:59Z</time>
      </trkpt>
      <trkpt lat="28.381228" lon="-16.461073">
        <ele>1660.0</ele>
        <time>2021-07-10T13:05:15Z</time>
      </trkpt>
      <trkpt lat="28.381079" lon="-16.461185">
        <ele>1664.8</ele>
        <time>2021-07-10T13:05:36Z</time>
      </trkpt>
      <trkpt lat="28.381093" lon="-16.461208">
        <ele>1664.0</ele>
        <time>2021-07-10T13:05:37Z</time>
      </trkpt>
      <trkpt lat="28.381053" lon="-16.461301">
        <ele>1660.0</ele>
        <time>2021-07-10T13:05:47Z</time>
      </trkpt>
      <trkpt lat="28.381066" lon="-16.461341">
        <ele>1660.0</ele>
        <time>2021-07-10T13:05:50Z</time>
      </trkpt>
      <trkpt lat="28.381095" lon="-16.461578">
        <ele>1659.0</ele>
        <time>2021-07-10T13:06:07Z</time>
      </trkpt>
      <trkpt lat="28.381172" lon="-16.461718">
        <ele>1663.0</ele>
        <time>2021-07-10T13:06:17Z</time>
      </trkpt>
      <trkpt lat="28.381194" lon="-16.461799">
        <ele>1661.0</ele>
        <time>2021-07-10T13:06:27Z</time>
      </trkpt>
      <trkpt lat="28.381203" lon="-16.461926">
        <ele>1659.0</ele>
        <time>2021-07-10T13:06:40Z</time>
      </trkpt>
      <trkpt lat="28.381248" lon="-16.461968">
        <ele>1656.0</ele>
        <time>2021-07-10T13:06:51Z</time>
      </trkpt>
      <trkpt lat="28.381221" lon="-16.462078">
        <ele>1656.0</ele>
        <time>2021-07-10T13:07:00Z</time>
      </trkpt>
      <trkpt lat="28.381182" lon="-16.462132">
        <ele>1656.0</ele>
        <time>2021-07-10T13:07:09Z</time>
      </trkpt>
      <trkpt lat="28.381169" lon="-16.462187">
        <ele>1656.0</ele>
        <time>2021-07-10T13:07:16Z</time>
      </trkpt>
      <trkpt lat="28.381136" lon="-16.462259">
        <ele>1656.0</ele>
        <time>2021-07-10T13:07:27Z</time>
      </trkpt>
      <trkpt lat="28.381021" lon="-16.462321">
        <ele>1656.0</ele>
        <time>2021-07-10T13:07:52Z</time>
      </trkpt>
      <trkpt lat="28.38095" lon="-16.462292">
        <ele>1658.0</ele>
        <time>2021-07-10T13:08:04Z</time>
      </trkpt>
      <trkpt lat="28.380789" lon="-16.462335">
        <ele>1660.0</ele>
        <time>2021-07-10T13:08:26Z</time>
      </trkpt>
      <trkpt lat="28.38067" lon="-16.46225">
        <ele>1662.0</ele>
        <time>2021-07-10T13:08:47Z</time>
      </trkpt>
      <trkpt lat="28.380586" lon="-16.462302">
        <ele>1664.0</ele>
        <time>2021-07-10T13:08:56Z</time>
      </trkpt>
      <trkpt lat="28.380589" lon="-16.462352">
        <ele>1665.6</ele>
        <time>2021-07-10T13:08:59Z</time>
      </trkpt>
      <trkpt lat="28.380615" lon="-16.462417">
        <ele>1664.0</ele>
        <time>2021-07-10T13:09:03Z</time>
      </trkpt>
      <trkpt lat="28.380609" lon="-16.462454">
        <ele>1664.0</ele>
        <time>2021-07-10T13:09:11Z</time>
      </trkpt>
      <trkpt lat="28.380623" lon="-16.462505">
        <ele>1662.0</ele>
        <time>2021-07-10T13:09:24Z</time>
      </trkpt>
      <trkpt lat="28.3807" lon="-16.462626">
        <ele>1659.0</ele>
        <time>2021-07-10T13:09:37Z</time>
      </trkpt>
      <trkpt lat="28.380775" lon="-16.462716">
        <ele>1658.0</ele>
        <time>2021-07-10T13:09:46Z</time>
      </trkpt>
      <trkpt lat="28.380772" lon="-16.462817">
        <ele>1658.0</ele>
        <time>2021-07-10T13:09:59Z</time>
      </trkpt>
      <trkpt lat="28.380798" lon="-16.462883">
        <ele>1658.0</ele>
        <time>2021-07-10T13:10:30Z</time>
      </trkpt>
      <trkpt lat="28.380724" lon="-16.463108">
        <ele>1664.0</ele>
        <time>2021-07-10T13:11:04Z</time>
      </trkpt>
      <trkpt lat="28.380736" lon="-16.463149">
        <ele>1662.0</ele>
        <time>2021-07-10T13:11:08Z</time>
      </trkpt>
      <trkpt lat="28.380732" lon="-16.463192">
        <ele>1662.0</ele>
        <time>2021-07-10T13:11:11Z</time>
      </trkpt>
      <trkpt lat="28.38076" lon="-16.463376">
        <ele>1659.0</ele>
        <time>2021-07-10T13:11:27Z</time>
      </trkpt>
      <trkpt lat="28.380799" lon="-16.463499">
        <ele>1657.0</ele>
        <time>2021-07-10T13:11:36Z</time>
      </trkpt>
      <trkpt lat="28.380798" lon="-16.463604">
        <ele>1655.0</ele>
        <time>2021-07-10T13:11:46Z</time>
      </trkpt>
      <trkpt lat="28.380843" lon="-16.463666">
        <ele>1651.0</ele>
        <time>2021-07-10T13:11:56Z</time>
      </trkpt>
      <trkpt lat="28.380832" lon="-16.46377">
        <ele>1655.0</ele>
        <time>2021-07-10T13:12:11Z</time>
      </trkpt>
      <trkpt lat="28.380849" lon="-16.463831">
        <ele>1656.9</ele>
        <time>2021-07-10T13:12:16Z</time>
      </trkpt>
      <trkpt lat="28.380872" lon="-16.463861">
        <ele>1655.0</ele>
        <time>2021-07-10T13:12:18Z</time>
      </trkpt>
      <trkpt lat="28.380897" lon="-16.463942">
        <ele>1654.0</ele>
        <time>2021-07-10T13:12:23Z</time>
      </trkpt>
      <trkpt lat="28.380936" lon="-16.464011">
        <ele>1652.0</ele>
        <time>2021-07-10T13:12:28Z</time>
      </trkpt>
      <trkpt lat="28.380971" lon="-16.464102">
        <ele>1652.0</ele>
        <time>2021-07-10T13:12:38Z</time>
      </trkpt>
      <trkpt lat="28.381032" lon="-16.464185">
        <ele>1647.0</ele>
        <time>2021-07-10T13:12:53Z</time>
      </trkpt>
      <trkpt lat="28.381034" lon="-16.464215">
        <ele>1649.0</ele>
        <time>2021-07-10T13:12:58Z</time>
      </trkpt>
      <trkpt lat="28.381058" lon="-16.464284">
        <ele>1644.0</ele>
        <time>2021-07-10T13:13:06Z</time>
      </trkpt>
      <trkpt lat="28.381014" lon="-16.464427">
        <ele>1639.0</ele>
        <time>2021-07-10T13:13:27Z</time>
      </trkpt>
      <trkpt lat="28.380967" lon="-16.464472">
        <ele>1640.0</ele>
        <time>2021-07-10T13:13:38Z</time>
      </trkpt>
      <trkpt lat="28.380816" lon="-16.464526">
        <ele>1645.0</ele>
        <time>2021-07-10T13:13:59Z</time>
      </trkpt>
      <trkpt lat="28.380717" lon="-16.464521">
        <ele>1645.0</ele>
        <time>2021-07-10T13:14:10Z</time>
      </trkpt>
      <trkpt lat="28.380612" lon="-16.464549">
        <ele>1644.0</ele>
        <time>2021-07-10T13:14:20Z</time>
      </trkpt>
      <trkpt lat="28.380516" lon="-16.4646">
        <ele>1641.0</ele>
        <time>2021-07-10T13:14:29Z</time>
      </trkpt>
      <trkpt lat="28.380443" lon="-16.464612">
        <ele>1644.0</ele>
        <time>2021-07-10T13:14:35Z</time>
      </trkpt>
      <trkpt lat="28.380355" lon="-16.46467">
        <ele>1642.0</ele>
        <time>2021-07-10T13:14:43Z</time>
      </trkpt>
      <trkpt lat="28.380253" lon="-16.464673">
        <ele>1640.0</ele>
        <time>2021-07-10T13:14:51Z</time>
      </trkpt>
      <trkpt lat="28.38018" lon="-16.464696">
        <ele>1641.0</ele>
        <time>2021-07-10T13:14:56Z</time>
      </trkpt>
      <trkpt lat="28.380076" lon="-16.464679">
        <ele>1641.0</ele>
        <time>2021-07-10T13:15:04Z</time>
      </trkpt>
      <trkpt lat="28.380025" lon="-16.464716">
        <ele>1640.0</ele>
        <time>2021-07-10T13:15:13Z</time>
      </trkpt>
      <trkpt lat="28.379985" lon="-16.464702">
        <ele>1640.6</ele>
        <time>2021-07-10T13:15:17Z</time>
      </trkpt>
      <trkpt lat="28.379876" lon="-16.464702">
        <ele>1638.0</ele>
        <time>2021-07-10T13:15:28Z</time>
      </trkpt>
      <trkpt lat="28.379781" lon="-16.464739">
        <ele>1636.0</ele>
        <time>2021-07-10T13:15:36Z</time>
      </trkpt>
      <trkpt lat="28.379756" lon="-16.464761">
        <ele>1638.0</ele>
        <time>2021-07-10T13:15:39Z</time>
      </trkpt>
      <trkpt lat="28.3798" lon="-16.464911">
        <ele>1638.0</ele>
        <time>2021-07-10T13:15:53Z</time>
      </trkpt>
      <trkpt lat="28.379843" lon="-16.464985">
        <ele>1635.0</ele>
        <time>2021-07-10T13:15:58Z</time>
      </trkpt>
      <trkpt lat="28.379879" lon="-16.465135">
        <ele>1638.0</ele>
        <time>2021-07-10T13:16:09Z</time>
      </trkpt>
      <trkpt lat="28.379927" lon="-16.465184">
        <ele>1638.0</ele>
        <time>2021-07-10T13:16:15Z</time>
      </trkpt>
      <trkpt lat="28.379964" lon="-16.465298">
        <ele>1640.0</ele>
        <time>2021-07-10T13:16:26Z</time>
      </trkpt>
      <trkpt lat="28.379988" lon="-16.465316">
        <ele>1638.0</ele>
        <time>2021-07-10T13:16:32Z</time>
      </trkpt>
      <trkpt lat="28.380046" lon="-16.46543">
        <ele>1638.0</ele>
        <time>2021-07-10T13:16:54Z</time>
      </trkpt>
      <trkpt lat="28.380087" lon="-16.465464">
        <ele>1632.0</ele>
        <time>2021-07-10T13:17:19Z</time>
      </trkpt>
      <trkpt lat="28.380082" lon="-16.465561">
        <ele>1637.0</ele>
        <time>2021-07-10T13:17:44Z</time>
      </trkpt>
      <trkpt lat="28.380063" lon="-16.465527">
        <ele>1624.0</ele>
        <time>2021-07-10T13:18:02Z</time>
      </trkpt>
      <trkpt lat="28.380107" lon="-16.465573">
        <ele>1634.0</ele>
        <time>2021-07-10T13:18:55Z</time>
      </trkpt>
      <trkpt lat="28.380131" lon="-16.465509">
        <ele>1639.0</ele>
        <time>2021-07-10T13:19:54Z</time>
      </trkpt>
      <trkpt lat="28.380083" lon="-16.465495">
        <ele>1637.0</ele>
        <time>2021-07-10T13:24:05Z</time>
      </trkpt>
      <trkpt lat="28.380109" lon="-16.465452">
        <ele>1632.0</ele>
        <time>2021-07-10T13:24:24Z</time>
      </trkpt>
      <trkpt lat="28.380132" lon="-16.465448">
        <ele>1636.0</ele>
        <time>2021-07-10T13:24:46Z</time>
      </trkpt>
      <trkpt lat="28.38014" lon="-16.46549">
        <ele>1635.0</ele>
        <time>2021-07-10T13:25:20Z</time>
      </trkpt>
      <trkpt lat="28.380117" lon="-16.465484">
        <ele>1635.0</ele>
        <time>2021-07-10T13:25:25Z</time>
      </trkpt>
      <trkpt lat="28.380111" lon="-16.465512">
        <ele>1633.0</ele>
        <time>2021-07-10T13:25:33Z</time>
      </trkpt>
      <trkpt lat="28.38012" lon="-16.465552">
        <ele>1631.0</ele>
        <time>2021-07-10T13:25:46Z</time>
      </trkpt>
      <trkpt lat="28.380161" lon="-16.465512">
        <ele>1631.0</ele>
        <time>2021-07-10T13:26:16Z</time>
      </trkpt>
      <trkpt lat="28.380116" lon="-16.465607">
        <ele>1629.0</ele>
        <time>2021-07-10T13:27:26Z</time>
      </trkpt>
      <trkpt lat="28.380088" lon="-16.465623">
        <ele>1638.0</ele>
        <time>2021-07-10T13:27:31Z</time>
      </trkpt>
      <trkpt lat="28.380074" lon="-16.465662">
        <ele>1632.0</ele>
        <time>2021-07-10T13:27:38Z</time>
      </trkpt>
      <trkpt lat="28.380079" lon="-16.465715">
        <ele>1638.0</ele>
        <time>2021-07-10T13:27:54Z</time>
      </trkpt>
      <trkpt lat="28.380113" lon="-16.465776">
        <ele>1633.0</ele>
        <time>2021-07-10T13:28:01Z</time>
      </trkpt>
      <trkpt lat="28.3801" lon="-16.465863">
        <ele>1636.0</ele>
        <time>2021-07-10T13:28:12Z</time>
      </trkpt>
      <trkpt lat="28.380111" lon="-16.465901">
        <ele>1632.0</ele>
        <time>2021-07-10T13:28:18Z</time>
      </trkpt>
      <trkpt lat="28.380053" lon="-16.46598">
        <ele>1638.0</ele>
        <time>2021-07-10T13:28:33Z</time>
      </trkpt>
      <trkpt lat="28.380029" lon="-16.466039">
        <ele>1644.0</ele>
        <time>2021-07-10T13:28:43Z</time>
      </trkpt>
      <trkpt lat="28.379978" lon="-16.466074">
        <ele>1647.0</ele>
        <time>2021-07-10T13:28:49Z</time>
      </trkpt>
      <trkpt lat="28.379951" lon="-16.466136">
        <ele>1648.0</ele>
        <time>2021-07-10T13:28:56Z</time>
      </trkpt>
      <trkpt lat="28.379945" lon="-16.466174">
        <ele>1650.0</ele>
        <time>2021-07-10T13:29:01Z</time>
      </trkpt>
      <trkpt lat="28.379871" lon="-16.466236">
        <ele>1653.0</ele>
        <time>2021-07-10T13:29:15Z</time>
      </trkpt>
      <trkpt lat="28.37986" lon="-16.466267">
        <ele>1654.0</ele>
        <time>2021-07-10T13:29:17Z</time>
      </trkpt>
      <trkpt lat="28.379811" lon="-16.466322">
        <ele>1653.0</ele>
        <time>2021-07-10T13:29:23Z</time>
      </trkpt>
      <trkpt lat="28.379758" lon="-16.466409">
        <ele>1654.0</ele>
        <time>2021-07-10T13:29:32Z</time>
      </trkpt>
      <trkpt lat="28.379697" lon="-16.466476">
        <ele>1656.0</ele>
        <time>2021-07-10T13:29:45Z</time>
      </trkpt>
      <trkpt lat="28.379689" lon="-16.466509">
        <ele>1659.0</ele>
        <time>2021-07-10T13:29:50Z</time>
      </trkpt>
      <trkpt lat="28.379696" lon="-16.466577">
        <ele>1656.0</ele>
        <time>2021-07-10T13:29:57Z</time>
      </trkpt>
      <trkpt lat="28.379615" lon="-16.466771">
        <ele>1662.0</ele>
        <time>2021-07-10T13:30:16Z</time>
      </trkpt>
      <trkpt lat="28.379614" lon="-16.466893">
        <ele>1662.0</ele>
        <time>2021-07-10T13:30:28Z</time>
      </trkpt>
      <trkpt lat="28.379586" lon="-16.467004">
        <ele>1661.0</ele>
        <time>2021-07-10T13:30:49Z</time>
      </trkpt>
      <trkpt lat="28.379465" lon="-16.467119">
        <ele>1668.0</ele>
        <time>2021-07-10T13:31:24Z</time>
      </trkpt>
      <trkpt lat="28.379397" lon="-16.467146">
        <ele>1667.0</ele>
        <time>2021-07-10T13:31:32Z</time>
      </trkpt>
      <trkpt lat="28.379385" lon="-16.46718">
        <ele>1668.0</ele>
        <time>2021-07-10T13:31:38Z</time>
      </trkpt>
      <trkpt lat="28.379312" lon="-16.467232">
        <ele>1668.0</ele>
        <time>2021-07-10T13:31:54Z</time>
      </trkpt>
      <trkpt lat="28.379268" lon="-16.467288">
        <ele>1668.0</ele>
        <time>2021-07-10T13:32:03Z</time>
      </trkpt>
      <trkpt lat="28.379222" lon="-16.467324">
        <ele>1670.0</ele>
        <time>2021-07-10T13:32:13Z</time>
      </trkpt>
      <trkpt lat="28.379192" lon="-16.467442">
        <ele>1663.0</ele>
        <time>2021-07-10T13:32:33Z</time>
      </trkpt>
      <trkpt lat="28.379154" lon="-16.467492">
        <ele>1663.0</ele>
        <time>2021-07-10T13:32:41Z</time>
      </trkpt>
      <trkpt lat="28.379051" lon="-16.467518">
        <ele>1668.0</ele>
        <time>2021-07-10T13:32:52Z</time>
      </trkpt>
      <trkpt lat="28.378968" lon="-16.467486">
        <ele>1665.0</ele>
        <time>2021-07-10T13:33:07Z</time>
      </trkpt>
      <trkpt lat="28.378932" lon="-16.467427">
        <ele>1673.0</ele>
        <time>2021-07-10T13:33:21Z</time>
      </trkpt>
      <trkpt lat="28.378902" lon="-16.467288">
        <ele>1674.0</ele>
        <time>2021-07-10T13:33:34Z</time>
      </trkpt>
      <trkpt lat="28.37886" lon="-16.467236">
        <ele>1674.0</ele>
        <time>2021-07-10T13:33:41Z</time>
      </trkpt>
      <trkpt lat="28.378703" lon="-16.467136">
        <ele>1670.0</ele>
        <time>2021-07-10T13:34:04Z</time>
      </trkpt>
      <trkpt lat="28.37859" lon="-16.466938">
        <ele>1671.0</ele>
        <time>2021-07-10T13:34:25Z</time>
      </trkpt>
      <trkpt lat="28.378451" lon="-16.46684">
        <ele>1668.0</ele>
        <time>2021-07-10T13:34:44Z</time>
      </trkpt>
      <trkpt lat="28.378413" lon="-16.466824">
        <ele>1668.0</ele>
        <time>2021-07-10T13:34:48Z</time>
      </trkpt>
      <trkpt lat="28.378383" lon="-16.466816">
        <ele>1667.0</ele>
        <time>2021-07-10T13:34:50Z</time>
      </trkpt>
      <trkpt lat="28.37832" lon="-16.466821">
        <ele>1656.0</ele>
        <time>2021-07-10T13:35:02Z</time>
      </trkpt>
      <trkpt lat="28.378292" lon="-16.466801">
        <ele>1651.0</ele>
        <time>2021-07-10T13:35:08Z</time>
      </trkpt>
      <trkpt lat="28.378231" lon="-16.466797">
        <ele>1652.0</ele>
        <time>2021-07-10T13:35:16Z</time>
      </trkpt>
      <trkpt lat="28.378194" lon="-16.466783">
        <ele>1653.0</ele>
        <time>2021-07-10T13:35:19Z</time>
      </trkpt>
      <trkpt lat="28.3781" lon="-16.466652">
        <ele>1652.0</ele>
        <time>2021-07-10T13:35:30Z</time>
      </trkpt>
      <trkpt lat="28.378054" lon="-16.466543">
        <ele>1654.0</ele>
        <time>2021-07-10T13:35:43Z</time>
      </trkpt>
      <trkpt lat="28.378006" lon="-16.46655">
        <ele>1648.0</ele>
        <time>2021-07-10T13:35:52Z</time>
      </trkpt>
      <trkpt lat="28.377955" lon="-16.466403">
        <ele>1656.0</ele>
        <time>2021-07-10T13:36:05Z</time>
      </trkpt>
      <trkpt lat="28.377893" lon="-16.466412">
        <ele>1655.0</ele>
        <time>2021-07-10T13:36:11Z</time>
      </trkpt>
      <trkpt lat="28.377909" lon="-16.466472">
        <ele>1647.0</ele>
        <time>2021-07-10T13:36:19Z</time>
      </trkpt>
      <trkpt lat="28.377875" lon="-16.46646">
        <ele>1651.0</ele>
        <time>2021-07-10T13:36:25Z</time>
      </trkpt>
      <trkpt lat="28.377833" lon="-16.466463">
        <ele>1650.0</ele>
        <time>2021-07-10T13:36:27Z</time>
      </trkpt>
      <trkpt lat="28.377717" lon="-16.466523">
        <ele>1645.0</ele>
        <time>2021-07-10T13:36:36Z</time>
      </trkpt>
      <trkpt lat="28.377644" lon="-16.466649">
        <ele>1647.0</ele>
        <time>2021-07-10T13:36:47Z</time>
      </trkpt>
      <trkpt lat="28.377596" lon="-16.466706">
        <ele>1650.0</ele>
        <time>2021-07-10T13:36:53Z</time>
      </trkpt>
      <trkpt lat="28.377558" lon="-16.46683">
        <ele>1652.0</ele>
        <time>2021-07-10T13:37:04Z</time>
      </trkpt>
      <trkpt lat="28.377605" lon="-16.46689">
        <ele>1649.0</ele>
        <time>2021-07-10T13:37:10Z</time>
      </trkpt>
      <trkpt lat="28.377605" lon="-16.467002">
        <ele>1644.0</ele>
        <time>2021-07-10T13:37:18Z</time>
      </trkpt>
      <trkpt lat="28.377551" lon="-16.467061">
        <ele>1647.0</ele>
        <time>2021-07-10T13:37:24Z</time>
      </trkpt>
      <trkpt lat="28.377539" lon="-16.467089">
        <ele>1648.0</ele>
        <time>2021-07-10T13:37:28Z</time>
      </trkpt>
      <trkpt lat="28.37755" lon="-16.467125">
        <ele>1647.0</ele>
        <time>2021-07-10T13:37:34Z</time>
      </trkpt>
      <trkpt lat="28.377504" lon="-16.467181">
        <ele>1647.0</ele>
        <time>2021-07-10T13:37:45Z</time>
      </trkpt>
      <trkpt lat="28.377474" lon="-16.467279">
        <ele>1650.0</ele>
        <time>2021-07-10T13:37:51Z</time>
      </trkpt>
      <trkpt lat="28.377481" lon="-16.467319">
        <ele>1650.5</ele>
        <time>2021-07-10T13:37:54Z</time>
      </trkpt>
      <trkpt lat="28.37745" lon="-16.467377">
        <ele>1651.0</ele>
        <time>2021-07-10T13:38:04Z</time>
      </trkpt>
      <trkpt lat="28.37742" lon="-16.4674">
        <ele>1652.0</ele>
        <time>2021-07-10T13:38:13Z</time>
      </trkpt>
      <trkpt lat="28.377403" lon="-16.467444">
        <ele>1633.0</ele>
        <time>2021-07-10T13:38:26Z</time>
      </trkpt>
      <trkpt lat="28.377363" lon="-16.467469">
        <ele>1656.0</ele>
        <time>2021-07-10T13:38:41Z</time>
      </trkpt>
      <trkpt lat="28.377336" lon="-16.467546">
        <ele>1656.0</ele>
        <time>2021-07-10T13:38:50Z</time>
      </trkpt>
      <trkpt lat="28.377358" lon="-16.467522">
        <ele>1656.0</ele>
        <time>2021-07-10T13:39:03Z</time>
      </trkpt>
      <trkpt lat="28.37736" lon="-16.467477">
        <ele>1655.0</ele>
        <time>2021-07-10T13:39:10Z</time>
      </trkpt>
      <trkpt lat="28.377323" lon="-16.467599">
        <ele>1656.0</ele>
        <time>2021-07-10T13:39:26Z</time>
      </trkpt>
      <trkpt lat="28.377281" lon="-16.46765">
        <ele>1658.5</ele>
        <time>2021-07-10T13:39:32Z</time>
      </trkpt>
      <trkpt lat="28.377273" lon="-16.467755">
        <ele>1660.0</ele>
        <time>2021-07-10T13:39:44Z</time>
      </trkpt>
      <trkpt lat="28.377253" lon="-16.467812">
        <ele>1660.0</ele>
        <time>2021-07-10T13:39:51Z</time>
      </trkpt>
      <trkpt lat="28.377195" lon="-16.467899">
        <ele>1662.0</ele>
        <time>2021-07-10T13:40:02Z</time>
      </trkpt>
      <trkpt lat="28.377183" lon="-16.467968">
        <ele>1659.0</ele>
        <time>2021-07-10T13:40:10Z</time>
      </trkpt>
      <trkpt lat="28.377007" lon="-16.468115">
        <ele>1668.0</ele>
        <time>2021-07-10T13:40:50Z</time>
      </trkpt>
      <trkpt lat="28.376767" lon="-16.468176">
        <ele>1672.0</ele>
        <time>2021-07-10T13:41:42Z</time>
      </trkpt>
      <trkpt lat="28.376667" lon="-16.468107">
        <ele>1679.0</ele>
        <time>2021-07-10T13:41:56Z</time>
      </trkpt>
      <trkpt lat="28.376477" lon="-16.468141">
        <ele>1678.0</ele>
        <time>2021-07-10T13:42:11Z</time>
      </trkpt>
      <trkpt lat="28.376427" lon="-16.468115">
        <ele>1676.0</ele>
        <time>2021-07-10T13:42:18Z</time>
      </trkpt>
      <trkpt lat="28.376362" lon="-16.468102">
        <ele>1678.0</ele>
        <time>2021-07-10T13:42:29Z</time>
      </trkpt>
      <trkpt lat="28.376334" lon="-16.468077">
        <ele>1679.0</ele>
        <time>2021-07-10T13:42:33Z</time>
      </trkpt>
      <trkpt lat="28.376269" lon="-16.468059">
        <ele>1678.0</ele>
        <time>2021-07-10T13:42:41Z</time>
      </trkpt>
      <trkpt lat="28.376233" lon="-16.468019">
        <ele>1680.3</ele>
        <time>2021-07-10T13:42:45Z</time>
      </trkpt>
      <trkpt lat="28.376146" lon="-16.467964">
        <ele>1668.0</ele>
        <time>2021-07-10T13:42:57Z</time>
      </trkpt>
      <trkpt lat="28.376029" lon="-16.467946">
        <ele>1680.0</ele>
        <time>2021-07-10T13:43:21Z</time>
      </trkpt>
      <trkpt lat="28.376015" lon="-16.468024">
        <ele>1678.0</ele>
        <time>2021-07-10T13:43:30Z</time>
      </trkpt>
      <trkpt lat="28.375974" lon="-16.468073">
        <ele>1676.0</ele>
        <time>2021-07-10T13:43:39Z</time>
      </trkpt>
      <trkpt lat="28.375794" lon="-16.468177">
        <ele>1680.0</ele>
        <time>2021-07-10T13:43:56Z</time>
      </trkpt>
      <trkpt lat="28.375699" lon="-16.468249">
        <ele>1675.0</ele>
        <time>2021-07-10T13:44:10Z</time>
      </trkpt>
      <trkpt lat="28.375651" lon="-16.46825">
        <ele>1674.0</ele>
        <time>2021-07-10T13:44:17Z</time>
      </trkpt>
      <trkpt lat="28.375594" lon="-16.468268">
        <ele>1668.0</ele>
        <time>2021-07-10T13:44:30Z</time>
      </trkpt>
      <trkpt lat="28.375486" lon="-16.468248">
        <ele>1680.0</ele>
        <time>2021-07-10T13:44:49Z</time>
      </trkpt>
      <trkpt lat="28.375397" lon="-16.468257">
        <ele>1680.0</ele>
        <time>2021-07-10T13:44:58Z</time>
      </trkpt>
      <trkpt lat="28.375362" lon="-16.468303">
        <ele>1676.0</ele>
        <time>2021-07-10T13:45:10Z</time>
      </trkpt>
      <trkpt lat="28.375356" lon="-16.468336">
        <ele>1674.0</ele>
        <time>2021-07-10T13:45:18Z</time>
      </trkpt>
      <trkpt lat="28.375326" lon="-16.468347">
        <ele>1672.0</ele>
        <time>2021-07-10T13:45:27Z</time>
      </trkpt>
      <trkpt lat="28.3753" lon="-16.468331">
        <ele>1673.0</ele>
        <time>2021-07-10T13:45:35Z</time>
      </trkpt>
      <trkpt lat="28.375303" lon="-16.468366">
        <ele>1672.0</ele>
        <time>2021-07-10T13:45:45Z</time>
      </trkpt>
      <trkpt lat="28.37534" lon="-16.468398">
        <ele>1672.0</ele>
        <time>2021-07-10T13:45:59Z</time>
      </trkpt>
      <trkpt lat="28.37535" lon="-16.468439">
        <ele>1671.0</ele>
        <time>2021-07-10T13:46:16Z</time>
      </trkpt>
      <trkpt lat="28.375282" lon="-16.468422">
        <ele>1673.0</ele>
        <time>2021-07-10T13:46:25Z</time>
      </trkpt>
      <trkpt lat="28.375192" lon="-16.468447">
        <ele>1675.0</ele>
        <time>2021-07-10T13:46:56Z</time>
      </trkpt>
      <trkpt lat="28.37516" lon="-16.468408">
        <ele>1671.0</ele>
        <time>2021-07-10T13:47:32Z</time>
      </trkpt>
      <trkpt lat="28.375178" lon="-16.468371">
        <ele>1676.0</ele>
        <time>2021-07-10T13:47:42Z</time>
      </trkpt>
      <trkpt lat="28.375181" lon="-16.468336">
        <ele>1668.0</ele>
        <time>2021-07-10T13:47:46Z</time>
      </trkpt>
      <trkpt lat="28.37517" lon="-16.4683">
        <ele>1662.0</ele>
        <time>2021-07-10T13:47:50Z</time>
      </trkpt>
      <trkpt lat="28.375142" lon="-16.468287">
        <ele>1660.0</ele>
        <time>2021-07-10T13:47:53Z</time>
      </trkpt>
      <trkpt lat="28.375096" lon="-16.468283">
        <ele>1682.0</ele>
        <time>2021-07-10T13:47:57Z</time>
      </trkpt>
      <trkpt lat="28.3751" lon="-16.468339">
        <ele>1680.0</ele>
        <time>2021-07-10T13:48:04Z</time>
      </trkpt>
      <trkpt lat="28.375035" lon="-16.468355">
        <ele>1681.0</ele>
        <time>2021-07-10T13:48:12Z</time>
      </trkpt>
      <trkpt lat="28.374983" lon="-16.468381">
        <ele>1682.0</ele>
        <time>2021-07-10T13:48:19Z</time>
      </trkpt>
      <trkpt lat="28.374947" lon="-16.468413">
        <ele>1685.0</ele>
        <time>2021-07-10T13:48:26Z</time>
      </trkpt>
      <trkpt lat="28.374945" lon="-16.468458">
        <ele>1683.0</ele>
        <time>2021-07-10T13:48:38Z</time>
      </trkpt>
      <trkpt lat="28.374988" lon="-16.468526">
        <ele>1683.0</ele>
        <time>2021-07-10T13:48:49Z</time>
      </trkpt>
      <trkpt lat="28.374984" lon="-16.468564">
        <ele>1683.0</ele>
        <time>2021-07-10T13:48:52Z</time>
      </trkpt>
      <trkpt lat="28.375052" lon="-16.468834">
        <ele>1694.0</ele>
        <time>2021-07-10T13:49:11Z</time>
      </trkpt>
      <trkpt lat="28.375104" lon="-16.468863">
        <ele>1694.0</ele>
        <time>2021-07-10T13:49:18Z</time>
      </trkpt>
      <trkpt lat="28.375213" lon="-16.468964">
        <ele>1695.0</ele>
        <time>2021-07-10T13:49:34Z</time>
      </trkpt>
      <trkpt lat="28.375215" lon="-16.469066">
        <ele>1697.0</ele>
        <time>2021-07-10T13:49:59Z</time>
      </trkpt>
      <trkpt lat="28.375256" lon="-16.469131">
        <ele>1700.0</ele>
        <time>2021-07-10T13:50:15Z</time>
      </trkpt>
      <trkpt lat="28.375237" lon="-16.469072">
        <ele>1692.0</ele>
        <time>2021-07-10T13:50:39Z</time>
      </trkpt>
      <trkpt lat="28.375193" lon="-16.46902">
        <ele>1698.0</ele>
        <time>2021-07-10T13:50:50Z</time>
      </trkpt>
      <trkpt lat="28.375147" lon="-16.469013">
        <ele>1690.0</ele>
        <time>2021-07-10T13:50:58Z</time>
      </trkpt>
      <trkpt lat="28.375049" lon="-16.468972">
        <ele>1700.0</ele>
        <time>2021-07-10T13:51:20Z</time>
      </trkpt>
      <trkpt lat="28.374993" lon="-16.469038">
        <ele>1704.0</ele>
        <time>2021-07-10T13:51:30Z</time>
      </trkpt>
      <trkpt lat="28.375011" lon="-16.469147">
        <ele>1708.0</ele>
        <time>2021-07-10T13:51:40Z</time>
      </trkpt>
      <trkpt lat="28.37503" lon="-16.469183">
        <ele>1708.0</ele>
        <time>2021-07-10T13:51:43Z</time>
      </trkpt>
      <trkpt lat="28.374993" lon="-16.469165">
        <ele>1707.0</ele>
        <time>2021-07-10T13:51:54Z</time>
      </trkpt>
      <trkpt lat="28.374947" lon="-16.469113">
        <ele>1703.0</ele>
        <time>2021-07-10T13:52:09Z</time>
      </trkpt>
      <trkpt lat="28.374918" lon="-16.469102">
        <ele>1710.0</ele>
        <time>2021-07-10T13:52:17Z</time>
      </trkpt>
      <trkpt lat="28.374895" lon="-16.469071">
        <ele>1708.0</ele>
        <time>2021-07-10T13:52:22Z</time>
      </trkpt>
      <trkpt lat="28.374816" lon="-16.469035">
        <ele>1708.0</ele>
        <time>2021-07-10T13:52:39Z</time>
      </trkpt>
      <trkpt lat="28.374731" lon="-16.46897">
        <ele>1710.0</ele>
        <time>2021-07-10T13:53:00Z</time>
      </trkpt>
      <trkpt lat="28.374696" lon="-16.468985">
        <ele>1704.0</ele>
        <time>2021-07-10T13:53:06Z</time>
      </trkpt>
      <trkpt lat="28.374667" lon="-16.469027">
        <ele>1716.0</ele>
        <time>2021-07-10T13:53:18Z</time>
      </trkpt>
      <trkpt lat="28.374639" lon="-16.469205">
        <ele>1720.0</ele>
        <time>2021-07-10T13:53:53Z</time>
      </trkpt>
      <trkpt lat="28.37466" lon="-16.469277">
        <ele>1722.0</ele>
        <time>2021-07-10T13:53:59Z</time>
      </trkpt>
      <trkpt lat="28.374724" lon="-16.469347">
        <ele>1724.4</ele>
        <time>2021-07-10T13:54:08Z</time>
      </trkpt>
      <trkpt lat="28.374733" lon="-16.469369">
        <ele>1724.0</ele>
        <time>2021-07-10T13:54:11Z</time>
      </trkpt>
      <trkpt lat="28.374823" lon="-16.469397">
        <ele>1720.0</ele>
        <time>2021-07-10T13:54:22Z</time>
      </trkpt>
      <trkpt lat="28.374906" lon="-16.469479">
        <ele>1721.0</ele>
        <time>2021-07-10T13:54:32Z</time>
      </trkpt>
      <trkpt lat="28.374977" lon="-16.469517">
        <ele>1715.0</ele>
        <time>2021-07-10T13:54:40Z</time>
      </trkpt>
      <trkpt lat="28.375044" lon="-16.469588">
        <ele>1716.0</ele>
        <time>2021-07-10T13:54:52Z</time>
      </trkpt>
      <trkpt lat="28.375052" lon="-16.46963">
        <ele>1716.0</ele>
        <time>2021-07-10T13:54:58Z</time>
      </trkpt>
      <trkpt lat="28.374974" lon="-16.469723">
        <ele>1716.0</ele>
        <time>2021-07-10T13:55:11Z</time>
      </trkpt>
      <trkpt lat="28.37496" lon="-16.469759">
        <ele>1719.0</ele>
        <time>2021-07-10T13:55:18Z</time>
      </trkpt>
      <trkpt lat="28.374964" lon="-16.469858">
        <ele>1720.0</ele>
        <time>2021-07-10T13:55:33Z</time>
      </trkpt>
      <trkpt lat="28.375016" lon="-16.470041">
        <ele>1727.3</ele>
        <time>2021-07-10T13:55:53Z</time>
      </trkpt>
      <trkpt lat="28.375059" lon="-16.470129">
        <ele>1725.0</ele>
        <time>2021-07-10T13:56:01Z</time>
      </trkpt>
      <trkpt lat="28.37508" lon="-16.470157">
        <ele>1724.0</ele>
        <time>2021-07-10T13:56:06Z</time>
      </trkpt>
      <trkpt lat="28.375118" lon="-16.470165">
        <ele>1720.0</ele>
        <time>2021-07-10T13:56:13Z</time>
      </trkpt>
      <trkpt lat="28.375084" lon="-16.470101">
        <ele>1722.0</ele>
        <time>2021-07-10T13:56:25Z</time>
      </trkpt>
      <trkpt lat="28.375031" lon="-16.470064">
        <ele>1724.0</ele>
        <time>2021-07-10T13:56:37Z</time>
      </trkpt>
      <trkpt lat="28.374972" lon="-16.470039">
        <ele>1725.0</ele>
        <time>2021-07-10T13:56:48Z</time>
      </trkpt>
      <trkpt lat="28.374901" lon="-16.470034">
        <ele>1725.0</ele>
        <time>2021-07-10T13:56:54Z</time>
      </trkpt>
      <trkpt lat="28.374769" lon="-16.469991">
        <ele>1724.0</ele>
        <time>2021-07-10T13:57:37Z</time>
      </trkpt>
      <trkpt lat="28.374752" lon="-16.470012">
        <ele>1722.0</ele>
        <time>2021-07-10T13:58:04Z</time>
      </trkpt>
      <trkpt lat="28.374722" lon="-16.469977">
        <ele>1724.0</ele>
        <time>2021-07-10T13:58:25Z</time>
      </trkpt>
      <trkpt lat="28.374719" lon="-16.470065">
        <ele>1710.2</ele>
        <time>2021-07-10T13:59:56Z</time>
      </trkpt>
      <trkpt lat="28.374706" lon="-16.470136">
        <ele>1652.0</ele>
        <time>2021-07-10T14:00:45Z</time>
      </trkpt>
      <trkpt lat="28.374669" lon="-16.470053">
        <ele>1653.0</ele>
        <time>2021-07-10T14:01:30Z</time>
      </trkpt>
      <trkpt lat="28.37464" lon="-16.470048">
        <ele>1655.0</ele>
        <time>2021-07-10T14:01:40Z</time>
      </trkpt>
      <trkpt lat="28.37466" lon="-16.469986">
        <ele>1655.0</ele>
        <time>2021-07-10T14:01:51Z</time>
      </trkpt>
      <trkpt lat="28.374656" lon="-16.46995">
        <ele>1658.0</ele>
        <time>2021-07-10T14:01:55Z</time>
      </trkpt>
      <trkpt lat="28.374622" lon="-16.469853">
        <ele>1684.0</ele>
        <time>2021-07-10T14:02:14Z</time>
      </trkpt>
      <trkpt lat="28.374586" lon="-16.469801">
        <ele>1726.0</ele>
        <time>2021-07-10T14:02:20Z</time>
      </trkpt>
      <trkpt lat="28.374564" lon="-16.469749">
        <ele>1722.0</ele>
        <time>2021-07-10T14:02:30Z</time>
      </trkpt>
      <trkpt lat="28.374584" lon="-16.469667">
        <ele>1728.0</ele>
        <time>2021-07-10T14:02:45Z</time>
      </trkpt>
      <trkpt lat="28.374568" lon="-16.469588">
        <ele>1728.0</ele>
        <time>2021-07-10T14:02:50Z</time>
      </trkpt>
      <trkpt lat="28.374517" lon="-16.46951">
        <ele>1731.0</ele>
        <time>2021-07-10T14:02:57Z</time>
      </trkpt>
      <trkpt lat="28.374514" lon="-16.469448">
        <ele>1732.0</ele>
        <time>2021-07-10T14:03:03Z</time>
      </trkpt>
      <trkpt lat="28.374491" lon="-16.469422">
        <ele>1734.0</ele>
        <time>2021-07-10T14:03:06Z</time>
      </trkpt>
      <trkpt lat="28.374482" lon="-16.469331">
        <ele>1731.0</ele>
        <time>2021-07-10T14:03:13Z</time>
      </trkpt>
      <trkpt lat="28.374437" lon="-16.469227">
        <ele>1728.0</ele>
        <time>2021-07-10T14:03:31Z</time>
      </trkpt>
      <trkpt lat="28.374389" lon="-16.469209">
        <ele>1728.0</ele>
        <time>2021-07-10T14:03:46Z</time>
      </trkpt>
      <trkpt lat="28.374285" lon="-16.46914">
        <ele>1732.0</ele>
        <time>2021-07-10T14:04:02Z</time>
      </trkpt>
      <trkpt lat="28.374218" lon="-16.469017">
        <ele>1732.0</ele>
        <time>2021-07-10T14:04:16Z</time>
      </trkpt>
      <trkpt lat="28.374193" lon="-16.468991">
        <ele>1734.0</ele>
        <time>2021-07-10T14:04:20Z</time>
      </trkpt>
      <trkpt lat="28.374162" lon="-16.468969">
        <ele>1734.0</ele>
        <time>2021-07-10T14:04:23Z</time>
      </trkpt>
      <trkpt lat="28.374089" lon="-16.46895">
        <ele>1737.0</ele>
        <time>2021-07-10T14:04:29Z</time>
      </trkpt>
      <trkpt lat="28.374028" lon="-16.468916">
        <ele>1740.0</ele>
        <time>2021-07-10T14:04:37Z</time>
      </trkpt>
      <trkpt lat="28.374017" lon="-16.468888">
        <ele>1740.0</ele>
        <time>2021-07-10T14:04:42Z</time>
      </trkpt>
      <trkpt lat="28.373953" lon="-16.468804">
        <ele>1743.2</ele>
        <time>2021-07-10T14:05:00Z</time>
      </trkpt>
      <trkpt lat="28.37392" lon="-16.468726">
        <ele>1743.0</ele>
        <time>2021-07-10T14:05:07Z</time>
      </trkpt>
      <trkpt lat="28.373755" lon="-16.468515">
        <ele>1746.0</ele>
        <time>2021-07-10T14:05:39Z</time>
      </trkpt>
      <trkpt lat="28.373659" lon="-16.46833">
        <ele>1748.0</ele>
        <time>2021-07-10T14:06:05Z</time>
      </trkpt>
      <trkpt lat="28.373562" lon="-16.4682">
        <ele>1750.0</ele>
        <time>2021-07-10T14:06:27Z</time>
      </trkpt>
      <trkpt lat="28.373558" lon="-16.468134">
        <ele>1750.8</ele>
        <time>2021-07-10T14:06:33Z</time>
      </trkpt>
      <trkpt lat="28.373513" lon="-16.468046">
        <ele>1750.0</ele>
        <time>2021-07-10T14:06:52Z</time>
      </trkpt>
      <trkpt lat="28.373278" lon="-16.467809">
        <ele>1756.0</ele>
        <time>2021-07-10T14:07:27Z</time>
      </trkpt>
      <trkpt lat="28.373243" lon="-16.467793">
        <ele>1758.0</ele>
        <time>2021-07-10T14:07:30Z</time>
      </trkpt>
      <trkpt lat="28.373183" lon="-16.467709">
        <ele>1760.0</ele>
        <time>2021-07-10T14:07:45Z</time>
      </trkpt>
      <trkpt lat="28.373136" lon="-16.467688">
        <ele>1759.0</ele>
        <time>2021-07-10T14:07:51Z</time>
      </trkpt>
      <trkpt lat="28.373102" lon="-16.467643">
        <ele>1761.0</ele>
        <time>2021-07-10T14:08:00Z</time>
      </trkpt>
      <trkpt lat="28.373132" lon="-16.467624">
        <ele>1762.0</ele>
        <time>2021-07-10T14:08:10Z</time>
      </trkpt>
      <trkpt lat="28.373119" lon="-16.467575">
        <ele>1761.0</ele>
        <time>2021-07-10T14:08:14Z</time>
      </trkpt>
      <trkpt lat="28.373011" lon="-16.467423">
        <ele>1760.0</ele>
        <time>2021-07-10T14:08:35Z</time>
      </trkpt>
      <trkpt lat="28.372948" lon="-16.467363">
        <ele>1758.0</ele>
        <time>2021-07-10T14:08:46Z</time>
      </trkpt>
      <trkpt lat="28.372885" lon="-16.467409">
        <ele>1765.0</ele>
        <time>2021-07-10T14:08:57Z</time>
      </trkpt>
      <trkpt lat="28.372879" lon="-16.467506">
        <ele>1767.0</ele>
        <time>2021-07-10T14:09:11Z</time>
      </trkpt>
      <trkpt lat="28.372909" lon="-16.467564">
        <ele>1767.0</ele>
        <time>2021-07-10T14:09:23Z</time>
      </trkpt>
      <trkpt lat="28.37291" lon="-16.467625">
        <ele>1768.0</ele>
        <time>2021-07-10T14:09:32Z</time>
      </trkpt>
      <trkpt lat="28.372963" lon="-16.467824">
        <ele>1771.0</ele>
        <time>2021-07-10T14:09:58Z</time>
      </trkpt>
      <trkpt lat="28.373017" lon="-16.467897">
        <ele>1770.0</ele>
        <time>2021-07-10T14:10:15Z</time>
      </trkpt>
      <trkpt lat="28.373019" lon="-16.467966">
        <ele>1772.0</ele>
        <time>2021-07-10T14:10:21Z</time>
      </trkpt>
      <trkpt lat="28.373044" lon="-16.468034">
        <ele>1770.0</ele>
        <time>2021-07-10T14:10:30Z</time>
      </trkpt>
      <trkpt lat="28.373053" lon="-16.468124">
        <ele>1768.0</ele>
        <time>2021-07-10T14:10:42Z</time>
      </trkpt>
      <trkpt lat="28.372976" lon="-16.468114">
        <ele>1771.0</ele>
        <time>2021-07-10T14:11:06Z</time>
      </trkpt>
      <trkpt lat="28.372947" lon="-16.468095">
        <ele>1770.0</ele>
        <time>2021-07-10T14:11:12Z</time>
      </trkpt>
      <trkpt lat="28.37289" lon="-16.468033">
        <ele>1772.0</ele>
        <time>2021-07-10T14:11:29Z</time>
      </trkpt>
      <trkpt lat="28.372848" lon="-16.468007">
        <ele>1770.0</ele>
        <time>2021-07-10T14:11:36Z</time>
      </trkpt>
      <trkpt lat="28.372847" lon="-16.467972">
        <ele>1772.0</ele>
        <time>2021-07-10T14:11:41Z</time>
      </trkpt>
      <trkpt lat="28.372788" lon="-16.467892">
        <ele>1775.0</ele>
        <time>2021-07-10T14:11:58Z</time>
      </trkpt>
      <trkpt lat="28.37269" lon="-16.467813">
        <ele>1778.0</ele>
        <time>2021-07-10T14:12:19Z</time>
      </trkpt>
      <trkpt lat="28.372654" lon="-16.467819">
        <ele>1776.0</ele>
        <time>2021-07-10T14:12:46Z</time>
      </trkpt>
      <trkpt lat="28.37258" lon="-16.467791">
        <ele>1776.0</ele>
        <time>2021-07-10T14:12:59Z</time>
      </trkpt>
      <trkpt lat="28.372568" lon="-16.46776">
        <ele>1780.0</ele>
        <time>2021-07-10T14:13:06Z</time>
      </trkpt>
      <trkpt lat="28.372536" lon="-16.467728">
        <ele>1780.3</ele>
        <time>2021-07-10T14:13:09Z</time>
      </trkpt>
      <trkpt lat="28.372407" lon="-16.467688">
        <ele>1780.0</ele>
        <time>2021-07-10T14:13:31Z</time>
      </trkpt>
      <trkpt lat="28.372361" lon="-16.467638">
        <ele>1780.0</ele>
        <time>2021-07-10T14:13:52Z</time>
      </trkpt>
      <trkpt lat="28.372337" lon="-16.467595">
        <ele>1782.0</ele>
        <time>2021-07-10T14:14:00Z</time>
      </trkpt>
      <trkpt lat="28.372279" lon="-16.467554">
        <ele>1775.0</ele>
        <time>2021-07-10T14:14:20Z</time>
      </trkpt>
      <trkpt lat="28.372241" lon="-16.467241">
        <ele>1795.0</ele>
        <time>2021-07-10T14:15:38Z</time>
      </trkpt>
      <trkpt lat="28.37216" lon="-16.467155">
        <ele>1800.0</ele>
        <time>2021-07-10T14:16:02Z</time>
      </trkpt>
      <trkpt lat="28.3721" lon="-16.467148">
        <ele>1802.0</ele>
        <time>2021-07-10T14:16:44Z</time>
      </trkpt>
      <trkpt lat="28.372044" lon="-16.467164">
        <ele>1799.0</ele>
        <time>2021-07-10T14:17:28Z</time>
      </trkpt>
      <trkpt lat="28.371961" lon="-16.467236">
        <ele>1804.0</ele>
        <time>2021-07-10T14:17:52Z</time>
      </trkpt>
      <trkpt lat="28.371918" lon="-16.467243">
        <ele>1806.0</ele>
        <time>2021-07-10T14:17:58Z</time>
      </trkpt>
      <trkpt lat="28.371904" lon="-16.46727">
        <ele>1802.0</ele>
        <time>2021-07-10T14:18:02Z</time>
      </trkpt>
      <trkpt lat="28.371808" lon="-16.467249">
        <ele>1800.0</ele>
        <time>2021-07-10T14:18:24Z</time>
      </trkpt>
      <trkpt lat="28.371809" lon="-16.467282">
        <ele>1804.0</ele>
        <time>2021-07-10T14:18:48Z</time>
      </trkpt>
      <trkpt lat="28.371764" lon="-16.467275">
        <ele>1797.0</ele>
        <time>2021-07-10T14:19:07Z</time>
      </trkpt>
      <trkpt lat="28.371761" lon="-16.467238">
        <ele>1800.0</ele>
        <time>2021-07-10T14:19:24Z</time>
      </trkpt>
      <trkpt lat="28.371804" lon="-16.467159">
        <ele>1808.0</ele>
        <time>2021-07-10T14:19:42Z</time>
      </trkpt>
      <trkpt lat="28.37184" lon="-16.467044">
        <ele>1810.0</ele>
        <time>2021-07-10T14:20:09Z</time>
      </trkpt>
      <trkpt lat="28.371831" lon="-16.466997">
        <ele>1812.0</ele>
        <time>2021-07-10T14:20:16Z</time>
      </trkpt>
      <trkpt lat="28.371867" lon="-16.46699">
        <ele>1814.0</ele>
        <time>2021-07-10T14:20:33Z</time>
      </trkpt>
      <trkpt lat="28.371831" lon="-16.466986">
        <ele>1806.0</ele>
        <time>2021-07-10T14:20:56Z</time>
      </trkpt>
      <trkpt lat="28.371834" lon="-16.466951">
        <ele>1814.0</ele>
        <time>2021-07-10T14:21:06Z</time>
      </trkpt>
      <trkpt lat="28.371805" lon="-16.466971">
        <ele>1806.0</ele>
        <time>2021-07-10T14:21:21Z</time>
      </trkpt>
      <trkpt lat="28.371766" lon="-16.466914">
        <ele>1813.0</ele>
        <time>2021-07-10T14:21:56Z</time>
      </trkpt>
      <trkpt lat="28.371728" lon="-16.466829">
        <ele>1821.0</ele>
        <time>2021-07-10T14:22:11Z</time>
      </trkpt>
      <trkpt lat="28.371756" lon="-16.466874">
        <ele>1816.0</ele>
        <time>2021-07-10T14:22:46Z</time>
      </trkpt>
      <trkpt lat="28.371662" lon="-16.466841">
        <ele>1815.0</ele>
        <time>2021-07-10T14:23:23Z</time>
      </trkpt>
      <trkpt lat="28.371557" lon="-16.466682">
        <ele>1828.0</ele>
        <time>2021-07-10T14:24:29Z</time>
      </trkpt>
      <trkpt lat="28.371547" lon="-16.466651">
        <ele>1827.0</ele>
        <time>2021-07-10T14:24:47Z</time>
      </trkpt>
      <trkpt lat="28.371578" lon="-16.466496">
        <ele>1836.0</ele>
        <time>2021-07-10T14:25:43Z</time>
      </trkpt>
      <trkpt lat="28.371493" lon="-16.466462">
        <ele>1829.0</ele>
        <time>2021-07-10T14:27:02Z</time>
      </trkpt>
      <trkpt lat="28.371469" lon="-16.466366">
        <ele>1841.0</ele>
        <time>2021-07-10T14:27:27Z</time>
      </trkpt>
      <trkpt lat="28.371503" lon="-16.466302">
        <ele>1842.0</ele>
        <time>2021-07-10T14:27:39Z</time>
      </trkpt>
      <trkpt lat="28.371536" lon="-16.466279">
        <ele>1845.0</ele>
        <time>2021-07-10T14:27:43Z</time>
      </trkpt>
      <trkpt lat="28.371634" lon="-16.466272">
        <ele>1844.0</ele>
        <time>2021-07-10T14:27:56Z</time>
      </trkpt>
      <trkpt lat="28.37167" lon="-16.466294">
        <ele>1845.0</ele>
        <time>2021-07-10T14:28:07Z</time>
      </trkpt>
      <trkpt lat="28.371798" lon="-16.466189">
        <ele>1836.0</ele>
        <time>2021-07-10T14:29:17Z</time>
      </trkpt>
      <trkpt lat="28.371785" lon="-16.465999">
        <ele>1845.0</ele>
        <time>2021-07-10T14:30:01Z</time>
      </trkpt>
      <trkpt lat="28.371742" lon="-16.465903">
        <ele>1850.0</ele>
        <time>2021-07-10T14:30:23Z</time>
      </trkpt>
      <trkpt lat="28.371716" lon="-16.46588">
        <ele>1848.0</ele>
        <time>2021-07-10T14:30:30Z</time>
      </trkpt>
      <trkpt lat="28.371696" lon="-16.465787">
        <ele>1854.0</ele>
        <time>2021-07-10T14:31:02Z</time>
      </trkpt>
      <trkpt lat="28.371617" lon="-16.465634">
        <ele>1861.0</ele>
        <time>2021-07-10T14:31:43Z</time>
      </trkpt>
      <trkpt lat="28.371617" lon="-16.465595">
        <ele>1862.3</ele>
        <time>2021-07-10T14:31:50Z</time>
      </trkpt>
      <trkpt lat="28.371647" lon="-16.465548">
        <ele>1860.0</ele>
        <time>2021-07-10T14:31:58Z</time>
      </trkpt>
      <trkpt lat="28.371666" lon="-16.465487">
        <ele>1860.0</ele>
        <time>2021-07-10T14:32:14Z</time>
      </trkpt>
      <trkpt lat="28.371641" lon="-16.46544">
        <ele>1863.0</ele>
        <time>2021-07-10T14:32:44Z</time>
      </trkpt>
      <trkpt lat="28.371582" lon="-16.465252">
        <ele>1870.0</ele>
        <time>2021-07-10T14:33:35Z</time>
      </trkpt>
      <trkpt lat="28.371586" lon="-16.465217">
        <ele>1872.0</ele>
        <time>2021-07-10T14:33:40Z</time>
      </trkpt>
      <trkpt lat="28.371613" lon="-16.465227">
        <ele>1864.0</ele>
        <time>2021-07-10T14:33:58Z</time>
      </trkpt>
      <trkpt lat="28.371619" lon="-16.465158">
        <ele>1871.7</ele>
        <time>2021-07-10T14:34:13Z</time>
      </trkpt>
      <trkpt lat="28.371599" lon="-16.465074">
        <ele>1872.0</ele>
        <time>2021-07-10T14:34:25Z</time>
      </trkpt>
      <trkpt lat="28.371619" lon="-16.464962">
        <ele>1859.0</ele>
        <time>2021-07-10T14:35:02Z</time>
      </trkpt>
      <trkpt lat="28.371547" lon="-16.464832">
        <ele>1880.0</ele>
        <time>2021-07-10T14:35:36Z</time>
      </trkpt>
      <trkpt lat="28.371573" lon="-16.464766">
        <ele>1882.0</ele>
        <time>2021-07-10T14:35:54Z</time>
      </trkpt>
      <trkpt lat="28.371579" lon="-16.464707">
        <ele>1884.0</ele>
        <time>2021-07-10T14:36:15Z</time>
      </trkpt>
      <trkpt lat="28.371549" lon="-16.464581">
        <ele>1883.0</ele>
        <time>2021-07-10T14:36:34Z</time>
      </trkpt>
      <trkpt lat="28.371573" lon="-16.464469">
        <ele>1885.0</ele>
        <time>2021-07-10T14:36:51Z</time>
      </trkpt>
      <trkpt lat="28.371671" lon="-16.46436">
        <ele>1879.0</ele>
        <time>2021-07-10T14:37:28Z</time>
      </trkpt>
      <trkpt lat="28.371695" lon="-16.464376">
        <ele>1887.0</ele>
        <time>2021-07-10T14:37:36Z</time>
      </trkpt>
      <trkpt lat="28.371719" lon="-16.464344">
        <ele>1887.0</ele>
        <time>2021-07-10T14:37:42Z</time>
      </trkpt>
      <trkpt lat="28.371701" lon="-16.464238">
        <ele>1890.0</ele>
        <time>2021-07-10T14:37:59Z</time>
      </trkpt>
      <trkpt lat="28.371673" lon="-16.4642">
        <ele>1890.0</ele>
        <time>2021-07-10T14:38:06Z</time>
      </trkpt>
      <trkpt lat="28.371717" lon="-16.464117">
        <ele>1892.0</ele>
        <time>2021-07-10T14:38:25Z</time>
      </trkpt>
      <trkpt lat="28.371802" lon="-16.464098">
        <ele>1885.0</ele>
        <time>2021-07-10T14:38:46Z</time>
      </trkpt>
      <trkpt lat="28.371814" lon="-16.46407">
        <ele>1890.0</ele>
        <time>2021-07-10T14:38:55Z</time>
      </trkpt>
      <trkpt lat="28.371805" lon="-16.463777">
        <ele>1896.0</ele>
        <time>2021-07-10T14:39:53Z</time>
      </trkpt>
      <trkpt lat="28.371816" lon="-16.463693">
        <ele>1896.0</ele>
        <time>2021-07-10T14:40:02Z</time>
      </trkpt>
      <trkpt lat="28.371787" lon="-16.463638">
        <ele>1896.0</ele>
        <time>2021-07-10T14:40:13Z</time>
      </trkpt>
      <trkpt lat="28.371748" lon="-16.463645">
        <ele>1897.0</ele>
        <time>2021-07-10T14:40:50Z</time>
      </trkpt>
      <trkpt lat="28.371706" lon="-16.463685">
        <ele>1896.0</ele>
        <time>2021-07-10T14:44:40Z</time>
      </trkpt>
      <trkpt lat="28.371645" lon="-16.463668">
        <ele>1902.5</ele>
        <time>2021-07-10T14:45:17Z</time>
      </trkpt>
      <trkpt lat="28.372518" lon="-16.463364">
        <ele>1904.3</ele>
        <time>2021-07-10T15:07:38Z</time>
      </trkpt>
      <trkpt lat="28.372526" lon="-16.463365">
        <ele>1904.4</ele>
        <time>2021-07-10T15:07:43Z</time>
      </trkpt>
      <trkpt lat="28.372533" lon="-16.46332">
        <ele>1902.0</ele>
        <time>2021-07-10T15:07:48Z</time>
      </trkpt>
      <trkpt lat="28.372756" lon="-16.463205">
        <ele>1910.0</ele>
        <time>2021-07-10T15:08:39Z</time>
      </trkpt>
      <trkpt lat="28.372802" lon="-16.46321">
        <ele>1910.0</ele>
        <time>2021-07-10T15:08:48Z</time>
      </trkpt>
      <trkpt lat="28.372863" lon="-16.463186">
        <ele>1910.0</ele>
        <time>2021-07-10T15:08:56Z</time>
      </trkpt>
      <trkpt lat="28.373013" lon="-16.463189">
        <ele>1912.0</ele>
        <time>2021-07-10T15:09:17Z</time>
      </trkpt>
      <trkpt lat="28.37305" lon="-16.463144">
        <ele>1910.0</ele>
        <time>2021-07-10T15:09:36Z</time>
      </trkpt>
      <trkpt lat="28.373088" lon="-16.46313">
        <ele>1911.0</ele>
        <time>2021-07-10T15:09:40Z</time>
      </trkpt>
      <trkpt lat="28.37313" lon="-16.463072">
        <ele>1912.0</ele>
        <time>2021-07-10T15:09:47Z</time>
      </trkpt>
      <trkpt lat="28.373159" lon="-16.46306">
        <ele>1912.0</ele>
        <time>2021-07-10T15:09:50Z</time>
      </trkpt>
      <trkpt lat="28.373225" lon="-16.463061">
        <ele>1908.0</ele>
        <time>2021-07-10T15:10:00Z</time>
      </trkpt>
      <trkpt lat="28.373253" lon="-16.463095">
        <ele>1912.0</ele>
        <time>2021-07-10T15:10:05Z</time>
      </trkpt>
      <trkpt lat="28.373281" lon="-16.463097">
        <ele>1911.0</ele>
        <time>2021-07-10T15:10:08Z</time>
      </trkpt>
      <trkpt lat="28.373318" lon="-16.463048">
        <ele>1911.0</ele>
        <time>2021-07-10T15:10:16Z</time>
      </trkpt>
      <trkpt lat="28.373328" lon="-16.462984">
        <ele>1910.0</ele>
        <time>2021-07-10T15:10:23Z</time>
      </trkpt>
      <trkpt lat="28.373362" lon="-16.462916">
        <ele>1905.0</ele>
        <time>2021-07-10T15:10:36Z</time>
      </trkpt>
      <trkpt lat="28.373477" lon="-16.463064">
        <ele>1911.0</ele>
        <time>2021-07-10T15:11:53Z</time>
      </trkpt>
      <trkpt lat="28.373473" lon="-16.462982">
        <ele>1910.0</ele>
        <time>2021-07-10T15:12:29Z</time>
      </trkpt>
      <trkpt lat="28.373527" lon="-16.462939">
        <ele>1912.0</ele>
        <time>2021-07-10T15:12:38Z</time>
      </trkpt>
      <trkpt lat="28.373586" lon="-16.462961">
        <ele>1910.0</ele>
        <time>2021-07-10T15:12:49Z</time>
      </trkpt>
      <trkpt lat="28.373636" lon="-16.463009">
        <ele>1911.0</ele>
        <time>2021-07-10T15:12:59Z</time>
      </trkpt>
      <trkpt lat="28.373698" lon="-16.463029">
        <ele>1908.0</ele>
        <time>2021-07-10T15:13:05Z</time>
      </trkpt>
      <trkpt lat="28.373758" lon="-16.462938">
        <ele>1903.0</ele>
        <time>2021-07-10T15:13:16Z</time>
      </trkpt>
      <trkpt lat="28.373811" lon="-16.462941">
        <ele>1906.0</ele>
        <time>2021-07-10T15:13:28Z</time>
      </trkpt>
      <trkpt lat="28.373855" lon="-16.462964">
        <ele>1904.0</ele>
        <time>2021-07-10T15:13:35Z</time>
      </trkpt>
      <trkpt lat="28.373921" lon="-16.46297">
        <ele>1902.0</ele>
        <time>2021-07-10T15:13:41Z</time>
      </trkpt>
      <trkpt lat="28.374005" lon="-16.463015">
        <ele>1900.0</ele>
        <time>2021-07-10T15:13:54Z</time>
      </trkpt>
      <trkpt lat="28.374071" lon="-16.463024">
        <ele>1900.0</ele>
        <time>2021-07-10T15:14:02Z</time>
      </trkpt>
      <trkpt lat="28.374112" lon="-16.463072">
        <ele>1902.0</ele>
        <time>2021-07-10T15:14:09Z</time>
      </trkpt>
      <trkpt lat="28.374107" lon="-16.463136">
        <ele>1902.0</ele>
        <time>2021-07-10T15:14:15Z</time>
      </trkpt>
      <trkpt lat="28.374122" lon="-16.463228">
        <ele>1904.0</ele>
        <time>2021-07-10T15:14:25Z</time>
      </trkpt>
      <trkpt lat="28.374109" lon="-16.463368">
        <ele>1905.0</ele>
        <time>2021-07-10T15:14:38Z</time>
      </trkpt>
      <trkpt lat="28.374119" lon="-16.463551">
        <ele>1900.0</ele>
        <time>2021-07-10T15:14:55Z</time>
      </trkpt>
      <trkpt lat="28.374053" lon="-16.463646">
        <ele>1899.0</ele>
        <time>2021-07-10T15:15:10Z</time>
      </trkpt>
      <trkpt lat="28.374028" lon="-16.463662">
        <ele>1902.0</ele>
        <time>2021-07-10T15:15:15Z</time>
      </trkpt>
      <trkpt lat="28.373978" lon="-16.46365">
        <ele>1900.0</ele>
        <time>2021-07-10T15:15:21Z</time>
      </trkpt>
      <trkpt lat="28.373919" lon="-16.463676">
        <ele>1903.0</ele>
        <time>2021-07-10T15:15:35Z</time>
      </trkpt>
      <trkpt lat="28.373929" lon="-16.463721">
        <ele>1900.0</ele>
        <time>2021-07-10T15:15:43Z</time>
      </trkpt>
      <trkpt lat="28.373957" lon="-16.463749">
        <ele>1897.0</ele>
        <time>2021-07-10T15:15:49Z</time>
      </trkpt>
      <trkpt lat="28.374004" lon="-16.463907">
        <ele>1899.9</ele>
        <time>2021-07-10T15:16:10Z</time>
      </trkpt>
      <trkpt lat="28.373996" lon="-16.463936">
        <ele>1896.0</ele>
        <time>2021-07-10T15:16:15Z</time>
      </trkpt>
      <trkpt lat="28.374018" lon="-16.463964">
        <ele>1888.0</ele>
        <time>2021-07-10T15:16:27Z</time>
      </trkpt>
      <trkpt lat="28.373943" lon="-16.463906">
        <ele>1900.0</ele>
        <time>2021-07-10T15:16:54Z</time>
      </trkpt>
      <trkpt lat="28.373881" lon="-16.46392">
        <ele>1900.0</ele>
        <time>2021-07-10T15:17:52Z</time>
      </trkpt>
      <trkpt lat="28.373901" lon="-16.463915">
        <ele>1899.0</ele>
        <time>2021-07-10T15:18:09Z</time>
      </trkpt>
      <trkpt lat="28.373925" lon="-16.463873">
        <ele>1902.0</ele>
        <time>2021-07-10T15:18:18Z</time>
      </trkpt>
      <trkpt lat="28.373928" lon="-16.463828">
        <ele>1902.0</ele>
        <time>2021-07-10T15:18:34Z</time>
      </trkpt>
      <trkpt lat="28.373946" lon="-16.463797">
        <ele>1902.0</ele>
        <time>2021-07-10T15:18:41Z</time>
      </trkpt>
      <trkpt lat="28.373938" lon="-16.46376">
        <ele>1880.0</ele>
        <time>2021-07-10T15:19:04Z</time>
      </trkpt>
      <trkpt lat="28.373921" lon="-16.463746">
        <ele>1892.0</ele>
        <time>2021-07-10T15:19:31Z</time>
      </trkpt>
      <trkpt lat="28.373917" lon="-16.463693">
        <ele>1844.0</ele>
        <time>2021-07-10T15:20:15Z</time>
      </trkpt>
      <trkpt lat="28.373922" lon="-16.463718">
        <ele>1874.0</ele>
        <time>2021-07-10T15:20:37Z</time>
      </trkpt>
      <trkpt lat="28.373953" lon="-16.463701">
        <ele>1902.0</ele>
        <time>2021-07-10T15:21:00Z</time>
      </trkpt>
      <trkpt lat="28.374017" lon="-16.463723">
        <ele>1902.0</ele>
        <time>2021-07-10T15:21:05Z</time>
      </trkpt>
      <trkpt lat="28.37404" lon="-16.463756">
        <ele>1901.4</ele>
        <time>2021-07-10T15:22:05Z</time>
      </trkpt>
    </trkseg>
  </trk>
</gpx>
